Darstellungsparameter: Aktuell verwendete Einstellungen:
Skalierung der Graphiken ... ?
xyx+y,   Skalierungsfaktor:      Skalierung: Modus: x, Faktor: 1
Darstellungszeitraum ... ?
Vom - - bis: - -   Zeitraum: 20.01.2010 - 19.04.2010
Min/Max/Avg-Anzeige ... ?
Zeige MMA aktuell
Zeige MMA Monat
Zeige MMA alles
Zeige --A aktuell
Zeige --A Monat
Zeige --A alles
Keine MMA-Anzeige
MMA:
Average (ber die Originaldaten)
MMA-Basis: 23.02.2003 - 23.04.2020
Quicknavigation für Darstellung... ?
Tage:      1T, 2T, 3T, 5T -1T -2T -3T -5T +1T +2T +3T +5T
Wochen: 1W, 2W, 3W -1W -2W -3W +1W +2W +3W
Monate: 1M, 3M, 6M -1M -3M -6M +1M +3M +6M
Jahre:    1J, 3J, 5J, 10J -1J -3J -5J -10J +1J +3J +5J +10J
Nutze für die Darstellung ... ?
Originaldaten oder Mittelwerte auf ...
Stundenbasis Tagesbasis Wochenbasis
Monatsbasis Jahresbasis      Datenbasis: Original-Daten
Darstellen als:
Statistik (Auto) Statistik J:M      Darstellung:
Zur Graphik,    zurück zur Übersicht aller Sensoren.
 
Tabellarische Datenbersicht: ?
 
Sensor: Nr:Datum:Temp:Abs-Feuchte:Windchill:Wind:
Aussen-T/F 1 20-01-2010 00:11:03 2 C 5.11 g/m*3 2 C 0 km/h
2 20-01-2010 00:23:03 2 C 5.11 g/m*3 2 C 0 km/h
3 20-01-2010 00:35:03 2 C 5.11 g/m*3 2 C 0 km/h
4 20-01-2010 00:47:03 2 C 5.11 g/m*3 2 C 0 km/h
5 20-01-2010 00:59:03 2.1 C 5.15 g/m*3 2.1 C 0 km/h
6 20-01-2010 01:11:03 2.1 C 5.15 g/m*3 2.1 C 0 km/h
7 20-01-2010 01:23:03 2.1 C 5.15 g/m*3 2.1 C 0 km/h
8 20-01-2010 01:35:03 2.2 C 5.18 g/m*3 2.2 C 0 km/h
9 20-01-2010 01:47:03 2.2 C 5.18 g/m*3 2.2 C 0 km/h
10 20-01-2010 01:59:03 2.2 C 5.18 g/m*3 2.2 C 0 km/h
11 20-01-2010 02:11:03 2.2 C 5.18 g/m*3 2.2 C 0 km/h
12 20-01-2010 02:23:03 2 C 5.11 g/m*3 2 C 0 km/h
13 20-01-2010 02:35:03 2 C 5.11 g/m*3 2 C 0 km/h
14 20-01-2010 02:47:03 2.1 C 5.15 g/m*3 2.1 C 0 km/h
15 20-01-2010 02:59:03 2 C 5.11 g/m*3 2 C 0 km/h
16 20-01-2010 03:11:03 2 C 5.11 g/m*3 2 C 0 km/h
17 20-01-2010 03:23:03 2 C 5.11 g/m*3 2 C 0 km/h
18 20-01-2010 03:35:03 1.9 C 5.08 g/m*3 1.9 C 0 km/h
19 20-01-2010 03:47:04 1.9 C 5.08 g/m*3 1.9 C 0 km/h
20 20-01-2010 03:59:04 1.8 C 5.04 g/m*3 1.8 C 0 km/h
21 20-01-2010 04:11:04 1.8 C 5.04 g/m*3 1.8 C 0 km/h
22 20-01-2010 04:23:04 1.8 C 5.04 g/m*3 1.8 C 0 km/h
23 20-01-2010 04:35:04 1.8 C 5.04 g/m*3 1.8 C 0 km/h
24 20-01-2010 04:47:04 1.8 C 5.04 g/m*3 1.8 C 0 km/h
25 20-01-2010 04:59:04 1.8 C 5.04 g/m*3 1.8 C 0 km/h
Sensor: Nr:Datum:Temp:Abs-Feuchte:Windchill:Wind:
Aussen-T/F 26 20-01-2010 05:11:04 1.8 C 5.04 g/m*3 1.8 C 0 km/h
27 20-01-2010 05:23:04 1.8 C 5.04 g/m*3 1.8 C 0 km/h
28 20-01-2010 05:35:04 1.7 C 5.01 g/m*3 1.7 C 0 km/h
29 20-01-2010 05:47:04 1.7 C 5.01 g/m*3 1.7 C 0 km/h
30 20-01-2010 05:59:04 1.6 C 4.97 g/m*3 1.6 C 0 km/h
31 20-01-2010 06:11:04 1.3 C 4.82 g/m*3 1.3 C 0 km/h
32 20-01-2010 06:23:04 0.6 C 4.6 g/m*3 0.6 C 0 km/h
33 20-01-2010 06:35:04 0.4 C 4.53 g/m*3 0.4 C 0 km/h
34 20-01-2010 06:47:04 0.3 C 4.5 g/m*3 0.3 C 0 km/h
35 20-01-2010 06:59:04 0.4 C 4.58 g/m*3 0.4 C 0 km/h
36 20-01-2010 07:11:02 0.5 C 4.61 g/m*3 0.5 C 0 km/h
37 20-01-2010 07:23:02 0.2 C 4.52 g/m*3 0.2 C 0 km/h
38 20-01-2010 07:35:03 -0.2 C 4.4 g/m*3 -0.2 C 0 km/h
39 20-01-2010 07:47:02 -0.4 C 4.34 g/m*3 -0.4 C 0 km/h
40 20-01-2010 07:59:02 -0.4 C 4.34 g/m*3 -0.4 C 0 km/h
41 20-01-2010 08:11:02 -0.6 C 4.28 g/m*3 -0.6 C 0 km/h
42 20-01-2010 08:23:02 -0.7 C 4.25 g/m*3 -0.7 C 0 km/h
43 20-01-2010 08:35:02 -0.8 C 4.22 g/m*3 -0.8 C 0 km/h
44 20-01-2010 08:47:02 -0.9 C 4.19 g/m*3 -0.9 C 0 km/h
45 20-01-2010 08:59:02 -0.9 C 4.19 g/m*3 -0.9 C 0 km/h
46 20-01-2010 09:11:02 -0.9 C 4.23 g/m*3 -0.9 C 0 km/h
47 20-01-2010 09:23:02 -0.8 C 4.26 g/m*3 -0.8 C 0 km/h
48 20-01-2010 09:35:02 -0.8 C 4.26 g/m*3 -0.8 C 0 km/h
49 20-01-2010 09:47:02 -0.6 C 4.32 g/m*3 -0.6 C 0 km/h
50 20-01-2010 09:59:02 0 C 4.55 g/m*3 0 C 0 km/h
Sensor: Nr:Datum:Temp:Abs-Feuchte:Windchill:Wind:
Aussen-T/F 51 20-01-2010 10:11:02 0.5 C 4.71 g/m*3 0.5 C 0 km/h
52 20-01-2010 10:23:02 0.9 C 4.9 g/m*3 0.9 C 0 km/h
53 20-01-2010 10:35:02 1.3 C 5.03 g/m*3 1.3 C 0 km/h
54 20-01-2010 10:47:02 1.7 C 5.17 g/m*3 1.7 C 0 km/h
55 20-01-2010 10:59:02 2 C 5.28 g/m*3 2 C 0 km/h
56 20-01-2010 11:11:01 2.3 C 5.33 g/m*3 2.3 C 0 km/h
57 20-01-2010 11:23:01 2.5 C 5.4 g/m*3 2.5 C 0 km/h
58 20-01-2010 11:35:02 2.7 C 5.42 g/m*3 2.7 C 0 km/h
59 20-01-2010 11:47:02 3 C 5.41 g/m*3 3 C 0 km/h
60 20-01-2010 11:59:02 3.2 C 5.3 g/m*3 3.2 C 0 km/h
61 20-01-2010 12:11:02 3.1 C 4.91 g/m*3 3.1 C 0 km/h
62 20-01-2010 12:23:02 3.2 C 4.7 g/m*3 3.2 C 0 km/h
63 20-01-2010 12:35:02 3.3 C 4.67 g/m*3 3.3 C 0 km/h
64 20-01-2010 12:47:02 3.4 C 4.64 g/m*3 3.4 C 0 km/h
65 20-01-2010 12:59:02 3.5 C 4.61 g/m*3 3.5 C 0 km/h
66 20-01-2010 13:11:02 3.6 C 4.52 g/m*3 3.6 C 0 km/h
67 20-01-2010 13:23:02 3.8 C 4.52 g/m*3 3.8 C 0 km/h
68 20-01-2010 13:35:02 3.8 C 4.45 g/m*3 3.8 C 0 km/h
69 20-01-2010 13:47:02 3.8 C 4.45 g/m*3 3.8 C 0 km/h
70 20-01-2010 13:59:02 3.8 C 4.39 g/m*3 3.8 C 0 km/h
71 20-01-2010 14:11:02 4 C 4.39 g/m*3 4 C 0 km/h
72 20-01-2010 14:23:02 4.1 C 4.35 g/m*3 4.1 C 0 km/h
73 20-01-2010 14:35:02 4.1 C 4.35 g/m*3 4.1 C 0 km/h
74 20-01-2010 14:47:02 4.2 C 4.38 g/m*3 4.2 C 0 km/h
75 20-01-2010 14:59:02 3.9 C 4.36 g/m*3 3.9 C 0 km/h
Sensor: Nr:Datum:Temp:Abs-Feuchte:Windchill:Wind:
Aussen-T/F 76 20-01-2010 15:11:02 3.9 C 4.42 g/m*3 3.9 C 0 km/h
77 20-01-2010 15:23:03 3.8 C 4.45 g/m*3 3.8 C 0 km/h
78 20-01-2010 15:35:02 3.8 C 4.39 g/m*3 3.8 C 0 km/h
79 20-01-2010 15:47:02 3.7 C 4.49 g/m*3 3.7 C 0 km/h
80 20-01-2010 15:59:02 3.6 C 4.39 g/m*3 3.6 C 0 km/h
81 20-01-2010 16:11:02 3.6 C 4.39 g/m*3 3.6 C 0 km/h
82 20-01-2010 16:23:02 3.5 C 4.43 g/m*3 3.5 C 0 km/h
83 20-01-2010 16:35:02 3.4 C 4.4 g/m*3 3.4 C 0 km/h
84 20-01-2010 16:47:02 3.2 C 4.4 g/m*3 3.2 C 0 km/h
85 20-01-2010 16:59:02 3 C 4.4 g/m*3 3 C 0 km/h
86 20-01-2010 17:11:02 2.8 C 4.46 g/m*3 2.8 C 0 km/h
87 20-01-2010 17:23:02 2.8 C 4.52 g/m*3 2.8 C 0 km/h
88 20-01-2010 17:35:01 2.6 C 4.46 g/m*3 2.6 C 0 km/h
89 20-01-2010 17:47:02 2.4 C 4.45 g/m*3 2.4 C 0 km/h
90 20-01-2010 17:59:02 2.3 C 4.48 g/m*3 2.3 C 0 km/h
91 20-01-2010 18:11:01 2.2 C 4.45 g/m*3 2.2 C 0 km/h
92 20-01-2010 18:23:01 2.2 C 4.51 g/m*3 2.2 C 0 km/h
93 20-01-2010 18:35:01 2 C 4.45 g/m*3 2 C 0 km/h
94 20-01-2010 18:47:02 1.7 C 4.41 g/m*3 1.7 C 0 km/h
95 20-01-2010 18:59:02 1.7 C 4.46 g/m*3 1.7 C 0 km/h
96 20-01-2010 19:11:01 1.7 C 4.52 g/m*3 1.7 C 0 km/h
97 20-01-2010 19:23:02 1.8 C 4.55 g/m*3 1.8 C 0 km/h
98 20-01-2010 19:35:02 2 C 4.56 g/m*3 2 C 0 km/h
99 20-01-2010 19:47:02 2.2 C 4.62 g/m*3 2.2 C 0 km/h
100 20-01-2010 19:59:02 2.3 C 4.65 g/m*3 2.3 C 0 km/h
Sensor: Nr:Datum:Temp:Abs-Feuchte:Windchill:Wind:
Aussen-T/F 101 20-01-2010 20:11:01 2.4 C 4.62 g/m*3 2.4 C 0 km/h
102 20-01-2010 20:23:01 2.6 C 4.51 g/m*3 2.6 C 0 km/h
103 20-01-2010 20:35:01 2.6 C 4.46 g/m*3 2.6 C 0 km/h
104 20-01-2010 20:47:02 2.5 C 4.31 g/m*3 2.5 C 0 km/h
105 20-01-2010 20:59:02 2.1 C 4.2 g/m*3 2.1 C 0 km/h
106 20-01-2010 21:11:02 1.6 C 4.11 g/m*3 1.6 C 0 km/h
107 20-01-2010 21:23:02 1.4 C 4.16 g/m*3 1.4 C 0 km/h
108 20-01-2010 21:35:02 1.7 C 4.25 g/m*3 1.7 C 0 km/h
109 20-01-2010 21:47:01 1.7 C 4.25 g/m*3 1.7 C 0 km/h
110 20-01-2010 21:59:01 1.7 C 4.25 g/m*3 1.7 C 0 km/h
111 20-01-2010 22:11:02 1.8 C 4.28 g/m*3 1.8 C 0 km/h
112 20-01-2010 22:23:02 1.8 C 4.22 g/m*3 1.8 C 0 km/h
113 20-01-2010 22:35:01 1.9 C 4.19 g/m*3 1.9 C 0 km/h
114 20-01-2010 22:47:02 2 C 4.11 g/m*3 2 C 0 km/h
115 20-01-2010 22:59:02 1.9 C 4.14 g/m*3 1.9 C 0 km/h
116 20-01-2010 23:11:01 1.9 C 4.19 g/m*3 1.9 C 0 km/h
117 20-01-2010 23:23:02 1.9 C 4.19 g/m*3 1.9 C 0 km/h
118 20-01-2010 23:35:01 1.8 C 4.17 g/m*3 1.8 C 0 km/h
119 20-01-2010 23:47:02 1.8 C 4.11 g/m*3 1.8 C 0 km/h
120 20-01-2010 23:59:02 1.8 C 4.17 g/m*3 1.8 C 0 km/h
121 21-01-2010 00:11:02 1.8 C 4.11 g/m*3 1.8 C 0 km/h
122 21-01-2010 00:23:02 1.8 C 4.11 g/m*3 1.8 C 0 km/h
123 21-01-2010 00:35:03 1.9 C 4.03 g/m*3 1.9 C 0 km/h
124 21-01-2010 00:47:02 1.8 C 4 g/m*3 1.8 C 0 km/h
125 21-01-2010 00:59:02 1.8 C 3.95 g/m*3 1.8 C 0 km/h
Sensor: Nr:Datum:Temp:Abs-Feuchte:Windchill:Wind:
Aussen-T/F 126 21-01-2010 01:11:02 1.8 C 3.84 g/m*3 1.8 C 0 km/h
127 21-01-2010 01:23:02 1.7 C 3.81 g/m*3 1.7 C 0 km/h
128 21-01-2010 01:35:02 1.7 C 3.81 g/m*3 1.7 C 0 km/h
129 21-01-2010 01:47:02 1.8 C 3.84 g/m*3 1.8 C 0 km/h
130 21-01-2010 01:59:02 1.8 C 3.78 g/m*3 1.8 C 0 km/h
131 21-01-2010 02:11:03 1.8 C 3.84 g/m*3 1.8 C 0 km/h
132 21-01-2010 02:23:02 1.7 C 3.87 g/m*3 1.7 C 0 km/h
133 21-01-2010 02:35:02 1.7 C 3.92 g/m*3 1.7 C 0 km/h
134 21-01-2010 02:47:01 1.7 C 3.92 g/m*3 1.7 C 0 km/h
135 21-01-2010 02:59:01 1.7 C 3.92 g/m*3 1.7 C 0 km/h
136 21-01-2010 03:11:02 1.7 C 3.92 g/m*3 1.7 C 0 km/h
137 21-01-2010 03:23:02 1.7 C 3.97 g/m*3 1.7 C 0 km/h
138 21-01-2010 03:35:01 1.7 C 4.03 g/m*3 1.7 C 0 km/h
139 21-01-2010 03:47:01 1.7 C 4.03 g/m*3 1.7 C 0 km/h
140 21-01-2010 03:59:01 1.8 C 4 g/m*3 1.8 C 0 km/h
141 21-01-2010 04:11:02 1.7 C 3.97 g/m*3 1.7 C 0 km/h
142 21-01-2010 04:23:01 1.7 C 4.03 g/m*3 1.7 C 0 km/h
143 21-01-2010 04:35:02 1.8 C 4 g/m*3 1.8 C 0 km/h
144 21-01-2010 04:47:01 1.8 C 3.89 g/m*3 1.8 C 0 km/h
145 21-01-2010 04:59:01 1.8 C 3.89 g/m*3 1.8 C 0 km/h
146 21-01-2010 05:11:02 1.8 C 3.95 g/m*3 1.8 C 0 km/h
147 21-01-2010 05:23:01 1.7 C 3.97 g/m*3 1.7 C 0 km/h
148 21-01-2010 05:35:01 1.7 C 4.03 g/m*3 1.7 C 0 km/h
149 21-01-2010 05:47:01 1.7 C 4.03 g/m*3 1.7 C 0 km/h
150 21-01-2010 05:59:01 1.6 C 3.95 g/m*3 1.6 C 0 km/h
Sensor: Nr:Datum:Temp:Abs-Feuchte:Windchill:Wind:
Aussen-T/F 151 21-01-2010 06:11:01 1.6 C 4 g/m*3 1.6 C 0 km/h
152 21-01-2010 06:23:01 1.6 C 4.06 g/m*3 1.6 C 0 km/h
153 21-01-2010 06:35:01 1.5 C 4.03 g/m*3 1.5 C 0 km/h
154 21-01-2010 06:47:01 1.5 C 4.08 g/m*3 1.5 C 0 km/h
155 21-01-2010 06:59:01 1.4 C 4.11 g/m*3 1.4 C 0 km/h
156 21-01-2010 07:11:01 1.4 C 4.16 g/m*3 1.4 C 0 km/h
157 21-01-2010 07:23:02 1.4 C 4.21 g/m*3 1.4 C 0 km/h
158 21-01-2010 07:35:01 1.3 C 4.19 g/m*3 1.3 C 0 km/h
159 21-01-2010 07:47:02 1.4 C 4.21 g/m*3 1.4 C 0 km/h
160 21-01-2010 07:59:02 1.4 C 4.21 g/m*3 1.4 C 0 km/h
161 21-01-2010 08:11:01 1.3 C 4.24 g/m*3 1.3 C 0 km/h
162 21-01-2010 08:23:02 1.3 C 4.24 g/m*3 1.3 C 0 km/h
163 21-01-2010 08:35:01 1.4 C 4.27 g/m*3 1.4 C 0 km/h
164 21-01-2010 08:47:02 1.3 C 4.24 g/m*3 1.3 C 0 km/h
165 21-01-2010 08:59:02 1.5 C 4.3 g/m*3 1.5 C 0 km/h
166 21-01-2010 09:11:01 1.6 C 4.33 g/m*3 1.6 C 0 km/h
167 21-01-2010 09:23:01 1.8 C 4.33 g/m*3 1.8 C 0 km/h
168 21-01-2010 09:35:01 2 C 4.33 g/m*3 2 C 0 km/h
169 21-01-2010 09:47:01 2.1 C 4.25 g/m*3 2.1 C 0 km/h
170 21-01-2010 09:59:02 2.1 C 3.97 g/m*3 2.1 C 0 km/h
171 21-01-2010 10:11:01 2.3 C 3.97 g/m*3 2.3 C 0 km/h
172 21-01-2010 10:23:01 2.5 C 3.97 g/m*3 2.5 C 0 km/h
173 21-01-2010 10:35:02 2.6 C 3.88 g/m*3 2.6 C 0 km/h
174 21-01-2010 10:47:01 2.9 C 4.02 g/m*3 2.9 C 0 km/h
175 21-01-2010 10:59:01 3.1 C 3.95 g/m*3 3.1 C 0 km/h
Sensor: Nr:Datum:Temp:Abs-Feuchte:Windchill:Wind:
Aussen-T/F 176 21-01-2010 11:11:02 3.2 C 3.86 g/m*3 3.2 C 0 km/h
177 21-01-2010 11:23:01 3.2 C 3.8 g/m*3 3.2 C 0 km/h
178 21-01-2010 11:35:02 3 C 3.75 g/m*3 3 C 0 km/h
179 21-01-2010 11:47:01 3.3 C 3.88 g/m*3 3.3 C 0 km/h
180 21-01-2010 11:59:01 3.4 C 3.73 g/m*3 3.4 C 0 km/h
181 21-01-2010 12:11:02 3.4 C 3.79 g/m*3 3.4 C 0 km/h
182 21-01-2010 12:23:01 3.6 C 3.84 g/m*3 3.6 C 0 km/h
183 21-01-2010 12:35:01 3.5 C 3.75 g/m*3 3.5 C 0 km/h
184 21-01-2010 12:47:01 3.6 C 3.71 g/m*3 3.6 C 0 km/h
185 21-01-2010 12:59:01 3.7 C 3.74 g/m*3 3.7 C 0 km/h
186 21-01-2010 13:11:01 3.8 C 3.76 g/m*3 3.8 C 0 km/h
187 21-01-2010 13:23:01 3.7 C 3.74 g/m*3 3.7 C 0 km/h
188 21-01-2010 13:35:01 4 C 3.81 g/m*3 4 C 0 km/h
189 21-01-2010 13:47:01 3.8 C 3.7 g/m*3 3.8 C 0 km/h
190 21-01-2010 13:59:01 3.8 C 3.76 g/m*3 3.8 C 0 km/h
191 21-01-2010 14:11:01 3.8 C 3.76 g/m*3 3.8 C 0 km/h
192 21-01-2010 14:23:02 3.8 C 3.76 g/m*3 3.8 C 0 km/h
193 21-01-2010 14:35:01 3.7 C 3.74 g/m*3 3.7 C 0 km/h
194 21-01-2010 14:47:02 3.4 C 3.91 g/m*3 3.4 C 0 km/h
195 21-01-2010 14:59:02 3.3 C 4 g/m*3 3.3 C 0 km/h
196 21-01-2010 15:11:01 3.3 C 4.06 g/m*3 3.3 C 0 km/h
197 21-01-2010 15:23:02 3.4 C 4.09 g/m*3 3.4 C 0 km/h
198 21-01-2010 15:35:01 3.4 C 4.09 g/m*3 3.4 C 0 km/h
199 21-01-2010 15:47:02 3.4 C 4.09 g/m*3 3.4 C 0 km/h
200 21-01-2010 15:59:02 3.3 C 4.06 g/m*3 3.3 C 0 km/h
Sensor: Nr:Datum:Temp:Abs-Feuchte:Windchill:Wind:
Aussen-T/F 201 21-01-2010 16:11:01 3.2 C 4.04 g/m*3 3.2 C 0 km/h
202 21-01-2010 16:23:01 3.2 C 4.04 g/m*3 3.2 C 0 km/h
203 21-01-2010 16:35:01 3.2 C 4.04 g/m*3 3.2 C 0 km/h
204 21-01-2010 16:47:01 3.1 C 3.95 g/m*3 3.1 C 0 km/h
205 21-01-2010 16:59:02 3 C 3.98 g/m*3 3 C 0 km/h
206 21-01-2010 17:11:01 3 C 4.04 g/m*3 3 C 0 km/h
207 21-01-2010 17:23:01 2.9 C 4.02 g/m*3 2.9 C 0 km/h
208 21-01-2010 17:35:02 2.8 C 3.99 g/m*3 2.8 C 0 km/h
209 21-01-2010 17:47:01 2.9 C 4.07 g/m*3 2.9 C 0 km/h
210 21-01-2010 17:59:01 2.9 C 4.13 g/m*3 2.9 C 0 km/h
211 21-01-2010 18:11:02 2.8 C 4.11 g/m*3 2.8 C 0 km/h
212 21-01-2010 18:23:01 2.8 C 4.11 g/m*3 2.8 C 0 km/h
213 21-01-2010 18:35:01 2.8 C 4.05 g/m*3 2.8 C 0 km/h
214 21-01-2010 18:47:01 2.7 C 4.02 g/m*3 2.7 C 0 km/h
215 21-01-2010 18:59:01 2.7 C 4.02 g/m*3 2.7 C 0 km/h
216 21-01-2010 19:11:02 2.8 C 4.05 g/m*3 2.8 C 0 km/h
217 21-01-2010 19:23:01 2.7 C 4.08 g/m*3 2.7 C 0 km/h
218 21-01-2010 19:35:01 2.7 C 4.02 g/m*3 2.7 C 0 km/h
219 21-01-2010 19:47:01 2.7 C 4.08 g/m*3 2.7 C 0 km/h
220 21-01-2010 19:59:01 2.7 C 4.14 g/m*3 2.7 C 0 km/h
221 21-01-2010 20:11:01 2.6 C 4.05 g/m*3 2.6 C 0 km/h
222 21-01-2010 20:23:01 2.6 C 4.05 g/m*3 2.6 C 0 km/h
223 21-01-2010 20:35:01 2.6 C 4.05 g/m*3 2.6 C 0 km/h
224 21-01-2010 20:47:01 2.6 C 4.05 g/m*3 2.6 C 0 km/h
225 21-01-2010 20:59:01 2.7 C 4.08 g/m*3 2.7 C 0 km/h
Sensor: Nr:Datum:Temp:Abs-Feuchte:Windchill:Wind:
Aussen-T/F 226 21-01-2010 21:11:01 2.7 C 4.08 g/m*3 2.7 C 0 km/h
227 21-01-2010 21:23:02 2.6 C 3.99 g/m*3 2.6 C 0 km/h
228 21-01-2010 21:35:01 2.6 C 3.99 g/m*3 2.6 C 0 km/h
229 21-01-2010 21:47:02 2.6 C 4.05 g/m*3 2.6 C 0 km/h
230 21-01-2010 21:59:02 2.6 C 4.05 g/m*3 2.6 C 0 km/h
231 21-01-2010 22:11:02 2.6 C 4.11 g/m*3 2.6 C 0 km/h
232 21-01-2010 22:24:02 2.6 C 4.11 g/m*3 2.6 C 0 km/h
233 21-01-2010 22:36:02 2.6 C 4.17 g/m*3 2.6 C 0 km/h
234 21-01-2010 22:48:02 2.6 C 4.22 g/m*3 2.6 C 0 km/h
235 21-01-2010 23:00:02 2.6 C 4.22 g/m*3 2.6 C 0 km/h
236 21-01-2010 23:12:02 2.6 C 4.22 g/m*3 2.6 C 0 km/h
237 21-01-2010 23:24:02 2.6 C 4.28 g/m*3 2.6 C 0 km/h
238 21-01-2010 23:36:02 2.6 C 4.28 g/m*3 2.6 C 0 km/h
239 21-01-2010 23:48:02 2.6 C 4.28 g/m*3 2.6 C 0 km/h
240 22-01-2010 00:00:02 2.6 C 4.28 g/m*3 2.6 C 0 km/h
241 22-01-2010 00:12:02 2.5 C 4.25 g/m*3 2.5 C 0 km/h
242 22-01-2010 00:24:02 2.6 C 4.28 g/m*3 2.6 C 0 km/h
243 22-01-2010 00:36:03 2.5 C 4.25 g/m*3 2.5 C 0 km/h
244 22-01-2010 00:48:03 2.5 C 4.25 g/m*3 2.5 C 0 km/h
245 22-01-2010 01:00:03 2.5 C 4.25 g/m*3 2.5 C 0 km/h
246 22-01-2010 01:12:03 2.5 C 4.25 g/m*3 2.5 C 0 km/h
247 22-01-2010 01:24:03 2.5 C 4.31 g/m*3 2.5 C 0 km/h
248 22-01-2010 01:36:03 2.5 C 4.31 g/m*3 2.5 C 0 km/h
249 22-01-2010 01:48:03 2.5 C 4.31 g/m*3 2.5 C 0 km/h
250 22-01-2010 02:00:03 2.5 C 4.37 g/m*3 2.5 C 0 km/h
Sensor: Nr:Datum:Temp:Abs-Feuchte:Windchill:Wind:
Aussen-T/F 251 22-01-2010 02:12:03 2.4 C 4.34 g/m*3 2.4 C 0 km/h
252 22-01-2010 02:24:03 2.4 C 4.34 g/m*3 2.4 C 0 km/h
253 22-01-2010 02:36:03 2.3 C 4.31 g/m*3 2.3 C 0 km/h
254 22-01-2010 02:48:03 2.4 C 4.34 g/m*3 2.4 C 0 km/h
255 22-01-2010 03:00:03 2.4 C 4.34 g/m*3 2.4 C 0 km/h
256 22-01-2010 03:12:03 2.4 C 4.4 g/m*3 2.4 C 0 km/h
257 22-01-2010 03:24:03 2.4 C 4.4 g/m*3 2.4 C 0 km/h
258 22-01-2010 03:36:03 2.4 C 4.4 g/m*3 2.4 C 0 km/h
259 22-01-2010 03:48:03 2.4 C 4.4 g/m*3 2.4 C 0 km/h
260 22-01-2010 04:00:03 2.3 C 4.37 g/m*3 2.3 C 0 km/h
261 22-01-2010 04:12:03 2.3 C 4.37 g/m*3 2.3 C 0 km/h
262 22-01-2010 04:24:04 2.3 C 4.37 g/m*3 2.3 C 0 km/h
263 22-01-2010 04:36:04 2.4 C 4.4 g/m*3 2.4 C 0 km/h
264 22-01-2010 04:48:04 2.3 C 4.37 g/m*3 2.3 C 0 km/h
265 22-01-2010 05:00:04 2.3 C 4.37 g/m*3 2.3 C 0 km/h
266 22-01-2010 05:12:04 2.3 C 4.37 g/m*3 2.3 C 0 km/h
267 22-01-2010 05:24:04 2.3 C 4.37 g/m*3 2.3 C 0 km/h
268 22-01-2010 05:36:04 2.2 C 4.34 g/m*3 2.2 C 0 km/h
269 22-01-2010 05:48:04 2.3 C 4.37 g/m*3 2.3 C 0 km/h
270 22-01-2010 06:00:04 2.2 C 4.34 g/m*3 2.2 C 0 km/h
271 22-01-2010 06:12:04 2.2 C 4.34 g/m*3 2.2 C 0 km/h
272 22-01-2010 06:24:04 2.2 C 4.34 g/m*3 2.2 C 0 km/h
273 22-01-2010 06:36:04 2.2 C 4.34 g/m*3 2.2 C 0 km/h
274 22-01-2010 06:48:04 2.2 C 4.34 g/m*3 2.2 C 0 km/h
275 22-01-2010 07:00:04 2.2 C 4.34 g/m*3 2.2 C 0 km/h
Sensor: Nr:Datum:Temp:Abs-Feuchte:Windchill:Wind:
Aussen-T/F 276 22-01-2010 07:12:01 2.2 C 4.39 g/m*3 2.2 C 0 km/h
277 22-01-2010 07:24:02 2.2 C 4.39 g/m*3 2.2 C 0 km/h
278 22-01-2010 07:36:02 2.1 C 4.36 g/m*3 2.1 C 0 km/h
279 22-01-2010 07:48:01 2.1 C 4.36 g/m*3 2.1 C 0 km/h
280 22-01-2010 08:00:01 2.1 C 4.36 g/m*3 2.1 C 0 km/h
281 22-01-2010 08:12:02 2 C 4.33 g/m*3 2 C 0 km/h
282 22-01-2010 08:24:01 2 C 4.33 g/m*3 2 C 0 km/h
283 22-01-2010 08:36:01 1.9 C 4.36 g/m*3 1.9 C 0 km/h
284 22-01-2010 08:48:01 1.9 C 4.36 g/m*3 1.9 C 0 km/h
285 22-01-2010 09:00:01 2.1 C 4.36 g/m*3 2.1 C 0 km/h
286 22-01-2010 09:12:02 2.2 C 4.39 g/m*3 2.2 C 0 km/h
287 22-01-2010 09:24:01 2.3 C 4.37 g/m*3 2.3 C 0 km/h
288 22-01-2010 09:36:02 2.5 C 4.37 g/m*3 2.5 C 0 km/h
289 22-01-2010 09:48:01 2.6 C 4.34 g/m*3 2.6 C 0 km/h
290 22-01-2010 10:00:01 2.8 C 4.4 g/m*3 2.8 C 0 km/h
291 22-01-2010 10:12:02 2.8 C 4.16 g/m*3 2.8 C 0 km/h
292 22-01-2010 10:24:01 3 C 4.16 g/m*3 3 C 0 km/h
293 22-01-2010 10:36:01 3.1 C 4.07 g/m*3 3.1 C 0 km/h
294 22-01-2010 10:48:01 3.2 C 4.1 g/m*3 3.2 C 0 km/h
295 22-01-2010 11:00:01 3.5 C 4.12 g/m*3 3.5 C 0 km/h
296 22-01-2010 11:12:02 3.8 C 4.14 g/m*3 3.8 C 0 km/h
297 22-01-2010 11:24:02 4 C 4.07 g/m*3 4 C 0 km/h
298 22-01-2010 11:36:01 4 C 4.01 g/m*3 4 C 0 km/h
299 22-01-2010 11:48:02 4.2 C 4.06 g/m*3 4.2 C 0 km/h
300 22-01-2010 12:00:02 4.1 C 3.97 g/m*3 4.1 C 0 km/h
Sensor: Nr:Datum:Temp:Abs-Feuchte:Windchill:Wind:
Aussen-T/F 301 22-01-2010 12:12:01 4.2 C 3.99 g/m*3 4.2 C 0 km/h
302 22-01-2010 12:24:02 4.4 C 4.05 g/m*3 4.4 C 0 km/h
303 22-01-2010 12:36:01 4.7 C 4.06 g/m*3 4.7 C 0 km/h
304 22-01-2010 12:48:02 4.9 C 4.12 g/m*3 4.9 C 0 km/h
305 22-01-2010 13:00:02 4.9 C 4.05 g/m*3 4.9 C 0 km/h
306 22-01-2010 13:12:02 4.9 C 4.05 g/m*3 4.9 C 0 km/h
307 22-01-2010 13:24:02 4.8 C 4.09 g/m*3 4.8 C 0 km/h
308 22-01-2010 13:36:02 4.8 C 4.16 g/m*3 4.8 C 0 km/h
309 22-01-2010 13:48:02 4.7 C 4.06 g/m*3 4.7 C 0 km/h
310 22-01-2010 14:00:02 4.7 C 4.13 g/m*3 4.7 C 0 km/h
311 22-01-2010 14:12:01 4.4 C 4.05 g/m*3 4.4 C 0 km/h
312 22-01-2010 14:24:01 4.4 C 4.11 g/m*3 4.4 C 0 km/h
313 22-01-2010 14:36:02 4.7 C 4.26 g/m*3 4.7 C 0 km/h
314 22-01-2010 14:48:02 4.8 C 4.16 g/m*3 4.8 C 0 km/h
315 22-01-2010 15:00:02 4.7 C 4.13 g/m*3 4.7 C 0 km/h
316 22-01-2010 15:12:02 4.6 C 4.17 g/m*3 4.6 C 0 km/h
317 22-01-2010 15:24:02 4.8 C 4.16 g/m*3 4.8 C 0 km/h
318 22-01-2010 15:36:02 4.8 C 4.16 g/m*3 4.8 C 0 km/h
319 22-01-2010 15:48:02 4.2 C 4.06 g/m*3 4.2 C 0 km/h
320 22-01-2010 16:00:02 3.8 C 4.14 g/m*3 3.8 C 0 km/h
321 22-01-2010 16:12:02 3.8 C 4.27 g/m*3 3.8 C 0 km/h
322 22-01-2010 16:24:02 3.9 C 4.29 g/m*3 3.9 C 0 km/h
323 22-01-2010 16:36:02 3.8 C 4.27 g/m*3 3.8 C 0 km/h
324 22-01-2010 16:48:02 3.8 C 4.33 g/m*3 3.8 C 0 km/h
325 22-01-2010 17:00:02 3.7 C 4.36 g/m*3 3.7 C 0 km/h
Sensor: Nr:Datum:Temp:Abs-Feuchte:Windchill:Wind:
Aussen-T/F 326 22-01-2010 17:12:02 3.6 C 4.33 g/m*3 3.6 C 0 km/h
327 22-01-2010 17:24:02 3.4 C 4.28 g/m*3 3.4 C 0 km/h
328 22-01-2010 17:36:02 3.3 C 4.25 g/m*3 3.3 C 0 km/h
329 22-01-2010 17:48:02 3.2 C 4.22 g/m*3 3.2 C 0 km/h
330 22-01-2010 18:00:02 3.2 C 4.28 g/m*3 3.2 C 0 km/h
331 22-01-2010 18:12:02 3.2 C 4.22 g/m*3 3.2 C 0 km/h
332 22-01-2010 18:24:03 3.1 C 4.19 g/m*3 3.1 C 0 km/h
333 22-01-2010 18:36:02 3 C 4.16 g/m*3 3 C 0 km/h
334 22-01-2010 18:48:02 2.9 C 4.19 g/m*3 2.9 C 0 km/h
335 22-01-2010 19:00:02 2.7 C 4.14 g/m*3 2.7 C 0 km/h
336 22-01-2010 19:12:02 2.5 C 4.08 g/m*3 2.5 C 0 km/h
337 22-01-2010 19:24:02 2.3 C 4.08 g/m*3 2.3 C 0 km/h
338 22-01-2010 19:36:02 2.3 C 4.14 g/m*3 2.3 C 0 km/h
339 22-01-2010 19:48:02 2.3 C 4.14 g/m*3 2.3 C 0 km/h
340 22-01-2010 20:00:02 2.3 C 4.14 g/m*3 2.3 C 0 km/h
341 22-01-2010 20:12:02 2.4 C 4.17 g/m*3 2.4 C 0 km/h
342 22-01-2010 20:24:02 2.3 C 4.14 g/m*3 2.3 C 0 km/h
343 22-01-2010 20:36:02 2.4 C 4.23 g/m*3 2.4 C 0 km/h
344 22-01-2010 20:48:02 2.3 C 4.2 g/m*3 2.3 C 0 km/h
345 22-01-2010 21:00:02 2.3 C 4.2 g/m*3 2.3 C 0 km/h
346 22-01-2010 21:12:01 2.3 C 4.2 g/m*3 2.3 C 0 km/h
347 22-01-2010 21:24:02 2.3 C 4.2 g/m*3 2.3 C 0 km/h
348 22-01-2010 21:36:02 2.3 C 4.25 g/m*3 2.3 C 0 km/h
349 22-01-2010 21:48:01 2.4 C 4.28 g/m*3 2.4 C 0 km/h
350 22-01-2010 22:00:02 2.3 C 4.25 g/m*3 2.3 C 0 km/h
Sensor: Nr:Datum:Temp:Abs-Feuchte:Windchill:Wind:
Aussen-T/F 351 22-01-2010 22:12:01 2.3 C 4.2 g/m*3 2.3 C 0 km/h
352 22-01-2010 22:25:02 2.3 C 4.2 g/m*3 2.3 C 0 km/h
353 22-01-2010 22:37:02 2.3 C 4.14 g/m*3 2.3 C 0 km/h
354 22-01-2010 22:49:02 2.3 C 4.08 g/m*3 2.3 C 0 km/h
355 22-01-2010 23:01:02 2.3 C 4.03 g/m*3 2.3 C 0 km/h
356 22-01-2010 23:13:02 2.3 C 4.03 g/m*3 2.3 C 0 km/h
357 22-01-2010 23:25:02 2.3 C 4.03 g/m*3 2.3 C 0 km/h
358 22-01-2010 23:37:02 2.2 C 4 g/m*3 2.2 C 0 km/h
359 22-01-2010 23:49:02 2.2 C 3.94 g/m*3 2.2 C 0 km/h
360 23-01-2010 00:01:02 2.2 C 3.89 g/m*3 2.2 C 0 km/h
361 23-01-2010 00:13:02 1.8 C 3.84 g/m*3 1.8 C 0 km/h
362 23-01-2010 00:25:02 1.5 C 3.76 g/m*3 1.5 C 0 km/h
363 23-01-2010 00:37:02 1.2 C 3.68 g/m*3 1.2 C 0 km/h
364 23-01-2010 00:49:02 1.1 C 3.71 g/m*3 1.1 C 0 km/h
365 23-01-2010 01:01:02 1 C 3.69 g/m*3 1 C 0 km/h
366 23-01-2010 01:13:02 0.9 C 3.66 g/m*3 0.9 C 0 km/h
367 23-01-2010 01:25:02 0.8 C 3.69 g/m*3 0.8 C 0 km/h
368 23-01-2010 01:37:02 0.7 C 3.61 g/m*3 0.7 C 0 km/h
369 23-01-2010 01:49:03 0.6 C 3.59 g/m*3 0.6 C 0 km/h
370 23-01-2010 02:01:03 0.5 C 3.61 g/m*3 0.5 C 0 km/h
371 23-01-2010 02:13:03 0.4 C 3.59 g/m*3 0.4 C 0 km/h
372 23-01-2010 02:25:03 0.5 C 3.61 g/m*3 0.5 C 0 km/h
373 23-01-2010 02:37:03 0.4 C 3.59 g/m*3 0.4 C 0 km/h
374 23-01-2010 02:49:03 0.4 C 3.59 g/m*3 0.4 C 0 km/h
375 23-01-2010 03:01:03 0.4 C 3.64 g/m*3 0.4 C 0 km/h
Sensor: Nr:Datum:Temp:Abs-Feuchte:Windchill:Wind:
Aussen-T/F 376 23-01-2010 03:13:03 0.4 C 3.64 g/m*3 0.4 C 0 km/h
377 23-01-2010 03:25:03 0.4 C 3.64 g/m*3 0.4 C 0 km/h
378 23-01-2010 03:37:03 0.3 C 3.61 g/m*3 0.3 C 0 km/h
379 23-01-2010 03:49:03 0.2 C 3.59 g/m*3 0.2 C 0 km/h
380 23-01-2010 04:01:03 0.1 C 3.56 g/m*3 0.1 C 0 km/h
381 23-01-2010 04:13:03 0 C 3.59 g/m*3 0 C 0 km/h
382 23-01-2010 04:25:03 -0.1 C 3.56 g/m*3 -0.1 C 0 km/h
383 23-01-2010 04:37:03 -0.2 C 3.54 g/m*3 -0.2 C 0 km/h
384 23-01-2010 04:49:03 -0.2 C 3.54 g/m*3 -0.2 C 0 km/h
385 23-01-2010 05:01:03 -0.3 C 3.51 g/m*3 -0.3 C 0 km/h
386 23-01-2010 05:13:03 -0.3 C 3.51 g/m*3 -0.3 C 0 km/h
387 23-01-2010 05:25:03 -0.3 C 3.51 g/m*3 -0.3 C 0 km/h
388 23-01-2010 05:37:03 -0.4 C 3.44 g/m*3 -0.4 C 0 km/h
389 23-01-2010 05:49:03 -0.5 C 3.46 g/m*3 -0.5 C 0 km/h
390 23-01-2010 06:01:04 -0.5 C 3.46 g/m*3 -0.5 C 0 km/h
391 23-01-2010 06:13:04 -0.6 C 3.44 g/m*3 -0.6 C 0 km/h
392 23-01-2010 06:25:04 -0.5 C 3.46 g/m*3 -0.5 C 0 km/h
393 23-01-2010 06:37:04 -0.6 C 3.44 g/m*3 -0.6 C 0 km/h
394 23-01-2010 06:49:04 -0.7 C 3.42 g/m*3 -0.7 C 0 km/h
395 23-01-2010 07:01:04 -1 C 3.35 g/m*3 -1 C 0 km/h
396 23-01-2010 07:13:04 -1 C 3.39 g/m*3 -1 C 0 km/h
397 23-01-2010 07:25:04 -1 C 3.39 g/m*3 -1 C 0 km/h
398 23-01-2010 07:37:04 -1.1 C 3.32 g/m*3 -1.1 C 0 km/h
399 23-01-2010 07:49:04 -1.1 C 3.37 g/m*3 -1.1 C 0 km/h
400 23-01-2010 08:01:04 -1 C 3.35 g/m*3 -1 C 0 km/h
Sensor: Nr:Datum:Temp:Abs-Feuchte:Windchill:Wind:
Aussen-T/F 401 23-01-2010 08:13:04 -1.1 C 3.32 g/m*3 -1.1 C 0 km/h
402 23-01-2010 08:25:02 -1.1 C 3.28 g/m*3 -1.1 C 0 km/h
403 23-01-2010 08:37:02 -1.1 C 3.23 g/m*3 -1.1 C 0 km/h
404 23-01-2010 08:49:01 -1.1 C 3.23 g/m*3 -1.1 C 0 km/h
405 23-01-2010 09:01:02 -1 C 3.25 g/m*3 -1 C 0 km/h
406 23-01-2010 09:13:02 -1 C 3.21 g/m*3 -1 C 0 km/h
407 23-01-2010 09:25:02 -1 C 3.21 g/m*3 -1 C 0 km/h
408 23-01-2010 09:37:02 -1.1 C 3.19 g/m*3 -1.1 C 0 km/h
409 23-01-2010 09:49:03 -1.2 C 3.17 g/m*3 -1.2 C 0 km/h
410 23-01-2010 10:01:03 -1.2 C 3.17 g/m*3 -1.2 C 0 km/h
411 23-01-2010 10:13:03 -1.1 C 3.19 g/m*3 -1.1 C 0 km/h
412 23-01-2010 10:25:02 -1.1 C 3.19 g/m*3 -1.1 C 0 km/h
413 23-01-2010 10:37:03 -1.2 C 3.12 g/m*3 -1.2 C 0 km/h
414 23-01-2010 10:49:02 -1 C 3.21 g/m*3 -1 C 0 km/h
415 23-01-2010 11:01:02 -1 C 3.16 g/m*3 -1 C 0 km/h
416 23-01-2010 11:13:02 -1 C 3.16 g/m*3 -1 C 0 km/h
417 23-01-2010 11:25:02 -0.9 C 3.19 g/m*3 -0.9 C 0 km/h
418 23-01-2010 11:37:02 -0.6 C 3.25 g/m*3 -0.6 C 0 km/h
419 23-01-2010 11:49:02 -0.8 C 3.16 g/m*3 -0.8 C 0 km/h
420 23-01-2010 12:01:03 -0.9 C 3.19 g/m*3 -0.9 C 0 km/h
421 23-01-2010 12:13:03 -0.8 C 3.21 g/m*3 -0.8 C 0 km/h
422 23-01-2010 12:25:02 -0.7 C 3.23 g/m*3 -0.7 C 0 km/h
423 23-01-2010 12:37:02 -0.6 C 3.25 g/m*3 -0.6 C 0 km/h
424 23-01-2010 12:49:01 -0.5 C 3.28 g/m*3 -0.5 C 0 km/h
425 23-01-2010 13:01:02 -0.6 C 3.25 g/m*3 -0.6 C 0 km/h
Sensor: Nr:Datum:Temp:Abs-Feuchte:Windchill:Wind:
Aussen-T/F 426 23-01-2010 13:13:02 -0.5 C 3.28 g/m*3 -0.5 C 0 km/h
427 23-01-2010 13:25:01 -0.6 C 3.25 g/m*3 -0.6 C 0 km/h
428 23-01-2010 13:37:02 -0.5 C 3.28 g/m*3 -0.5 C 0 km/h
429 23-01-2010 13:49:01 -0.4 C 3.3 g/m*3 -0.4 C 0 km/h
430 23-01-2010 14:01:02 -0.3 C 3.32 g/m*3 -0.3 C 0 km/h
431 23-01-2010 14:13:02 -0.3 C 3.32 g/m*3 -0.3 C 0 km/h
432 23-01-2010 14:25:01 -0.3 C 3.27 g/m*3 -0.3 C 0 km/h
433 23-01-2010 14:37:02 -0.3 C 3.27 g/m*3 -0.3 C 0 km/h
434 23-01-2010 14:49:01 -0.3 C 3.32 g/m*3 -0.3 C 0 km/h
435 23-01-2010 15:01:02 -0.5 C 3.28 g/m*3 -0.5 C 0 km/h
436 23-01-2010 15:13:02 -0.6 C 3.25 g/m*3 -0.6 C 0 km/h
437 23-01-2010 15:25:02 -0.6 C 3.25 g/m*3 -0.6 C 0 km/h
438 23-01-2010 15:37:02 -0.6 C 3.3 g/m*3 -0.6 C 0 km/h
439 23-01-2010 15:49:02 -0.6 C 3.3 g/m*3 -0.6 C 0 km/h
440 23-01-2010 16:01:02 -0.5 C 3.32 g/m*3 -0.5 C 0 km/h
441 23-01-2010 16:13:02 -0.6 C 3.3 g/m*3 -0.6 C 0 km/h
442 23-01-2010 16:25:02 -0.7 C 3.28 g/m*3 -0.7 C 0 km/h
443 23-01-2010 16:37:01 -0.7 C 3.32 g/m*3 -0.7 C 0 km/h
444 23-01-2010 16:49:02 -0.7 C 3.32 g/m*3 -0.7 C 0 km/h
445 23-01-2010 17:01:01 -0.7 C 3.32 g/m*3 -0.7 C 0 km/h
446 23-01-2010 17:13:01 -0.6 C 3.35 g/m*3 -0.6 C 0 km/h
447 23-01-2010 17:25:02 -0.6 C 3.35 g/m*3 -0.6 C 0 km/h
448 23-01-2010 17:37:01 -0.5 C 3.42 g/m*3 -0.5 C 0 km/h
449 23-01-2010 17:49:02 -0.6 C 3.35 g/m*3 -0.6 C 0 km/h
450 23-01-2010 18:01:02 -0.5 C 3.37 g/m*3 -0.5 C 0 km/h
Sensor: Nr:Datum:Temp:Abs-Feuchte:Windchill:Wind:
Aussen-T/F 451 23-01-2010 18:13:02 -0.6 C 3.35 g/m*3 -0.6 C 0 km/h
452 23-01-2010 18:25:02 -0.6 C 3.35 g/m*3 -0.6 C 0 km/h
453 23-01-2010 18:37:03 -0.7 C 3.32 g/m*3 -0.7 C 0 km/h
454 23-01-2010 18:49:02 -0.8 C 3.3 g/m*3 -0.8 C 0 km/h
455 23-01-2010 19:01:01 -0.8 C 3.3 g/m*3 -0.8 C 0 km/h
456 23-01-2010 19:13:01 -0.7 C 3.32 g/m*3 -0.7 C 0 km/h
457 23-01-2010 19:25:02 -0.7 C 3.32 g/m*3 -0.7 C 0 km/h
458 23-01-2010 19:37:02 -0.7 C 3.28 g/m*3 -0.7 C 0 km/h
459 23-01-2010 19:49:02 -0.6 C 3.3 g/m*3 -0.6 C 0 km/h
460 23-01-2010 20:01:03 -0.7 C 3.23 g/m*3 -0.7 C 0 km/h
461 23-01-2010 20:13:03 -0.7 C 3.23 g/m*3 -0.7 C 0 km/h
462 23-01-2010 20:25:02 -0.7 C 3.23 g/m*3 -0.7 C 0 km/h
463 23-01-2010 20:37:02 -0.6 C 3.25 g/m*3 -0.6 C 0 km/h
464 23-01-2010 20:49:02 -0.6 C 3.25 g/m*3 -0.6 C 0 km/h
465 23-01-2010 21:01:02 -0.6 C 3.25 g/m*3 -0.6 C 0 km/h
466 23-01-2010 21:13:02 -0.6 C 3.25 g/m*3 -0.6 C 0 km/h
467 23-01-2010 21:25:01 -0.5 C 3.28 g/m*3 -0.5 C 0 km/h
468 23-01-2010 21:37:02 -0.6 C 3.25 g/m*3 -0.6 C 0 km/h
469 23-01-2010 21:49:02 -0.6 C 3.25 g/m*3 -0.6 C 0 km/h
470 23-01-2010 22:01:02 -0.5 C 3.28 g/m*3 -0.5 C 0 km/h
471 23-01-2010 22:13:02 -0.5 C 3.28 g/m*3 -0.5 C 0 km/h
472 23-01-2010 22:26:02 -0.5 C 3.28 g/m*3 -0.5 C 0 km/h
473 23-01-2010 22:38:02 -0.5 C 3.28 g/m*3 -0.5 C 0 km/h
474 23-01-2010 22:50:02 -0.5 C 3.28 g/m*3 -0.5 C 0 km/h
475 23-01-2010 23:02:02 -0.5 C 3.28 g/m*3 -0.5 C 0 km/h
Sensor: Nr:Datum:Temp:Abs-Feuchte:Windchill:Wind:
Aussen-T/F 476 23-01-2010 23:14:02 -0.5 C 3.23 g/m*3 -0.5 C 0 km/h
477 23-01-2010 23:26:02 -0.5 C 3.28 g/m*3 -0.5 C 0 km/h
478 23-01-2010 23:38:02 -0.3 C 3.32 g/m*3 -0.3 C 0 km/h
479 23-01-2010 23:50:02 -0.5 C 3.23 g/m*3 -0.5 C 0 km/h
480 24-01-2010 00:02:02 -0.5 C 3.23 g/m*3 -0.5 C 0 km/h
481 24-01-2010 00:14:02 -0.5 C 3.23 g/m*3 -0.5 C 0 km/h
482 24-01-2010 00:26:02 -0.5 C 3.23 g/m*3 -0.5 C 0 km/h
483 24-01-2010 00:38:02 -0.5 C 3.23 g/m*3 -0.5 C 0 km/h
484 24-01-2010 00:50:02 -0.5 C 3.28 g/m*3 -0.5 C 0 km/h
485 24-01-2010 01:02:02 -0.5 C 3.23 g/m*3 -0.5 C 0 km/h
486 24-01-2010 01:14:03 -0.5 C 3.23 g/m*3 -0.5 C 0 km/h
487 24-01-2010 01:26:03 -0.5 C 3.23 g/m*3 -0.5 C 0 km/h
488 24-01-2010 01:38:03 -0.5 C 3.23 g/m*3 -0.5 C 0 km/h
489 24-01-2010 01:50:03 -0.5 C 3.28 g/m*3 -0.5 C 0 km/h
490 24-01-2010 02:02:03 -0.5 C 3.23 g/m*3 -0.5 C 0 km/h
491 24-01-2010 02:14:03 -0.5 C 3.23 g/m*3 -0.5 C 0 km/h
492 24-01-2010 02:26:03 -0.5 C 3.23 g/m*3 -0.5 C 0 km/h
493 24-01-2010 02:38:03 -0.3 C 3.32 g/m*3 -0.3 C 0 km/h
494 24-01-2010 02:50:03 -0.5 C 3.28 g/m*3 -0.5 C 0 km/h
495 24-01-2010 03:02:03 -0.6 C 3.35 g/m*3 -0.6 C 0 km/h
496 24-01-2010 03:14:03 -0.6 C 3.39 g/m*3 -0.6 C 0 km/h
497 24-01-2010 03:26:03 -0.5 C 3.46 g/m*3 -0.5 C 0 km/h
498 24-01-2010 03:38:03 -0.6 C 3.44 g/m*3 -0.6 C 0 km/h
499 24-01-2010 03:50:03 -0.6 C 3.49 g/m*3 -0.6 C 0 km/h
500 24-01-2010 04:02:03 -0.6 C 3.53 g/m*3 -0.6 C 0 km/h
Sensor: Nr:Datum:Temp:Abs-Feuchte:Windchill:Wind:
Aussen-T/F 501 24-01-2010 04:14:03 -0.6 C 3.58 g/m*3 -0.6 C 0 km/h
502 24-01-2010 04:26:03 -0.5 C 3.65 g/m*3 -0.5 C 0 km/h
503 24-01-2010 04:38:03 -0.4 C 3.68 g/m*3 -0.4 C 0 km/h
504 24-01-2010 04:50:03 -0.3 C 3.7 g/m*3 -0.3 C 0 km/h
505 24-01-2010 05:02:03 -0.3 C 3.75 g/m*3 -0.3 C 0 km/h
506 24-01-2010 05:14:03 -0.3 C 3.75 g/m*3 -0.3 C 0 km/h
507 24-01-2010 05:26:04 -0.3 C 3.8 g/m*3 -0.3 C 0 km/h
508 24-01-2010 05:38:04 -0.3 C 3.8 g/m*3 -0.3 C 0 km/h
509 24-01-2010 05:50:04 -0.3 C 3.8 g/m*3 -0.3 C 0 km/h
510 24-01-2010 06:02:04 -0.4 C 3.82 g/m*3 -0.4 C 0 km/h
511 24-01-2010 06:14:04 -0.5 C 3.79 g/m*3 -0.5 C 0 km/h
512 24-01-2010 06:26:04 -0.4 C 3.86 g/m*3 -0.4 C 0 km/h
513 24-01-2010 06:38:04 -0.4 C 3.86 g/m*3 -0.4 C 0 km/h
514 24-01-2010 06:50:04 -0.4 C 3.86 g/m*3 -0.4 C 0 km/h
515 24-01-2010 07:02:04 -0.4 C 3.86 g/m*3 -0.4 C 0 km/h
516 24-01-2010 07:14:04 -0.5 C 3.88 g/m*3 -0.5 C 0 km/h
517 24-01-2010 07:26:04 -0.4 C 3.91 g/m*3 -0.4 C 0 km/h
518 24-01-2010 07:38:04 -0.5 C 3.88 g/m*3 -0.5 C 0 km/h
519 24-01-2010 07:50:04 -0.5 C 3.93 g/m*3 -0.5 C 0 km/h
520 24-01-2010 08:02:04 -0.6 C 3.9 g/m*3 -0.6 C 0 km/h
521 24-01-2010 08:14:04 -0.5 C 3.98 g/m*3 -0.5 C 0 km/h
522 24-01-2010 08:26:04 -0.4 C 4.01 g/m*3 -0.4 C 0 km/h
523 24-01-2010 08:38:04 -0.4 C 4.01 g/m*3 -0.4 C 0 km/h
524 24-01-2010 08:50:04 -0.4 C 4.05 g/m*3 -0.4 C 0 km/h
525 24-01-2010 09:02:01 -0.4 C 4.05 g/m*3 -0.4 C 0 km/h
Sensor: Nr:Datum:Temp:Abs-Feuchte:Windchill:Wind:
Aussen-T/F 526 24-01-2010 09:14:01 -0.3 C 4.08 g/m*3 -0.3 C 0 km/h
527 24-01-2010 09:26:02 -0.3 C 4.08 g/m*3 -0.3 C 0 km/h
528 24-01-2010 09:38:02 -0.2 C 4.11 g/m*3 -0.2 C 0 km/h
529 24-01-2010 09:50:02 -0.1 C 4.14 g/m*3 -0.1 C 0 km/h
530 24-01-2010 10:02:01 0.1 C 4.2 g/m*3 0.1 C 0 km/h
531 24-01-2010 10:14:01 0.2 C 4.22 g/m*3 0.2 C 0 km/h
532 24-01-2010 10:26:02 0.2 C 4.22 g/m*3 0.2 C 0 km/h
533 24-01-2010 10:38:01 0.3 C 4.2 g/m*3 0.3 C 0 km/h
534 24-01-2010 10:50:02 0.5 C 4.26 g/m*3 0.5 C 0 km/h
535 24-01-2010 11:02:02 0.5 C 4.26 g/m*3 0.5 C 0 km/h
536 24-01-2010 11:14:02 0.7 C 4.27 g/m*3 0.7 C 0 km/h
537 24-01-2010 11:26:02 0.9 C 4.33 g/m*3 0.9 C 0 km/h
538 24-01-2010 11:38:02 0.9 C 4.28 g/m*3 0.9 C 0 km/h
539 24-01-2010 11:50:02 0.9 C 4.23 g/m*3 0.9 C 0 km/h
540 24-01-2010 12:02:02 0.8 C 4.15 g/m*3 0.8 C 0 km/h
541 24-01-2010 12:14:02 0.8 C 4.15 g/m*3 0.8 C 0 km/h
542 24-01-2010 12:26:02 0.8 C 4.15 g/m*3 0.8 C 0 km/h
543 24-01-2010 12:38:02 1 C 4.2 g/m*3 1 C 0 km/h
544 24-01-2010 12:50:02 1.1 C 4.23 g/m*3 1.1 C 0 km/h
545 24-01-2010 13:02:01 1.1 C 4.23 g/m*3 1.1 C 0 km/h
546 24-01-2010 13:14:01 1.2 C 4.31 g/m*3 1.2 C 0 km/h
547 24-01-2010 13:26:02 1.2 C 4.31 g/m*3 1.2 C 0 km/h
548 24-01-2010 13:38:01 1.4 C 4.43 g/m*3 1.4 C 0 km/h
549 24-01-2010 13:50:01 1.4 C 4.43 g/m*3 1.4 C 0 km/h
550 24-01-2010 14:02:01 1.6 C 4.49 g/m*3 1.6 C 0 km/h
Sensor: Nr:Datum:Temp:Abs-Feuchte:Windchill:Wind:
Aussen-T/F 551 24-01-2010 14:14:01 1.7 C 4.52 g/m*3 1.7 C 0 km/h
552 24-01-2010 14:26:01 1.6 C 4.49 g/m*3 1.6 C 0 km/h
553 24-01-2010 14:38:02 1.7 C 4.52 g/m*3 1.7 C 0 km/h
554 24-01-2010 14:50:02 1.5 C 4.4 g/m*3 1.5 C 0 km/h
555 24-01-2010 15:02:02 1.4 C 4.37 g/m*3 1.4 C 0 km/h
556 24-01-2010 15:14:02 1.1 C 4.29 g/m*3 1.1 C 0 km/h
557 24-01-2010 15:26:02 1.3 C 4.4 g/m*3 1.3 C 0 km/h
558 24-01-2010 15:38:02 1.3 C 4.4 g/m*3 1.3 C 0 km/h
559 24-01-2010 15:50:02 1.3 C 4.4 g/m*3 1.3 C 0 km/h
560 24-01-2010 16:02:02 1.3 C 4.45 g/m*3 1.3 C 0 km/h
561 24-01-2010 16:14:02 1.2 C 4.42 g/m*3 1.2 C 0 km/h
562 24-01-2010 16:26:02 1.3 C 4.45 g/m*3 1.3 C 0 km/h
563 24-01-2010 16:38:02 1.3 C 4.45 g/m*3 1.3 C 0 km/h
564 24-01-2010 16:50:01 1.2 C 4.42 g/m*3 1.2 C 0 km/h
565 24-01-2010 17:02:02 1.1 C 4.39 g/m*3 1.1 C 0 km/h
566 24-01-2010 17:14:03 1 C 4.41 g/m*3 1 C 0 km/h
567 24-01-2010 17:26:01 1 C 4.46 g/m*3 1 C 0 km/h
568 24-01-2010 17:38:01 1 C 4.46 g/m*3 1 C 0 km/h
569 24-01-2010 17:50:01 1 C 4.46 g/m*3 1 C 0 km/h
570 24-01-2010 18:02:01 0.9 C 4.48 g/m*3 0.9 C 0 km/h
571 24-01-2010 18:14:01 0.7 C 4.37 g/m*3 0.7 C 0 km/h
572 24-01-2010 18:26:02 0.7 C 4.37 g/m*3 0.7 C 0 km/h
573 24-01-2010 18:38:01 0.6 C 4.39 g/m*3 0.6 C 0 km/h
574 24-01-2010 18:50:01 0.6 C 4.39 g/m*3 0.6 C 0 km/h
575 24-01-2010 19:02:01 0.5 C 4.36 g/m*3 0.5 C 0 km/h
Sensor: Nr:Datum:Temp:Abs-Feuchte:Windchill:Wind:
Aussen-T/F 576 24-01-2010 19:14:01 0.6 C 4.44 g/m*3 0.6 C 0 km/h
577 24-01-2010 19:26:01 0.6 C 4.44 g/m*3 0.6 C 0 km/h
578 24-01-2010 19:38:01 0.6 C 4.44 g/m*3 0.6 C 0 km/h
579 24-01-2010 19:50:01 0.5 C 4.41 g/m*3 0.5 C 0 km/h
580 24-01-2010 20:02:02 0.5 C 4.41 g/m*3 0.5 C 0 km/h
581 24-01-2010 20:14:03 0.5 C 4.46 g/m*3 0.5 C 0 km/h
582 24-01-2010 20:26:01 0.6 C 4.49 g/m*3 0.6 C 0 km/h
583 24-01-2010 20:38:01 0.6 C 4.49 g/m*3 0.6 C 0 km/h
584 24-01-2010 20:50:01 0.5 C 4.41 g/m*3 0.5 C 0 km/h
585 24-01-2010 21:02:02 0.5 C 4.46 g/m*3 0.5 C 0 km/h
586 24-01-2010 21:14:02 0.5 C 4.41 g/m*3 0.5 C 0 km/h
587 24-01-2010 21:26:02 0.4 C 4.38 g/m*3 0.4 C 0 km/h
588 24-01-2010 21:38:01 0.4 C 4.38 g/m*3 0.4 C 0 km/h
589 24-01-2010 21:50:01 0.4 C 4.43 g/m*3 0.4 C 0 km/h
590 24-01-2010 22:02:01 0.2 C 4.37 g/m*3 0.2 C 0 km/h
591 24-01-2010 22:14:01 0.2 C 4.37 g/m*3 0.2 C 0 km/h
592 24-01-2010 22:26:02 0.2 C 4.37 g/m*3 0.2 C 0 km/h
593 24-01-2010 22:38:01 0.2 C 4.37 g/m*3 0.2 C 0 km/h
594 24-01-2010 22:50:01 0.2 C 4.37 g/m*3 0.2 C 0 km/h
595 24-01-2010 23:02:01 0.2 C 4.42 g/m*3 0.2 C 0 km/h
596 24-01-2010 23:14:01 0.1 C 4.39 g/m*3 0.1 C 0 km/h
597 24-01-2010 23:27:02 0.1 C 4.39 g/m*3 0.1 C 0 km/h
598 24-01-2010 23:39:02 0.1 C 4.44 g/m*3 0.1 C 0 km/h
599 24-01-2010 23:51:02 0.1 C 4.44 g/m*3 0.1 C 0 km/h
600 25-01-2010 00:03:02 0.1 C 4.44 g/m*3 0.1 C 0 km/h
Sensor: Nr:Datum:Temp:Abs-Feuchte:Windchill:Wind:
Aussen-T/F 601 25-01-2010 00:15:02 0.1 C 4.44 g/m*3 0.1 C 0 km/h
602 25-01-2010 00:27:02 0.1 C 4.44 g/m*3 0.1 C 0 km/h
603 25-01-2010 00:39:02 0.1 C 4.44 g/m*3 0.1 C 0 km/h
604 25-01-2010 00:51:02 0.1 C 4.44 g/m*3 0.1 C 0 km/h
605 25-01-2010 01:03:02 0.1 C 4.44 g/m*3 0.1 C 0 km/h
606 25-01-2010 01:15:02 0.1 C 4.44 g/m*3 0.1 C 0 km/h
607 25-01-2010 01:27:02 0.1 C 4.44 g/m*3 0.1 C 0 km/h
608 25-01-2010 01:39:02 0 C 4.41 g/m*3 0 C 0 km/h
609 25-01-2010 01:51:02 0 C 4.46 g/m*3 0 C 0 km/h
610 25-01-2010 02:03:02 0 C 4.46 g/m*3 0 C 0 km/h
611 25-01-2010 02:15:02 0 C 4.46 g/m*3 0 C 0 km/h
612 25-01-2010 02:27:02 0 C 4.46 g/m*3 0 C 0 km/h
613 25-01-2010 02:39:03 0 C 4.46 g/m*3 0 C 0 km/h
614 25-01-2010 02:51:03 0 C 4.46 g/m*3 0 C 0 km/h
615 25-01-2010 03:03:03 0 C 4.46 g/m*3 0 C 0 km/h
616 25-01-2010 03:15:03 -0.1 C 4.43 g/m*3 -0.1 C 0 km/h
617 25-01-2010 03:27:03 -0.1 C 4.43 g/m*3 -0.1 C 0 km/h
618 25-01-2010 03:39:03 -0.1 C 4.43 g/m*3 -0.1 C 0 km/h
619 25-01-2010 03:51:03 -0.1 C 4.43 g/m*3 -0.1 C 0 km/h
620 25-01-2010 04:03:03 -0.1 C 4.43 g/m*3 -0.1 C 0 km/h
621 25-01-2010 04:15:03 -0.1 C 4.38 g/m*3 -0.1 C 0 km/h
622 25-01-2010 04:27:03 -0.1 C 4.38 g/m*3 -0.1 C 0 km/h
623 25-01-2010 04:39:03 -0.1 C 4.38 g/m*3 -0.1 C 0 km/h
624 25-01-2010 04:51:03 -0.2 C 4.35 g/m*3 -0.2 C 0 km/h
625 25-01-2010 05:03:03 -0.2 C 4.35 g/m*3 -0.2 C 0 km/h
Sensor: Nr:Datum:Temp:Abs-Feuchte:Windchill:Wind:
Aussen-T/F 626 25-01-2010 05:15:03 -0.2 C 4.35 g/m*3 -0.2 C 0 km/h
627 25-01-2010 05:27:03 -0.2 C 4.35 g/m*3 -0.2 C 0 km/h
628 25-01-2010 05:39:03 -0.2 C 4.35 g/m*3 -0.2 C 0 km/h
629 25-01-2010 05:51:03 -0.2 C 4.35 g/m*3 -0.2 C 0 km/h
630 25-01-2010 06:03:03 -0.3 C 4.27 g/m*3 -0.3 C 0 km/h
631 25-01-2010 06:15:03 -0.3 C 4.27 g/m*3 -0.3 C 0 km/h
632 25-01-2010 06:27:03 -0.3 C 4.27 g/m*3 -0.3 C 0 km/h
633 25-01-2010 06:39:04 -0.3 C 4.27 g/m*3 -0.3 C 0 km/h
634 25-01-2010 06:51:04 -0.3 C 4.27 g/m*3 -0.3 C 0 km/h
635 25-01-2010 07:03:01 -0.3 C 4.27 g/m*3 -0.3 C 0 km/h
636 25-01-2010 07:15:02 -0.3 C 4.22 g/m*3 -0.3 C 0 km/h
637 25-01-2010 07:27:02 -0.4 C 4.19 g/m*3 -0.4 C 0 km/h
638 25-01-2010 07:39:01 -0.5 C 4.17 g/m*3 -0.5 C 0 km/h
639 25-01-2010 07:51:03 -0.5 C 4.17 g/m*3 -0.5 C 0 km/h
640 25-01-2010 08:03:02 -0.6 C 4.14 g/m*3 -0.6 C 0 km/h
641 25-01-2010 08:15:02 -0.7 C 4.11 g/m*3 -0.7 C 0 km/h
642 25-01-2010 08:27:03 -0.7 C 4.11 g/m*3 -0.7 C 0 km/h
643 25-01-2010 08:39:02 -0.7 C 4.11 g/m*3 -0.7 C 0 km/h
644 25-01-2010 08:51:02 -0.6 C 4.14 g/m*3 -0.6 C 0 km/h
645 25-01-2010 09:03:02 -0.3 C 4.18 g/m*3 -0.3 C 0 km/h
646 25-01-2010 09:15:02 -0.3 C 4.18 g/m*3 -0.3 C 0 km/h
647 25-01-2010 09:27:02 -0.3 C 4.18 g/m*3 -0.3 C 0 km/h
648 25-01-2010 09:39:02 -0.3 C 4.13 g/m*3 -0.3 C 0 km/h
649 25-01-2010 09:51:02 -0.3 C 4.08 g/m*3 -0.3 C 0 km/h
650 25-01-2010 10:03:03 -0.2 C 4.01 g/m*3 -0.2 C 0 km/h
Sensor: Nr:Datum:Temp:Abs-Feuchte:Windchill:Wind:
Aussen-T/F 651 25-01-2010 10:15:02 -0.1 C 4.04 g/m*3 -0.1 C 0 km/h
652 25-01-2010 10:27:02 0 C 4.02 g/m*3 0 C 0 km/h
653 25-01-2010 10:39:02 0.1 C 4.05 g/m*3 0.1 C 0 km/h
654 25-01-2010 10:51:01 0.2 C 4.08 g/m*3 0.2 C 0 km/h
655 25-01-2010 11:03:02 0.3 C 4.06 g/m*3 0.3 C 0 km/h
656 25-01-2010 11:15:01 0.4 C 4.13 g/m*3 0.4 C 0 km/h
657 25-01-2010 11:27:01 0.4 C 4.08 g/m*3 0.4 C 0 km/h
658 25-01-2010 11:39:02 0.4 C 4.03 g/m*3 0.4 C 0 km/h
659 25-01-2010 11:51:01 0.6 C 4.09 g/m*3 0.6 C 0 km/h
660 25-01-2010 12:03:02 0.7 C 4.12 g/m*3 0.7 C 0 km/h
661 25-01-2010 12:15:01 0.9 C 4.12 g/m*3 0.9 C 0 km/h
662 25-01-2010 12:27:01 1.2 C 4.16 g/m*3 1.2 C 0 km/h
663 25-01-2010 12:39:02 1.2 C 4.05 g/m*3 1.2 C 0 km/h
664 25-01-2010 12:51:01 1.1 C 3.87 g/m*3 1.1 C 0 km/h
665 25-01-2010 13:03:02 1 C 3.84 g/m*3 1 C 0 km/h
666 25-01-2010 13:15:02 1 C 3.84 g/m*3 1 C 0 km/h
667 25-01-2010 13:27:02 0.9 C 3.87 g/m*3 0.9 C 0 km/h
668 25-01-2010 13:39:01 1 C 3.84 g/m*3 1 C 0 km/h
669 25-01-2010 13:51:02 1.2 C 3.95 g/m*3 1.2 C 0 km/h
670 25-01-2010 14:03:01 1.2 C 3.95 g/m*3 1.2 C 0 km/h
671 25-01-2010 14:15:02 1.2 C 3.95 g/m*3 1.2 C 0 km/h
672 25-01-2010 14:27:03 1.1 C 3.92 g/m*3 1.1 C 0 km/h
673 25-01-2010 14:39:01 1.1 C 3.92 g/m*3 1.1 C 0 km/h
674 25-01-2010 14:51:02 1 C 3.94 g/m*3 1 C 0 km/h
675 25-01-2010 15:03:02 1 C 3.94 g/m*3 1 C 0 km/h
Sensor: Nr:Datum:Temp:Abs-Feuchte:Windchill:Wind:
Aussen-T/F 676 25-01-2010 15:15:02 1 C 3.94 g/m*3 1 C 0 km/h
677 25-01-2010 15:27:02 0.8 C 3.99 g/m*3 0.8 C 0 km/h
678 25-01-2010 15:39:02 1 C 4.05 g/m*3 1 C 0 km/h
679 25-01-2010 15:51:02 1.1 C 4.13 g/m*3 1.1 C 0 km/h
680 25-01-2010 16:03:01 1 C 4.1 g/m*3 1 C 0 km/h
681 25-01-2010 16:15:02 0.9 C 4.18 g/m*3 0.9 C 0 km/h
682 25-01-2010 16:27:02 0.7 C 4.12 g/m*3 0.7 C 0 km/h
683 25-01-2010 16:39:02 0.7 C 4.17 g/m*3 0.7 C 0 km/h
684 25-01-2010 16:51:02 0.7 C 4.17 g/m*3 0.7 C 0 km/h
685 25-01-2010 17:03:01 0.6 C 4.14 g/m*3 0.6 C 0 km/h
686 25-01-2010 17:15:01 0.5 C 4.11 g/m*3 0.5 C 0 km/h
687 25-01-2010 17:27:01 0.4 C 4.08 g/m*3 0.4 C 0 km/h
688 25-01-2010 17:39:02 0.3 C 4.11 g/m*3 0.3 C 0 km/h
689 25-01-2010 17:51:02 0.2 C 4.13 g/m*3 0.2 C 0 km/h
690 25-01-2010 18:03:03 0.2 C 4.13 g/m*3 0.2 C 0 km/h
691 25-01-2010 18:15:02 0.2 C 4.22 g/m*3 0.2 C 0 km/h
692 25-01-2010 18:27:02 0 C 4.22 g/m*3 0 C 0 km/h
693 25-01-2010 18:39:01 0 C 4.26 g/m*3 0 C 0 km/h
694 25-01-2010 18:51:02 -0.2 C 4.21 g/m*3 -0.2 C 0 km/h
695 25-01-2010 19:03:01 -0.4 C 4.19 g/m*3 -0.4 C 0 km/h
696 25-01-2010 19:15:02 -0.5 C 4.21 g/m*3 -0.5 C 0 km/h
697 25-01-2010 19:27:02 -0.5 C 4.21 g/m*3 -0.5 C 0 km/h
698 25-01-2010 19:39:02 -0.5 C 4.26 g/m*3 -0.5 C 0 km/h
699 25-01-2010 19:51:02 -0.6 C 4.23 g/m*3 -0.6 C 0 km/h
700 25-01-2010 20:03:03 -0.5 C 4.26 g/m*3 -0.5 C 0 km/h
Sensor: Nr:Datum:Temp:Abs-Feuchte:Windchill:Wind:
Aussen-T/F 701 25-01-2010 20:15:02 -0.6 C 4.23 g/m*3 -0.6 C 0 km/h
702 25-01-2010 20:27:02 -0.6 C 4.23 g/m*3 -0.6 C 0 km/h
703 25-01-2010 20:39:02 -0.7 C 4.2 g/m*3 -0.7 C 0 km/h
704 25-01-2010 20:51:01 -0.8 C 4.17 g/m*3 -0.8 C 0 km/h
705 25-01-2010 21:03:02 -0.7 C 4.2 g/m*3 -0.7 C 0 km/h
706 25-01-2010 21:15:01 -0.6 C 4.23 g/m*3 -0.6 C 0 km/h
707 25-01-2010 21:27:01 -0.7 C 4.15 g/m*3 -0.7 C 0 km/h
708 25-01-2010 21:39:02 -0.7 C 4.15 g/m*3 -0.7 C 0 km/h
709 25-01-2010 21:51:02 -0.8 C 4.08 g/m*3 -0.8 C 0 km/h
710 25-01-2010 22:03:02 -0.7 C 4.11 g/m*3 -0.7 C 0 km/h
711 25-01-2010 22:15:02 -0.6 C 4.14 g/m*3 -0.6 C 0 km/h
712 25-01-2010 22:27:02 -0.8 C 4.03 g/m*3 -0.8 C 0 km/h
713 25-01-2010 22:40:03 -0.7 C 4.06 g/m*3 -0.7 C 0 km/h
714 25-01-2010 22:52:03 -0.9 C 4.01 g/m*3 -0.9 C 0 km/h
715 25-01-2010 23:04:03 -0.9 C 3.96 g/m*3 -0.9 C 0 km/h
716 25-01-2010 23:16:03 -0.8 C 4.03 g/m*3 -0.8 C 0 km/h
717 25-01-2010 23:28:03 -0.9 C 3.96 g/m*3 -0.9 C 0 km/h
718 25-01-2010 23:40:03 -1 C 3.93 g/m*3 -1 C 0 km/h
719 25-01-2010 23:52:03 -1 C 3.93 g/m*3 -1 C 0 km/h
720 26-01-2010 00:04:03 -1.1 C 3.91 g/m*3 -1.1 C 0 km/h
721 26-01-2010 00:16:03 -1.1 C 3.91 g/m*3 -1.1 C 0 km/h
722 26-01-2010 00:28:03 -1.1 C 3.91 g/m*3 -1.1 C 0 km/h
723 26-01-2010 00:40:03 -1.1 C 3.91 g/m*3 -1.1 C 0 km/h
724 26-01-2010 00:52:03 -1.4 C 3.82 g/m*3 -1.4 C 0 km/h
725 26-01-2010 01:04:03 -1.5 C 3.84 g/m*3 -1.5 C 0 km/h
Sensor: Nr:Datum:Temp:Abs-Feuchte:Windchill:Wind:
Aussen-T/F 726 26-01-2010 01:16:03 -1.6 C 3.81 g/m*3 -1.6 C 0 km/h
727 26-01-2010 01:28:03 -1.4 C 3.87 g/m*3 -1.4 C 0 km/h
728 26-01-2010 01:40:04 -1.7 C 3.79 g/m*3 -1.7 C 0 km/h
729 26-01-2010 01:52:04 -1.6 C 3.81 g/m*3 -1.6 C 0 km/h
730 26-01-2010 02:04:04 -1.5 C 3.84 g/m*3 -1.5 C 0 km/h
731 26-01-2010 02:16:04 -1.7 C 3.79 g/m*3 -1.7 C 0 km/h
732 26-01-2010 02:28:04 -1.8 C 3.76 g/m*3 -1.8 C 0 km/h
733 26-01-2010 02:40:04 -1.8 C 3.76 g/m*3 -1.8 C 0 km/h
734 26-01-2010 02:52:04 -1.9 C 3.74 g/m*3 -1.9 C 0 km/h
735 26-01-2010 03:04:04 -1.7 C 3.79 g/m*3 -1.7 C 0 km/h
736 26-01-2010 03:16:04 -1.7 C 3.79 g/m*3 -1.7 C 0 km/h
737 26-01-2010 03:28:04 -1.8 C 3.76 g/m*3 -1.8 C 0 km/h
738 26-01-2010 03:40:04 -2.1 C 3.68 g/m*3 -2.1 C 0 km/h
739 26-01-2010 03:52:04 -2 C 3.75 g/m*3 -2 C 0 km/h
740 26-01-2010 04:04:04 -2.1 C 3.73 g/m*3 -2.1 C 0 km/h
741 26-01-2010 04:16:04 -2.1 C 3.73 g/m*3 -2.1 C 0 km/h
742 26-01-2010 04:28:04 -2.1 C 3.73 g/m*3 -2.1 C 0 km/h
743 26-01-2010 04:40:04 -2.2 C 3.66 g/m*3 -2.2 C 0 km/h
744 26-01-2010 04:52:04 -2.2 C 3.66 g/m*3 -2.2 C 0 km/h
745 26-01-2010 05:04:04 -2.2 C 3.66 g/m*3 -2.2 C 0 km/h
746 26-01-2010 05:16:04 -2.1 C 3.68 g/m*3 -2.1 C 0 km/h
747 26-01-2010 05:28:04 -2.2 C 3.66 g/m*3 -2.2 C 0 km/h
748 26-01-2010 05:40:05 -2.1 C 3.68 g/m*3 -2.1 C 0 km/h
749 26-01-2010 05:52:05 -2.3 C 3.59 g/m*3 -2.3 C 0 km/h
750 26-01-2010 06:04:05 -2.3 C 3.59 g/m*3 -2.3 C 0 km/h
Sensor: Nr:Datum:Temp:Abs-Feuchte:Windchill:Wind:
Aussen-T/F 751 26-01-2010 06:16:05 -2.3 C 3.59 g/m*3 -2.3 C 0 km/h
752 26-01-2010 06:28:05 -2.3 C 3.59 g/m*3 -2.3 C 0 km/h
753 26-01-2010 06:40:05 -2.4 C 3.57 g/m*3 -2.4 C 0 km/h
754 26-01-2010 06:52:05 -2.4 C 3.57 g/m*3 -2.4 C 0 km/h
755 26-01-2010 07:04:02 -2.3 C 3.59 g/m*3 -2.3 C 0 km/h
756 26-01-2010 07:16:02 -2.2 C 3.62 g/m*3 -2.2 C 0 km/h
757 26-01-2010 07:28:02 -2.1 C 3.64 g/m*3 -2.1 C 0 km/h
758 26-01-2010 07:40:02 -2.1 C 3.6 g/m*3 -2.1 C 0 km/h
759 26-01-2010 07:52:02 -2.1 C 3.56 g/m*3 -2.1 C 0 km/h
760 26-01-2010 08:04:02 -2.1 C 3.52 g/m*3 -2.1 C 0 km/h
761 26-01-2010 08:16:02 -2.7 C 3.21 g/m*3 -2.7 C 0 km/h
762 26-01-2010 08:28:02 -2.8 C 3.11 g/m*3 -2.8 C 0 km/h
763 26-01-2010 08:40:02 -3 C 2.99 g/m*3 -3 C 0 km/h
764 26-01-2010 08:52:02 -3.3 C 2.81 g/m*3 -3.3 C 0 km/h
765 26-01-2010 09:04:02 -3.3 C 2.81 g/m*3 -3.3 C 0 km/h
766 26-01-2010 09:16:02 -3.3 C 2.77 g/m*3 -3.3 C 0 km/h
767 26-01-2010 09:28:02 -3.3 C 2.73 g/m*3 -3.3 C 0 km/h
768 26-01-2010 09:40:02 -3.8 C 2.49 g/m*3 -3.8 C 0 km/h
769 26-01-2010 09:52:02 -3.9 C 2.47 g/m*3 -3.9 C 0 km/h
770 26-01-2010 10:04:02 -3.7 C 2.47 g/m*3 -3.7 C 0 km/h
771 26-01-2010 10:16:02 -3.5 C 2.46 g/m*3 -3.5 C 0 km/h
772 26-01-2010 10:28:02 -3.5 C 2.39 g/m*3 -3.5 C 0 km/h
773 26-01-2010 10:40:02 -3.2 C 2.44 g/m*3 -3.2 C 0 km/h
774 26-01-2010 10:52:01 -3.2 C 2.4 g/m*3 -3.2 C 0 km/h
775 26-01-2010 11:04:01 -3.3 C 2.31 g/m*3 -3.3 C 0 km/h
Sensor: Nr:Datum:Temp:Abs-Feuchte:Windchill:Wind:
Aussen-T/F 776 26-01-2010 11:16:02 -3.4 C 2.29 g/m*3 -3.4 C 0 km/h
777 26-01-2010 11:28:02 -3.1 C 2.38 g/m*3 -3.1 C 0 km/h
778 26-01-2010 11:40:01 -2.8 C 2.43 g/m*3 -2.8 C 0 km/h
779 26-01-2010 11:52:02 -2.7 C 2.45 g/m*3 -2.7 C 0 km/h
780 26-01-2010 12:04:02 -2.9 C 2.37 g/m*3 -2.9 C 0 km/h
781 26-01-2010 12:16:03 -2.7 C 2.41 g/m*3 -2.7 C 0 km/h
782 26-01-2010 12:28:03 -2.7 C 2.37 g/m*3 -2.7 C 0 km/h
783 26-01-2010 12:40:02 -2.5 C 2.36 g/m*3 -2.5 C 0 km/h
784 26-01-2010 12:52:03 -2.5 C 2.36 g/m*3 -2.5 C 0 km/h
785 26-01-2010 13:04:02 -3 C 2.24 g/m*3 -3 C 0 km/h
786 26-01-2010 13:16:02 -3 C 2.24 g/m*3 -3 C 0 km/h
787 26-01-2010 13:28:02 -2.5 C 2.36 g/m*3 -2.5 C 0 km/h
788 26-01-2010 13:40:02 -2.1 C 2.34 g/m*3 -2.1 C 0 km/h
789 26-01-2010 13:52:02 -1.7 C 2.37 g/m*3 -1.7 C 0 km/h
790 26-01-2010 14:04:02 -1.4 C 2.37 g/m*3 -1.4 C 0 km/h
791 26-01-2010 14:16:02 -1.1 C 2.38 g/m*3 -1.1 C 0 km/h
792 26-01-2010 14:28:02 -0.9 C 2.37 g/m*3 -0.9 C 0 km/h
793 26-01-2010 14:40:01 -0.9 C 2.32 g/m*3 -0.9 C 0 km/h
794 26-01-2010 14:52:02 -1.1 C 2.29 g/m*3 -1.1 C 0 km/h
795 26-01-2010 15:04:01 -1 C 2.35 g/m*3 -1 C 0 km/h
796 26-01-2010 15:16:02 -0.7 C 2.4 g/m*3 -0.7 C 0 km/h
797 26-01-2010 15:28:02 -1.1 C 2.29 g/m*3 -1.1 C 0 km/h
798 26-01-2010 15:40:02 -1.4 C 2.29 g/m*3 -1.4 C 0 km/h
799 26-01-2010 15:52:02 -1.6 C 2.34 g/m*3 -1.6 C 0 km/h
800 26-01-2010 16:04:02 -1.9 C 2.33 g/m*3 -1.9 C 0 km/h
Sensor: Nr:Datum:Temp:Abs-Feuchte:Windchill:Wind:
Aussen-T/F 801 26-01-2010 16:16:02 -2.1 C 2.34 g/m*3 -2.1 C 0 km/h
802 26-01-2010 16:28:02 -2.4 C 2.34 g/m*3 -2.4 C 0 km/h
803 26-01-2010 16:40:03 -2.8 C 2.31 g/m*3 -2.8 C 0 km/h
804 26-01-2010 16:52:02 -3 C 2.32 g/m*3 -3 C 0 km/h
805 26-01-2010 17:04:02 -3.3 C 2.31 g/m*3 -3.3 C 0 km/h
806 26-01-2010 17:16:01 -3.5 C 2.31 g/m*3 -3.5 C 0 km/h
807 26-01-2010 17:28:01 -3.7 C 2.32 g/m*3 -3.7 C 0 km/h
808 26-01-2010 17:40:02 -4.1 C 2.29 g/m*3 -4.1 C 0 km/h
809 26-01-2010 17:52:02 -4.3 C 2.33 g/m*3 -4.3 C 0 km/h
810 26-01-2010 18:04:02 -4.6 C 2.31 g/m*3 -4.6 C 0 km/h
811 26-01-2010 18:16:02 -4.8 C 2.31 g/m*3 -4.8 C 0 km/h
812 26-01-2010 18:28:02 -4.9 C 2.33 g/m*3 -4.9 C 0 km/h
813 26-01-2010 18:40:02 -4.9 C 2.37 g/m*3 -4.9 C 0 km/h
814 26-01-2010 18:52:01 -5.1 C 2.3 g/m*3 -5.1 C 0 km/h
815 26-01-2010 19:04:02 -5.3 C 2.3 g/m*3 -5.3 C 0 km/h
816 26-01-2010 19:16:01 -5.4 C 2.32 g/m*3 -5.4 C 0 km/h
817 26-01-2010 19:28:01 -5.6 C 2.28 g/m*3 -5.6 C 0 km/h
818 26-01-2010 19:40:01 -5.7 C 2.3 g/m*3 -5.7 C 0 km/h
819 26-01-2010 19:52:01 -5.9 C 2.3 g/m*3 -5.9 C 0 km/h
820 26-01-2010 20:04:02 -6 C 2.31 g/m*3 -6 C 0 km/h
821 26-01-2010 20:16:01 -6 C 2.34 g/m*3 -6 C 0 km/h
822 26-01-2010 20:28:01 -6.2 C 2.31 g/m*3 -6.2 C 0 km/h
823 26-01-2010 20:40:01 -6.4 C 2.28 g/m*3 -6.4 C 0 km/h
824 26-01-2010 20:52:01 -6.4 C 2.28 g/m*3 -6.4 C 0 km/h
825 26-01-2010 21:04:02 -6.6 C 2.27 g/m*3 -6.6 C 0 km/h
Sensor: Nr:Datum:Temp:Abs-Feuchte:Windchill:Wind:
Aussen-T/F 826 26-01-2010 21:16:02 -6.7 C 2.26 g/m*3 -6.7 C 0 km/h
827 26-01-2010 21:28:02 -6.9 C 2.22 g/m*3 -6.9 C 0 km/h
828 26-01-2010 21:40:01 -7 C 2.21 g/m*3 -7 C 0 km/h
829 26-01-2010 21:52:01 -6.9 C 2.25 g/m*3 -6.9 C 0 km/h
830 26-01-2010 22:04:01 -7 C 2.27 g/m*3 -7 C 0 km/h
831 26-01-2010 22:16:01 -7.1 C 2.25 g/m*3 -7.1 C 0 km/h
832 26-01-2010 22:28:01 -7.2 C 2.23 g/m*3 -7.2 C 0 km/h
833 26-01-2010 22:40:02 -7.1 C 2.25 g/m*3 -7.1 C 0 km/h
834 26-01-2010 22:52:02 -7.2 C 2.23 g/m*3 -7.2 C 0 km/h
835 26-01-2010 23:04:02 -7.5 C 2.16 g/m*3 -7.5 C 0 km/h
836 26-01-2010 23:16:02 -7.6 C 2.14 g/m*3 -7.6 C 0 km/h
837 26-01-2010 23:28:02 -7.7 C 2.13 g/m*3 -7.7 C 0 km/h
838 26-01-2010 23:40:02 -7.7 C 2.13 g/m*3 -7.7 C 0 km/h
839 26-01-2010 23:52:01 -8.1 C 2.06 g/m*3 -8.1 C 0 km/h
840 27-01-2010 00:04:02 -8.2 C 2.05 g/m*3 -8.2 C 0 km/h
841 27-01-2010 00:16:01 -8.3 C 2.03 g/m*3 -8.3 C 0 km/h
842 27-01-2010 00:28:01 -8.2 C 2.07 g/m*3 -8.2 C 0 km/h
843 27-01-2010 00:40:02 -8.3 C 2.06 g/m*3 -8.3 C 0 km/h
844 27-01-2010 00:53:02 -8.6 C 2.01 g/m*3 -8.6 C 0 km/h
845 27-01-2010 01:05:02 -8.8 C 1.98 g/m*3 -8.8 C 0 km/h
846 27-01-2010 01:17:02 -8.9 C 1.97 g/m*3 -8.9 C 0 km/h
847 27-01-2010 01:29:02 -8.9 C 1.97 g/m*3 -8.9 C 0 km/h
848 27-01-2010 01:41:02 -8.9 C 1.97 g/m*3 -8.9 C 0 km/h
849 27-01-2010 01:53:02 -9.2 C 1.93 g/m*3 -9.2 C 0 km/h
850 27-01-2010 02:05:02 -9.3 C 1.91 g/m*3 -9.3 C 0 km/h
Sensor: Nr:Datum:Temp:Abs-Feuchte:Windchill:Wind:
Aussen-T/F 851 27-01-2010 02:17:02 -9.1 C 1.94 g/m*3 -9.1 C 0 km/h
852 27-01-2010 02:29:02 -9.3 C 1.91 g/m*3 -9.3 C 0 km/h
853 27-01-2010 02:41:02 -9.4 C 1.9 g/m*3 -9.4 C 0 km/h
854 27-01-2010 02:53:02 -9.4 C 1.9 g/m*3 -9.4 C 0 km/h
855 27-01-2010 03:05:02 -9.3 C 1.91 g/m*3 -9.3 C 0 km/h
856 27-01-2010 03:17:02 -9.1 C 1.94 g/m*3 -9.1 C 0 km/h
857 27-01-2010 03:29:02 -9.1 C 1.94 g/m*3 -9.1 C 0 km/h
858 27-01-2010 03:41:02 -8.9 C 1.97 g/m*3 -8.9 C 0 km/h
859 27-01-2010 03:53:03 -8.9 C 1.94 g/m*3 -8.9 C 0 km/h
860 27-01-2010 04:05:03 -8.8 C 1.96 g/m*3 -8.8 C 0 km/h
861 27-01-2010 04:17:03 -8.8 C 1.93 g/m*3 -8.8 C 0 km/h
862 27-01-2010 04:29:03 -8.5 C 2 g/m*3 -8.5 C 0 km/h
863 27-01-2010 04:41:03 -8.4 C 2.02 g/m*3 -8.4 C 0 km/h
864 27-01-2010 04:53:03 -8.4 C 2.02 g/m*3 -8.4 C 0 km/h
865 27-01-2010 05:05:03 -8.4 C 2.04 g/m*3 -8.4 C 0 km/h
866 27-01-2010 05:17:03 -8.4 C 2.02 g/m*3 -8.4 C 0 km/h
867 27-01-2010 05:29:03 -8.6 C 1.96 g/m*3 -8.6 C 0 km/h
868 27-01-2010 05:41:03 -8.7 C 1.92 g/m*3 -8.7 C 0 km/h
869 27-01-2010 05:53:03 -8.8 C 1.91 g/m*3 -8.8 C 0 km/h
870 27-01-2010 06:05:03 -8.7 C 1.95 g/m*3 -8.7 C 0 km/h
871 27-01-2010 06:17:03 -8.8 C 1.93 g/m*3 -8.8 C 0 km/h
872 27-01-2010 06:29:03 -8.9 C 1.92 g/m*3 -8.9 C 0 km/h
873 27-01-2010 06:41:03 -9.1 C 1.89 g/m*3 -9.1 C 0 km/h
874 27-01-2010 06:53:03 -9.2 C 1.88 g/m*3 -9.2 C 0 km/h
875 27-01-2010 07:05:01 -9.4 C 1.82 g/m*3 -9.4 C 0 km/h
Sensor: Nr:Datum:Temp:Abs-Feuchte:Windchill:Wind:
Aussen-T/F 876 27-01-2010 07:17:02 -9.3 C 1.84 g/m*3 -9.3 C 0 km/h
877 27-01-2010 07:29:02 -9.1 C 1.89 g/m*3 -9.1 C 0 km/h
878 27-01-2010 07:41:02 -9.1 C 1.89 g/m*3 -9.1 C 0 km/h
879 27-01-2010 07:53:01 -9.2 C 1.88 g/m*3 -9.2 C 0 km/h
880 27-01-2010 08:05:02 -9.3 C 1.84 g/m*3 -9.3 C 0 km/h
881 27-01-2010 08:17:01 -9.2 C 1.88 g/m*3 -9.2 C 0 km/h
882 27-01-2010 08:29:01 -9.2 C 1.88 g/m*3 -9.2 C 0 km/h
883 27-01-2010 08:41:02 -9.2 C 1.88 g/m*3 -9.2 C 0 km/h
884 27-01-2010 08:53:02 -9.3 C 1.86 g/m*3 -9.3 C 0 km/h
885 27-01-2010 09:05:02 -9.2 C 1.88 g/m*3 -9.2 C 0 km/h
886 27-01-2010 09:17:01 -9 C 1.88 g/m*3 -9 C 0 km/h
887 27-01-2010 09:29:01 -8.8 C 1.91 g/m*3 -8.8 C 0 km/h
888 27-01-2010 09:41:02 -8.6 C 1.91 g/m*3 -8.6 C 0 km/h
889 27-01-2010 09:53:02 -8.6 C 1.88 g/m*3 -8.6 C 0 km/h
890 27-01-2010 10:05:02 -8.7 C 1.84 g/m*3 -8.7 C 0 km/h
891 27-01-2010 10:17:01 -8.6 C 1.86 g/m*3 -8.6 C 0 km/h
892 27-01-2010 10:29:01 -8.4 C 1.88 g/m*3 -8.4 C 0 km/h
893 27-01-2010 10:41:02 -7.8 C 1.94 g/m*3 -7.8 C 0 km/h
894 27-01-2010 10:53:02 -7.5 C 1.96 g/m*3 -7.5 C 0 km/h
895 27-01-2010 11:05:02 -6.9 C 2.02 g/m*3 -6.9 C 0 km/h
896 27-01-2010 11:17:01 -7 C 1.94 g/m*3 -7 C 0 km/h
897 27-01-2010 11:29:01 -6.9 C 1.96 g/m*3 -6.9 C 0 km/h
898 27-01-2010 11:41:02 -6.5 C 2.02 g/m*3 -6.5 C 0 km/h
899 27-01-2010 11:53:02 -5.8 C 2.09 g/m*3 -5.8 C 0 km/h
900 27-01-2010 12:05:02 -5.3 C 2.13 g/m*3 -5.3 C 0 km/h
Sensor: Nr:Datum:Temp:Abs-Feuchte:Windchill:Wind:
Aussen-T/F 901 27-01-2010 12:17:02 -5.1 C 2.1 g/m*3 -5.1 C 0 km/h
902 27-01-2010 12:29:02 -4.7 C 2.16 g/m*3 -4.7 C 0 km/h
903 27-01-2010 12:41:02 -4.2 C 2.16 g/m*3 -4.2 C 0 km/h
904 27-01-2010 12:53:01 -3.9 C 2.14 g/m*3 -3.9 C 0 km/h
905 27-01-2010 13:05:02 -4.5 C 1.98 g/m*3 -4.5 C 0 km/h
906 27-01-2010 13:17:02 -4.4 C 2.06 g/m*3 -4.4 C 0 km/h
907 27-01-2010 13:29:02 -3.9 C 2.1 g/m*3 -3.9 C 0 km/h
908 27-01-2010 13:41:01 -3.3 C 2.19 g/m*3 -3.3 C 0 km/h
909 27-01-2010 13:53:02 -2.6 C 2.34 g/m*3 -2.6 C 0 km/h
910 27-01-2010 14:05:01 -2.2 C 2.37 g/m*3 -2.2 C 0 km/h
911 27-01-2010 14:17:02 -2.4 C 2.25 g/m*3 -2.4 C 0 km/h
912 27-01-2010 14:29:02 -2.2 C 2.33 g/m*3 -2.2 C 0 km/h
913 27-01-2010 14:41:01 -2.1 C 2.34 g/m*3 -2.1 C 0 km/h
914 27-01-2010 14:53:02 -2 C 2.44 g/m*3 -2 C 0 km/h
915 27-01-2010 15:05:01 -2 C 2.44 g/m*3 -2 C 0 km/h
916 27-01-2010 15:17:01 -2.1 C 2.43 g/m*3 -2.1 C 0 km/h
917 27-01-2010 15:29:02 -2.1 C 2.47 g/m*3 -2.1 C 0 km/h
918 27-01-2010 15:41:01 -2.3 C 2.44 g/m*3 -2.3 C 0 km/h
919 27-01-2010 15:53:02 -2.2 C 2.45 g/m*3 -2.2 C 0 km/h
920 27-01-2010 16:05:01 -2.1 C 2.39 g/m*3 -2.1 C 0 km/h
921 27-01-2010 16:17:02 -2.1 C 2.39 g/m*3 -2.1 C 0 km/h
922 27-01-2010 16:29:02 -2 C 2.32 g/m*3 -2 C 0 km/h
923 27-01-2010 16:41:02 -2.1 C 2.26 g/m*3 -2.1 C 0 km/h
924 27-01-2010 16:53:02 -2.1 C 2.18 g/m*3 -2.1 C 0 km/h
925 27-01-2010 17:05:01 -2.3 C 2.06 g/m*3 -2.3 C 0 km/h
Sensor: Nr:Datum:Temp:Abs-Feuchte:Windchill:Wind:
Aussen-T/F 926 27-01-2010 17:17:02 -2.4 C 2.13 g/m*3 -2.4 C 0 km/h
927 27-01-2010 17:29:02 -2.4 C 2.17 g/m*3 -2.4 C 0 km/h
928 27-01-2010 17:41:02 -2.4 C 2.21 g/m*3 -2.4 C 0 km/h
929 27-01-2010 17:53:02 -2.4 C 2.21 g/m*3 -2.4 C 0 km/h
930 27-01-2010 18:05:02 -2.3 C 2.27 g/m*3 -2.3 C 0 km/h
931 27-01-2010 18:17:02 -2.4 C 2.29 g/m*3 -2.4 C 0 km/h
932 27-01-2010 18:29:02 -2.3 C 2.31 g/m*3 -2.3 C 0 km/h
933 27-01-2010 18:41:02 -2.3 C 2.35 g/m*3 -2.3 C 0 km/h
934 27-01-2010 18:53:02 -2.3 C 2.39 g/m*3 -2.3 C 0 km/h
935 27-01-2010 19:05:02 -2.1 C 2.39 g/m*3 -2.1 C 0 km/h
936 27-01-2010 19:17:03 -2 C 2.4 g/m*3 -2 C 0 km/h
937 27-01-2010 19:29:03 -1.9 C 2.42 g/m*3 -1.9 C 0 km/h
938 27-01-2010 19:41:02 -1.6 C 2.34 g/m*3 -1.6 C 0 km/h
939 27-01-2010 19:53:02 -1.6 C 2.38 g/m*3 -1.6 C 0 km/h
940 27-01-2010 20:05:02 -1.7 C 2.37 g/m*3 -1.7 C 0 km/h
941 27-01-2010 20:17:02 -2 C 2.57 g/m*3 -2 C 0 km/h
942 27-01-2010 20:29:02 -2 C 2.57 g/m*3 -2 C 0 km/h
943 27-01-2010 20:41:02 -1.9 C 2.59 g/m*3 -1.9 C 0 km/h
944 27-01-2010 20:53:02 -1.9 C 2.55 g/m*3 -1.9 C 0 km/h
945 27-01-2010 21:05:02 -1.9 C 2.55 g/m*3 -1.9 C 0 km/h
946 27-01-2010 21:17:02 -2 C 2.66 g/m*3 -2 C 0 km/h
947 27-01-2010 21:29:02 -1.8 C 2.61 g/m*3 -1.8 C 0 km/h
948 27-01-2010 21:41:02 -2 C 2.66 g/m*3 -2 C 0 km/h
949 27-01-2010 21:53:02 -1.9 C 2.67 g/m*3 -1.9 C 0 km/h
950 27-01-2010 22:06:03 -2 C 2.74 g/m*3 -2 C 0 km/h
Sensor: Nr:Datum:Temp:Abs-Feuchte:Windchill:Wind:
Aussen-T/F 951 27-01-2010 22:18:03 -2 C 2.74 g/m*3 -2 C 0 km/h
952 27-01-2010 22:30:03 -1.9 C 2.67 g/m*3 -1.9 C 0 km/h
953 27-01-2010 22:42:03 -1.9 C 2.67 g/m*3 -1.9 C 0 km/h
954 27-01-2010 22:54:03 -1.9 C 2.72 g/m*3 -1.9 C 0 km/h
955 27-01-2010 23:06:03 -2 C 2.82 g/m*3 -2 C 0 km/h
956 27-01-2010 23:18:03 -2 C 2.91 g/m*3 -2 C 0 km/h
957 27-01-2010 23:30:03 -2 C 2.87 g/m*3 -2 C 0 km/h
958 27-01-2010 23:42:03 -2.1 C 2.89 g/m*3 -2.1 C 0 km/h
959 27-01-2010 23:54:03 -2.2 C 2.95 g/m*3 -2.2 C 0 km/h
960 28-01-2010 00:06:03 -2.1 C 2.93 g/m*3 -2.1 C 0 km/h
961 28-01-2010 00:18:03 -2 C 2.99 g/m*3 -2 C 0 km/h
962 28-01-2010 00:30:03 -2.1 C 3.06 g/m*3 -2.1 C 0 km/h
963 28-01-2010 00:42:03 -2 C 3.16 g/m*3 -2 C 0 km/h
964 28-01-2010 00:54:03 -1.9 C 3.18 g/m*3 -1.9 C 0 km/h
965 28-01-2010 01:06:03 -2 C 3.25 g/m*3 -2 C 0 km/h
966 28-01-2010 01:18:03 -2.1 C 3.43 g/m*3 -2.1 C 0 km/h
967 28-01-2010 01:30:03 -2 C 3.5 g/m*3 -2 C 0 km/h
968 28-01-2010 01:42:03 -1.7 C 3.57 g/m*3 -1.7 C 0 km/h
969 28-01-2010 01:54:03 -1.4 C 3.56 g/m*3 -1.4 C 0 km/h
970 28-01-2010 02:06:04 -1.2 C 3.52 g/m*3 -1.2 C 0 km/h
971 28-01-2010 02:18:04 -1.1 C 3.5 g/m*3 -1.1 C 0 km/h
972 28-01-2010 02:30:04 -1.1 C 3.46 g/m*3 -1.1 C 0 km/h
973 28-01-2010 02:42:04 -1.1 C 3.46 g/m*3 -1.1 C 0 km/h
974 28-01-2010 02:54:04 -1 C 3.53 g/m*3 -1 C 0 km/h
975 28-01-2010 03:06:04 -1 C 3.53 g/m*3 -1 C 0 km/h
Sensor: Nr:Datum:Temp:Abs-Feuchte:Windchill:Wind:
Aussen-T/F 976 28-01-2010 03:18:04 -0.9 C 3.55 g/m*3 -0.9 C 0 km/h
977 28-01-2010 03:30:04 -0.9 C 3.55 g/m*3 -0.9 C 0 km/h
978 28-01-2010 03:42:04 -0.9 C 3.6 g/m*3 -0.9 C 0 km/h
979 28-01-2010 03:54:04 -0.9 C 3.64 g/m*3 -0.9 C 0 km/h
980 28-01-2010 04:06:04 -0.9 C 3.69 g/m*3 -0.9 C 0 km/h
981 28-01-2010 04:18:04 -0.8 C 3.71 g/m*3 -0.8 C 0 km/h
982 28-01-2010 04:30:04 -0.7 C 3.78 g/m*3 -0.7 C 0 km/h
983 28-01-2010 04:42:04 -0.5 C 3.84 g/m*3 -0.5 C 0 km/h
984 28-01-2010 04:54:04 -0.5 C 3.84 g/m*3 -0.5 C 0 km/h
985 28-01-2010 05:06:04 -0.7 C 3.92 g/m*3 -0.7 C 0 km/h
986 28-01-2010 05:18:04 -0.7 C 4.06 g/m*3 -0.7 C 0 km/h
987 28-01-2010 05:30:04 -0.7 C 4.11 g/m*3 -0.7 C 0 km/h
988 28-01-2010 05:42:04 -0.5 C 4.21 g/m*3 -0.5 C 0 km/h
989 28-01-2010 05:54:04 0.1 C 4.44 g/m*3 0.1 C 0 km/h
990 28-01-2010 06:06:05 0.3 C 4.5 g/m*3 0.3 C 0 km/h
991 28-01-2010 06:18:05 0.4 C 4.53 g/m*3 0.4 C 0 km/h
992 28-01-2010 06:30:05 1 C 4.67 g/m*3 1 C 0 km/h
993 28-01-2010 06:42:05 1.5 C 4.62 g/m*3 1.5 C 0 km/h
994 28-01-2010 06:54:05 1.3 C 4.45 g/m*3 1.3 C 0 km/h
995 28-01-2010 07:06:03 1.3 C 4.34 g/m*3 1.3 C 0 km/h
996 28-01-2010 07:18:02 1.2 C 4.31 g/m*3 1.2 C 0 km/h
997 28-01-2010 07:30:02 1.1 C 4.29 g/m*3 1.1 C 0 km/h
998 28-01-2010 07:42:02 1.1 C 4.29 g/m*3 1.1 C 0 km/h
999 28-01-2010 07:54:01 1.2 C 4.31 g/m*3 1.2 C 0 km/h
1000 28-01-2010 08:06:02 1.1 C 4.34 g/m*3 1.1 C 0 km/h
Sensor: Nr:Datum:Temp:Abs-Feuchte:Windchill:Wind:
Aussen-T/F 1001 28-01-2010 08:18:01 1 C 4.36 g/m*3 1 C 0 km/h
1002 28-01-2010 08:30:01 1.4 C 4.48 g/m*3 1.4 C 0 km/h
1003 28-01-2010 08:42:01 1.4 C 4.48 g/m*3 1.4 C 0 km/h
1004 28-01-2010 08:54:01 1.5 C 4.46 g/m*3 1.5 C 0 km/h
1005 28-01-2010 09:06:01 1.5 C 4.46 g/m*3 1.5 C 0 km/h
1006 28-01-2010 09:18:02 1.6 C 4.43 g/m*3 1.6 C 0 km/h
1007 28-01-2010 09:30:02 1.7 C 4.41 g/m*3 1.7 C 0 km/h
1008 28-01-2010 09:42:01 1.8 C 4.39 g/m*3 1.8 C 0 km/h
1009 28-01-2010 09:54:02 1.9 C 4.42 g/m*3 1.9 C 0 km/h
1010 28-01-2010 10:06:01 2.1 C 4.31 g/m*3 2.1 C 0 km/h
1011 28-01-2010 10:18:02 2.2 C 4.22 g/m*3 2.2 C 0 km/h
1012 28-01-2010 10:30:02 2.4 C 4.17 g/m*3 2.4 C 0 km/h
1013 28-01-2010 10:42:01 2.6 C 4.11 g/m*3 2.6 C 0 km/h
1014 28-01-2010 10:54:02 2.8 C 4.05 g/m*3 2.8 C 0 km/h
1015 28-01-2010 11:06:02 3 C 3.98 g/m*3 3 C 0 km/h
1016 28-01-2010 11:18:02 2.8 C 3.99 g/m*3 2.8 C 0 km/h
1017 28-01-2010 11:30:02 2.6 C 3.99 g/m*3 2.6 C 0 km/h
1018 28-01-2010 11:42:01 2.5 C 4.02 g/m*3 2.5 C 0 km/h
1019 28-01-2010 11:54:02 2.8 C 4.05 g/m*3 2.8 C 0 km/h
1020 28-01-2010 12:06:01 3.3 C 3.94 g/m*3 3.3 C 0 km/h
1021 28-01-2010 12:18:01 3.1 C 3.89 g/m*3 3.1 C 0 km/h
1022 28-01-2010 12:30:01 3.4 C 3.91 g/m*3 3.4 C 0 km/h
1023 28-01-2010 12:42:02 3.3 C 3.82 g/m*3 3.3 C 0 km/h
1024 28-01-2010 12:54:02 2.9 C 3.96 g/m*3 2.9 C 0 km/h
1025 28-01-2010 13:06:02 2.9 C 4.07 g/m*3 2.9 C 0 km/h
Sensor: Nr:Datum:Temp:Abs-Feuchte:Windchill:Wind:
Aussen-T/F 1026 28-01-2010 13:18:02 3.3 C 4 g/m*3 3.3 C 0 km/h
1027 28-01-2010 13:30:02 3.5 C 3.87 g/m*3 3.5 C 0 km/h
1028 28-01-2010 13:42:02 3.6 C 3.71 g/m*3 3.6 C 0 km/h
1029 28-01-2010 13:54:02 3.6 C 3.71 g/m*3 3.6 C 0 km/h
1030 28-01-2010 14:06:02 2.7 C 3.9 g/m*3 2.7 C 0 km/h
1031 28-01-2010 14:18:02 2.3 C 4.14 g/m*3 2.3 C 0 km/h
1032 28-01-2010 14:30:02 2.1 C 4.2 g/m*3 2.1 C 0 km/h
1033 28-01-2010 14:42:02 1.8 C 4.44 g/m*3 1.8 C 0 km/h
1034 28-01-2010 14:54:02 2.1 C 4.59 g/m*3 2.1 C 0 km/h
1035 28-01-2010 15:06:02 2.1 C 4.42 g/m*3 2.1 C 0 km/h
1036 28-01-2010 15:18:03 2.3 C 4.2 g/m*3 2.3 C 0 km/h
1037 28-01-2010 15:30:03 3.1 C 3.95 g/m*3 3.1 C 0 km/h
1038 28-01-2010 15:42:02 3 C 3.75 g/m*3 3 C 0 km/h
1039 28-01-2010 15:54:02 3 C 3.69 g/m*3 3 C 0 km/h
1040 28-01-2010 16:06:02 3 C 3.69 g/m*3 3 C 0 km/h
1041 28-01-2010 16:18:02 3 C 3.63 g/m*3 3 C 0 km/h
1042 28-01-2010 16:30:02 2.9 C 3.72 g/m*3 2.9 C 0 km/h
1043 28-01-2010 16:42:02 2.8 C 3.75 g/m*3 2.8 C 0 km/h
1044 28-01-2010 16:54:02 2.7 C 3.79 g/m*3 2.7 C 0 km/h
1045 28-01-2010 17:06:02 2.6 C 3.88 g/m*3 2.6 C 0 km/h
1046 28-01-2010 17:18:02 2.4 C 3.88 g/m*3 2.4 C 0 km/h
1047 28-01-2010 17:30:02 2.4 C 3.94 g/m*3 2.4 C 0 km/h
1048 28-01-2010 17:42:02 2.4 C 4 g/m*3 2.4 C 0 km/h
1049 28-01-2010 17:54:02 1.8 C 4.17 g/m*3 1.8 C 0 km/h
1050 28-01-2010 18:06:02 1.7 C 4.3 g/m*3 1.7 C 0 km/h
Sensor: Nr:Datum:Temp:Abs-Feuchte:Windchill:Wind:
Aussen-T/F 1051 28-01-2010 18:18:02 1.5 C 4.35 g/m*3 1.5 C 0 km/h
1052 28-01-2010 18:30:02 1.1 C 4.34 g/m*3 1.1 C 0 km/h
1053 28-01-2010 18:42:02 1.2 C 4.53 g/m*3 1.2 C 0 km/h
1054 28-01-2010 18:54:02 1.2 C 4.58 g/m*3 1.2 C 0 km/h
1055 28-01-2010 19:06:01 1.2 C 4.58 g/m*3 1.2 C 0 km/h
1056 28-01-2010 19:18:02 1.2 C 4.58 g/m*3 1.2 C 0 km/h
1057 28-01-2010 19:30:02 1.4 C 4.59 g/m*3 1.4 C 0 km/h
1058 28-01-2010 19:42:02 1.5 C 4.51 g/m*3 1.5 C 0 km/h
1059 28-01-2010 19:54:01 1.5 C 4.4 g/m*3 1.5 C 0 km/h
1060 28-01-2010 20:06:01 1.7 C 4.36 g/m*3 1.7 C 0 km/h
1061 28-01-2010 20:18:01 1.7 C 4.3 g/m*3 1.7 C 0 km/h
1062 28-01-2010 20:30:01 1.6 C 4.27 g/m*3 1.6 C 0 km/h
1063 28-01-2010 20:42:02 1.6 C 4.22 g/m*3 1.6 C 0 km/h
1064 28-01-2010 20:54:02 1.5 C 4.19 g/m*3 1.5 C 0 km/h
1065 28-01-2010 21:06:02 1.5 C 4.19 g/m*3 1.5 C 0 km/h
1066 28-01-2010 21:18:02 1.7 C 4.25 g/m*3 1.7 C 0 km/h
1067 28-01-2010 21:30:02 1.6 C 4.22 g/m*3 1.6 C 0 km/h
1068 28-01-2010 21:42:02 1.5 C 4.19 g/m*3 1.5 C 0 km/h
1069 28-01-2010 21:54:01 1.6 C 4.22 g/m*3 1.6 C 0 km/h
1070 28-01-2010 22:06:01 1.6 C 4.22 g/m*3 1.6 C 0 km/h
1071 28-01-2010 22:18:02 1.7 C 4.19 g/m*3 1.7 C 0 km/h
1072 28-01-2010 22:30:02 1.7 C 4.19 g/m*3 1.7 C 0 km/h
1073 28-01-2010 22:42:02 1.6 C 4.16 g/m*3 1.6 C 0 km/h
1074 28-01-2010 22:54:02 1.7 C 4.14 g/m*3 1.7 C 0 km/h
1075 28-01-2010 23:06:02 1.6 C 4.11 g/m*3 1.6 C 0 km/h
Sensor: Nr:Datum:Temp:Abs-Feuchte:Windchill:Wind:
Aussen-T/F 1076 28-01-2010 23:18:02 1.6 C 4.16 g/m*3 1.6 C 0 km/h
1077 28-01-2010 23:30:02 1.6 C 4.16 g/m*3 1.6 C 0 km/h
1078 28-01-2010 23:42:02 1.6 C 4.16 g/m*3 1.6 C 0 km/h
1079 28-01-2010 23:54:02 1.4 C 4.21 g/m*3 1.4 C 0 km/h
1080 29-01-2010 00:06:02 1.4 C 4.27 g/m*3 1.4 C 0 km/h
1081 29-01-2010 00:18:02 1.4 C 4.27 g/m*3 1.4 C 0 km/h
1082 29-01-2010 00:30:02 1.5 C 4.3 g/m*3 1.5 C 0 km/h
1083 29-01-2010 00:42:02 1.5 C 4.24 g/m*3 1.5 C 0 km/h
1084 29-01-2010 00:54:02 1.5 C 4.3 g/m*3 1.5 C 0 km/h
1085 29-01-2010 01:06:02 1.5 C 4.3 g/m*3 1.5 C 0 km/h
1086 29-01-2010 01:18:02 1.4 C 4.32 g/m*3 1.4 C 0 km/h
1087 29-01-2010 01:30:02 1.4 C 4.32 g/m*3 1.4 C 0 km/h
1088 29-01-2010 01:42:02 1.4 C 4.37 g/m*3 1.4 C 0 km/h
1089 29-01-2010 01:54:02 1.3 C 4.34 g/m*3 1.3 C 0 km/h
1090 29-01-2010 02:06:02 1.1 C 4.39 g/m*3 1.1 C 0 km/h
1091 29-01-2010 02:18:02 1 C 4.41 g/m*3 1 C 0 km/h
1092 29-01-2010 02:30:03 1.1 C 4.49 g/m*3 1.1 C 0 km/h
1093 29-01-2010 02:42:03 1.1 C 4.49 g/m*3 1.1 C 0 km/h
1094 29-01-2010 02:54:03 1.1 C 4.55 g/m*3 1.1 C 0 km/h
1095 29-01-2010 03:06:03 1.3 C 4.56 g/m*3 1.3 C 0 km/h
1096 29-01-2010 03:18:03 1.3 C 4.56 g/m*3 1.3 C 0 km/h
1097 29-01-2010 03:30:03 1.3 C 4.56 g/m*3 1.3 C 0 km/h
1098 29-01-2010 03:42:03 1.3 C 4.56 g/m*3 1.3 C 0 km/h
1099 29-01-2010 03:54:03 1.3 C 4.56 g/m*3 1.3 C 0 km/h
1100 29-01-2010 04:06:03 1.3 C 4.56 g/m*3 1.3 C 0 km/h
Sensor: Nr:Datum:Temp:Abs-Feuchte:Windchill:Wind:
Aussen-T/F 1101 29-01-2010 04:18:03 1.4 C 4.59 g/m*3 1.4 C 0 km/h
1102 29-01-2010 04:30:03 1.3 C 4.56 g/m*3 1.3 C 0 km/h
1103 29-01-2010 04:42:03 1.4 C 4.59 g/m*3 1.4 C 0 km/h
1104 29-01-2010 04:54:03 1.3 C 4.56 g/m*3 1.3 C 0 km/h
1105 29-01-2010 05:06:03 1.2 C 4.58 g/m*3 1.2 C 0 km/h
1106 29-01-2010 05:18:03 1 C 4.57 g/m*3 1 C 0 km/h
1107 29-01-2010 05:30:03 1 C 4.62 g/m*3 1 C 0 km/h
1108 29-01-2010 05:42:03 0.9 C 4.64 g/m*3 0.9 C 0 km/h
1109 29-01-2010 05:54:03 0.9 C 4.69 g/m*3 0.9 C 0 km/h
1110 29-01-2010 06:06:03 0.9 C 4.69 g/m*3 0.9 C 0 km/h
1111 29-01-2010 06:18:03 0.9 C 4.74 g/m*3 0.9 C 0 km/h
1112 29-01-2010 06:30:03 1 C 4.72 g/m*3 1 C 0 km/h
1113 29-01-2010 06:42:04 1 C 4.67 g/m*3 1 C 0 km/h
1114 29-01-2010 06:54:04 1 C 4.67 g/m*3 1 C 0 km/h
1115 29-01-2010 07:06:01 1 C 4.62 g/m*3 1 C 0 km/h
1116 29-01-2010 07:18:02 1 C 4.62 g/m*3 1 C 0 km/h
1117 29-01-2010 07:30:02 1 C 4.57 g/m*3 1 C 0 km/h
1118 29-01-2010 07:42:01 1 C 4.57 g/m*3 1 C 0 km/h
1119 29-01-2010 07:54:02 1.2 C 4.58 g/m*3 1.2 C 0 km/h
1120 29-01-2010 08:06:01 1.4 C 4.53 g/m*3 1.4 C 0 km/h
1121 29-01-2010 08:18:01 1.5 C 4.46 g/m*3 1.5 C 0 km/h
1122 29-01-2010 08:30:01 1.6 C 4.43 g/m*3 1.6 C 0 km/h
1123 29-01-2010 08:42:01 1.6 C 4.38 g/m*3 1.6 C 0 km/h
1124 29-01-2010 08:54:02 1.5 C 4.4 g/m*3 1.5 C 0 km/h
1125 29-01-2010 09:06:01 1.5 C 4.4 g/m*3 1.5 C 0 km/h
Sensor: Nr:Datum:Temp:Abs-Feuchte:Windchill:Wind:
Aussen-T/F 1126 29-01-2010 09:18:01 1.6 C 4.43 g/m*3 1.6 C 0 km/h
1127 29-01-2010 09:30:01 1.7 C 4.46 g/m*3 1.7 C 0 km/h
1128 29-01-2010 09:42:02 1.8 C 4.44 g/m*3 1.8 C 0 km/h
1129 29-01-2010 09:54:01 1.9 C 4.42 g/m*3 1.9 C 0 km/h
1130 29-01-2010 10:06:02 2.1 C 4.36 g/m*3 2.1 C 0 km/h
1131 29-01-2010 10:18:01 2.1 C 4.36 g/m*3 2.1 C 0 km/h
1132 29-01-2010 10:30:01 2.2 C 4.39 g/m*3 2.2 C 0 km/h
1133 29-01-2010 10:42:01 2.3 C 4.42 g/m*3 2.3 C 0 km/h
1134 29-01-2010 10:54:01 2.4 C 4.4 g/m*3 2.4 C 0 km/h
1135 29-01-2010 11:06:01 2.5 C 4.37 g/m*3 2.5 C 0 km/h
1136 29-01-2010 11:18:01 2.5 C 4.37 g/m*3 2.5 C 0 km/h
1137 29-01-2010 11:30:01 2.6 C 4.4 g/m*3 2.6 C 0 km/h
1138 29-01-2010 11:42:01 2.7 C 4.37 g/m*3 2.7 C 0 km/h
1139 29-01-2010 11:54:01 2.7 C 4.31 g/m*3 2.7 C 0 km/h
1140 29-01-2010 12:06:01 2.8 C 4.34 g/m*3 2.8 C 0 km/h
1141 29-01-2010 12:18:02 2.8 C 4.34 g/m*3 2.8 C 0 km/h
1142 29-01-2010 12:30:02 2.8 C 4.34 g/m*3 2.8 C 0 km/h
1143 29-01-2010 12:42:01 2.8 C 4.34 g/m*3 2.8 C 0 km/h
1144 29-01-2010 12:54:02 2.8 C 4.4 g/m*3 2.8 C 0 km/h
1145 29-01-2010 13:06:01 2.7 C 4.37 g/m*3 2.7 C 0 km/h
1146 29-01-2010 13:18:02 2.7 C 4.43 g/m*3 2.7 C 0 km/h
1147 29-01-2010 13:30:02 2.7 C 4.43 g/m*3 2.7 C 0 km/h
1148 29-01-2010 13:42:01 2.7 C 4.43 g/m*3 2.7 C 0 km/h
1149 29-01-2010 13:54:02 2.5 C 4.43 g/m*3 2.5 C 0 km/h
1150 29-01-2010 14:06:01 2.4 C 4.51 g/m*3 2.4 C 0 km/h
Sensor: Nr:Datum:Temp:Abs-Feuchte:Windchill:Wind:
Aussen-T/F 1151 29-01-2010 14:18:01 2.2 C 4.56 g/m*3 2.2 C 0 km/h
1152 29-01-2010 14:30:01 2.2 C 4.56 g/m*3 2.2 C 0 km/h
1153 29-01-2010 14:42:02 2.2 C 4.56 g/m*3 2.2 C 0 km/h
1154 29-01-2010 14:54:01 2.2 C 4.51 g/m*3 2.2 C 0 km/h
1155 29-01-2010 15:06:01 2.1 C 4.53 g/m*3 2.1 C 0 km/h
1156 29-01-2010 15:18:01 2.1 C 4.53 g/m*3 2.1 C 0 km/h
1157 29-01-2010 15:30:01 2 C 4.56 g/m*3 2 C 0 km/h
1158 29-01-2010 15:42:02 2 C 4.56 g/m*3 2 C 0 km/h
1159 29-01-2010 15:54:01 2.1 C 4.53 g/m*3 2.1 C 0 km/h
1160 29-01-2010 16:06:01 2.1 C 4.53 g/m*3 2.1 C 0 km/h
1161 29-01-2010 16:18:01 2 C 4.5 g/m*3 2 C 0 km/h
1162 29-01-2010 16:30:01 1.8 C 4.55 g/m*3 1.8 C 0 km/h
1163 29-01-2010 16:42:02 1.6 C 4.54 g/m*3 1.6 C 0 km/h
1164 29-01-2010 16:54:01 1.6 C 4.65 g/m*3 1.6 C 0 km/h
1165 29-01-2010 17:06:02 1.5 C 4.67 g/m*3 1.5 C 0 km/h
1166 29-01-2010 17:18:01 1.4 C 4.69 g/m*3 1.4 C 0 km/h
1167 29-01-2010 17:30:01 1.3 C 4.72 g/m*3 1.3 C 0 km/h
1168 29-01-2010 17:42:02 1.3 C 4.72 g/m*3 1.3 C 0 km/h
1169 29-01-2010 17:54:02 1.2 C 4.74 g/m*3 1.2 C 0 km/h
1170 29-01-2010 18:06:01 1 C 4.67 g/m*3 1 C 0 km/h
1171 29-01-2010 18:18:01 0.9 C 4.69 g/m*3 0.9 C 0 km/h
1172 29-01-2010 18:30:01 0.8 C 4.71 g/m*3 0.8 C 0 km/h
1173 29-01-2010 18:42:01 0.8 C 4.71 g/m*3 0.8 C 0 km/h
1174 29-01-2010 18:54:01 0.7 C 4.73 g/m*3 0.7 C 0 km/h
1175 29-01-2010 19:06:01 0.7 C 4.78 g/m*3 0.7 C 0 km/h
Sensor: Nr:Datum:Temp:Abs-Feuchte:Windchill:Wind:
Aussen-T/F 1176 29-01-2010 19:18:01 0.8 C 4.81 g/m*3 0.8 C 0 km/h
1177 29-01-2010 19:30:01 0.8 C 4.81 g/m*3 0.8 C 0 km/h
1178 29-01-2010 19:42:02 0.8 C 4.81 g/m*3 0.8 C 0 km/h
1179 29-01-2010 19:54:01 0.8 C 4.81 g/m*3 0.8 C 0 km/h
1180 29-01-2010 20:06:02 0.8 C 4.81 g/m*3 0.8 C 0 km/h
1181 29-01-2010 20:18:01 0.8 C 4.76 g/m*3 0.8 C 0 km/h
1182 29-01-2010 20:30:01 0.7 C 4.73 g/m*3 0.7 C 0 km/h
1183 29-01-2010 20:42:01 0.7 C 4.68 g/m*3 0.7 C 0 km/h
1184 29-01-2010 20:54:01 0.7 C 4.68 g/m*3 0.7 C 0 km/h
1185 29-01-2010 21:06:01 0.6 C 4.6 g/m*3 0.6 C 0 km/h
1186 29-01-2010 21:18:01 0.5 C 4.51 g/m*3 0.5 C 0 km/h
1187 29-01-2010 21:30:01 0.4 C 4.48 g/m*3 0.4 C 0 km/h
1188 29-01-2010 21:42:01 0.5 C 4.56 g/m*3 0.5 C 0 km/h
1189 29-01-2010 21:54:01 0.4 C 4.48 g/m*3 0.4 C 0 km/h
1190 29-01-2010 22:06:01 0.3 C 4.35 g/m*3 0.3 C 0 km/h
1191 29-01-2010 22:18:01 0.1 C 4.2 g/m*3 0.1 C 0 km/h
1192 29-01-2010 22:30:01 0 C 4.12 g/m*3 0 C 0 km/h
1193 29-01-2010 22:42:01 0.1 C 4.1 g/m*3 0.1 C 0 km/h
1194 29-01-2010 22:54:01 0.2 C 4.13 g/m*3 0.2 C 0 km/h
1195 29-01-2010 23:06:01 0.3 C 4.16 g/m*3 0.3 C 0 km/h
1196 29-01-2010 23:20:12 0 C 4.12 g/m*3 0 C 0 km/h
1197 29-01-2010 23:32:12 -0.1 C 4.09 g/m*3 -0.1 C 0 km/h
1198 29-01-2010 23:44:12 -0.5 C 3.98 g/m*3 -0.5 C 0 km/h
1199 29-01-2010 23:56:12 -0.4 C 4.01 g/m*3 -0.4 C 0 km/h
1200 30-01-2010 00:08:12 -0.5 C 3.93 g/m*3 -0.5 C 0 km/h
Sensor: Nr:Datum:Temp:Abs-Feuchte:Windchill:Wind:
Aussen-T/F 1201 30-01-2010 00:20:12 -0.3 C 3.94 g/m*3 -0.3 C 0 km/h
1202 30-01-2010 00:32:12 -0.3 C 3.84 g/m*3 -0.3 C 0 km/h
1203 30-01-2010 00:44:12 -0.1 C 3.8 g/m*3 -0.1 C 0 km/h
1204 30-01-2010 00:56:12 0.1 C 3.81 g/m*3 0.1 C 0 km/h
1205 30-01-2010 01:08:12 -0.1 C 3.8 g/m*3 -0.1 C 0 km/h
1206 30-01-2010 01:20:12 -0.1 C 3.8 g/m*3 -0.1 C 0 km/h
1207 30-01-2010 01:32:12 -0.1 C 3.8 g/m*3 -0.1 C 0 km/h
1208 30-01-2010 01:44:12 -0.4 C 3.77 g/m*3 -0.4 C 0 km/h
1209 30-01-2010 01:56:12 -0.4 C 3.82 g/m*3 -0.4 C 0 km/h
1210 30-01-2010 02:08:12 -0.6 C 3.81 g/m*3 -0.6 C 0 km/h
1211 30-01-2010 02:20:12 -0.9 C 3.78 g/m*3 -0.9 C 0 km/h
1212 30-01-2010 02:32:12 -0.9 C 3.82 g/m*3 -0.9 C 0 km/h
1213 30-01-2010 02:44:12 -0.9 C 3.82 g/m*3 -0.9 C 0 km/h
1214 30-01-2010 02:56:12 -1 C 3.8 g/m*3 -1 C 0 km/h
1215 30-01-2010 03:08:12 -0.8 C 3.85 g/m*3 -0.8 C 0 km/h
1216 30-01-2010 03:20:12 -0.9 C 3.78 g/m*3 -0.9 C 0 km/h
1217 30-01-2010 03:32:12 -1.3 C 3.67 g/m*3 -1.3 C 0 km/h
1218 30-01-2010 03:44:13 -1.5 C 3.62 g/m*3 -1.5 C 0 km/h
1219 30-01-2010 03:56:13 -1.5 C 3.67 g/m*3 -1.5 C 0 km/h
1220 30-01-2010 04:08:13 -1.3 C 3.67 g/m*3 -1.3 C 0 km/h
1221 30-01-2010 04:20:13 -1.5 C 3.54 g/m*3 -1.5 C 0 km/h
1222 30-01-2010 04:32:13 -1.5 C 3.49 g/m*3 -1.5 C 0 km/h
1223 30-01-2010 04:44:13 -1.4 C 3.52 g/m*3 -1.4 C 0 km/h
1224 30-01-2010 04:56:13 -1.4 C 3.47 g/m*3 -1.4 C 0 km/h
1225 30-01-2010 05:08:13 -1.4 C 3.47 g/m*3 -1.4 C 0 km/h
Sensor: Nr:Datum:Temp:Abs-Feuchte:Windchill:Wind:
Aussen-T/F 1226 30-01-2010 05:20:13 -1.2 C 3.52 g/m*3 -1.2 C 0 km/h
1227 30-01-2010 05:32:13 -0.9 C 3.51 g/m*3 -0.9 C 0 km/h
1228 30-01-2010 05:44:13 -0.9 C 3.46 g/m*3 -0.9 C 0 km/h
1229 30-01-2010 05:56:13 -0.5 C 3.46 g/m*3 -0.5 C 0 km/h
1230 30-01-2010 06:08:13 -0.4 C 3.44 g/m*3 -0.4 C 0 km/h
1231 30-01-2010 06:20:13 -0.3 C 3.42 g/m*3 -0.3 C 0 km/h
1232 30-01-2010 06:32:13 -0.1 C 3.51 g/m*3 -0.1 C 0 km/h
1233 30-01-2010 06:44:13 -0.1 C 3.51 g/m*3 -0.1 C 0 km/h
1234 30-01-2010 06:56:13 0.1 C 3.42 g/m*3 0.1 C 0 km/h
1235 30-01-2010 07:08:13 -0.1 C 3.42 g/m*3 -0.1 C 0 km/h
1236 30-01-2010 07:20:13 -0.1 C 3.42 g/m*3 -0.1 C 0 km/h
1237 30-01-2010 07:32:13 -0.1 C 3.42 g/m*3 -0.1 C 0 km/h
1238 30-01-2010 07:44:13 -0.2 C 3.44 g/m*3 -0.2 C 0 km/h
1239 30-01-2010 07:56:02 -0.2 C 3.49 g/m*3 -0.2 C 0 km/h
1240 30-01-2010 08:08:02 -0.2 C 3.49 g/m*3 -0.2 C 0 km/h
1241 30-01-2010 08:20:02 -0.1 C 3.51 g/m*3 -0.1 C 0 km/h
1242 30-01-2010 08:32:02 -0.2 C 3.68 g/m*3 -0.2 C 0 km/h
1243 30-01-2010 08:44:02 -0.3 C 3.7 g/m*3 -0.3 C 0 km/h
1244 30-01-2010 08:56:03 -0.4 C 3.72 g/m*3 -0.4 C 0 km/h
1245 30-01-2010 09:08:02 -0.4 C 3.77 g/m*3 -0.4 C 0 km/h
1246 30-01-2010 09:20:02 -0.4 C 3.72 g/m*3 -0.4 C 0 km/h
1247 30-01-2010 09:32:03 -0.3 C 3.7 g/m*3 -0.3 C 0 km/h
1248 30-01-2010 09:44:03 0 C 3.68 g/m*3 0 C 0 km/h
1249 30-01-2010 09:56:02 0.1 C 3.61 g/m*3 0.1 C 0 km/h
1250 30-01-2010 10:08:02 0 C 3.59 g/m*3 0 C 0 km/h
Sensor: Nr:Datum:Temp:Abs-Feuchte:Windchill:Wind:
Aussen-T/F 1251 30-01-2010 10:20:02 0 C 3.63 g/m*3 0 C 0 km/h
1252 30-01-2010 10:32:02 -0.1 C 3.61 g/m*3 -0.1 C 0 km/h
1253 30-01-2010 10:44:02 -0.1 C 3.75 g/m*3 -0.1 C 0 km/h
1254 30-01-2010 10:56:02 -0.1 C 3.9 g/m*3 -0.1 C 0 km/h
1255 30-01-2010 11:08:02 -0.4 C 3.91 g/m*3 -0.4 C 0 km/h
1256 30-01-2010 11:20:02 -0.5 C 3.93 g/m*3 -0.5 C 0 km/h
1257 30-01-2010 11:32:02 -0.3 C 4.03 g/m*3 -0.3 C 0 km/h
1258 30-01-2010 11:44:02 0 C 4.02 g/m*3 0 C 0 km/h
1259 30-01-2010 11:56:01 0.4 C 3.98 g/m*3 0.4 C 0 km/h
1260 30-01-2010 12:08:02 0.2 C 3.88 g/m*3 0.2 C 0 km/h
1261 30-01-2010 12:20:02 -0.2 C 3.92 g/m*3 -0.2 C 0 km/h
1262 30-01-2010 12:32:01 -0.4 C 4.01 g/m*3 -0.4 C 0 km/h
1263 30-01-2010 12:44:01 -0.3 C 4.08 g/m*3 -0.3 C 0 km/h
1264 30-01-2010 12:56:01 -0.2 C 4.01 g/m*3 -0.2 C 0 km/h
1265 30-01-2010 13:08:01 0 C 3.88 g/m*3 0 C 0 km/h
1266 30-01-2010 13:20:02 0 C 3.63 g/m*3 0 C 0 km/h
1267 30-01-2010 13:32:01 -0.2 C 3.49 g/m*3 -0.2 C 0 km/h
1268 30-01-2010 13:44:01 0.3 C 3.56 g/m*3 0.3 C 0 km/h
1269 30-01-2010 13:56:02 0.5 C 3.46 g/m*3 0.5 C 0 km/h
1270 30-01-2010 14:08:01 0.6 C 3.48 g/m*3 0.6 C 0 km/h
1271 30-01-2010 14:20:02 0.5 C 3.41 g/m*3 0.5 C 0 km/h
1272 30-01-2010 14:32:01 0.4 C 3.44 g/m*3 0.4 C 0 km/h
1273 30-01-2010 14:44:01 0.3 C 3.51 g/m*3 0.3 C 0 km/h
1274 30-01-2010 14:56:03 -1.1 C 3.41 g/m*3 -1.1 C 0 km/h
1275 30-01-2010 15:08:02 -1.3 C 3.5 g/m*3 -1.3 C 0 km/h
Sensor: Nr:Datum:Temp:Abs-Feuchte:Windchill:Wind:
Aussen-T/F 1276 30-01-2010 15:20:02 -1.1 C 3.59 g/m*3 -1.1 C 0 km/h
1277 30-01-2010 15:32:02 -0.9 C 3.6 g/m*3 -0.9 C 0 km/h
1278 30-01-2010 15:44:02 -0.7 C 3.6 g/m*3 -0.7 C 0 km/h
1279 30-01-2010 15:56:02 -0.9 C 3.41 g/m*3 -0.9 C 0 km/h
1280 30-01-2010 16:08:02 -1.3 C 3.19 g/m*3 -1.3 C 0 km/h
1281 30-01-2010 16:20:02 -1.4 C 3.21 g/m*3 -1.4 C 0 km/h
1282 30-01-2010 16:32:01 -1.6 C 3.21 g/m*3 -1.6 C 0 km/h
1283 30-01-2010 16:44:01 -1.5 C 3.27 g/m*3 -1.5 C 0 km/h
1284 30-01-2010 16:56:02 -1.5 C 3.32 g/m*3 -1.5 C 0 km/h
1285 30-01-2010 17:08:01 -1.6 C 3.34 g/m*3 -1.6 C 0 km/h
1286 30-01-2010 17:20:02 -1.7 C 3.36 g/m*3 -1.7 C 0 km/h
1287 30-01-2010 17:32:02 -2 C 3.29 g/m*3 -2 C 0 km/h
1288 30-01-2010 17:44:02 -2.4 C 3.16 g/m*3 -2.4 C 0 km/h
1289 30-01-2010 17:56:02 -2.6 C 3.15 g/m*3 -2.6 C 0 km/h
1290 30-01-2010 18:08:02 -2.4 C 3.24 g/m*3 -2.4 C 0 km/h
1291 30-01-2010 18:20:02 -2.4 C 3.24 g/m*3 -2.4 C 0 km/h
1292 30-01-2010 18:32:03 -2.3 C 3.26 g/m*3 -2.3 C 0 km/h
1293 30-01-2010 18:44:03 -2.4 C 3.2 g/m*3 -2.4 C 0 km/h
1294 30-01-2010 18:56:02 -2.6 C 3.11 g/m*3 -2.6 C 0 km/h
1295 30-01-2010 19:08:01 -2.9 C 3.05 g/m*3 -2.9 C 0 km/h
1296 30-01-2010 19:20:02 -3.1 C 3 g/m*3 -3.1 C 0 km/h
1297 30-01-2010 19:32:02 -3.3 C 2.96 g/m*3 -3.3 C 0 km/h
1298 30-01-2010 19:44:02 -3.5 C 2.92 g/m*3 -3.5 C 0 km/h
1299 30-01-2010 19:56:01 -3.7 C 2.92 g/m*3 -3.7 C 0 km/h
1300 30-01-2010 20:08:02 -4 C 2.85 g/m*3 -4 C 0 km/h
Sensor: Nr:Datum:Temp:Abs-Feuchte:Windchill:Wind:
Aussen-T/F 1301 30-01-2010 20:20:01 -4.2 C 2.81 g/m*3 -4.2 C 0 km/h
1302 30-01-2010 20:32:02 -4.5 C 2.75 g/m*3 -4.5 C 0 km/h
1303 30-01-2010 20:44:02 -4.9 C 2.68 g/m*3 -4.9 C 0 km/h
1304 30-01-2010 20:56:02 -4.7 C 2.75 g/m*3 -4.7 C 0 km/h
1305 30-01-2010 21:08:02 -4.3 C 2.86 g/m*3 -4.3 C 0 km/h
1306 30-01-2010 21:20:02 -4.1 C 2.91 g/m*3 -4.1 C 0 km/h
1307 30-01-2010 21:32:02 -4.2 C 2.89 g/m*3 -4.2 C 0 km/h
1308 30-01-2010 21:44:02 -4.6 C 2.77 g/m*3 -4.6 C 0 km/h
1309 30-01-2010 21:56:02 -5.1 C 2.64 g/m*3 -5.1 C 0 km/h
1310 30-01-2010 22:08:02 -5.6 C 2.54 g/m*3 -5.6 C 0 km/h
1311 30-01-2010 22:21:03 -5.9 C 2.49 g/m*3 -5.9 C 0 km/h
1312 30-01-2010 22:33:04 -5.7 C 2.56 g/m*3 -5.7 C 0 km/h
1313 30-01-2010 22:45:04 -6 C 2.5 g/m*3 -6 C 0 km/h
1314 30-01-2010 22:57:04 -6.1 C 2.48 g/m*3 -6.1 C 0 km/h
1315 30-01-2010 23:09:04 -6.3 C 2.45 g/m*3 -6.3 C 0 km/h
1316 30-01-2010 23:21:04 -6.2 C 2.47 g/m*3 -6.2 C 0 km/h
1317 30-01-2010 23:33:04 -6.4 C 2.43 g/m*3 -6.4 C 0 km/h
1318 30-01-2010 23:45:04 -6.4 C 2.43 g/m*3 -6.4 C 0 km/h
1319 30-01-2010 23:57:04 -6.3 C 2.48 g/m*3 -6.3 C 0 km/h
1320 31-01-2010 00:09:04 -6.2 C 2.5 g/m*3 -6.2 C 0 km/h
1321 31-01-2010 00:21:04 -6.1 C 2.52 g/m*3 -6.1 C 0 km/h
1322 31-01-2010 00:33:04 -6 C 2.53 g/m*3 -6 C 0 km/h
1323 31-01-2010 00:45:04 -6 C 2.5 g/m*3 -6 C 0 km/h
1324 31-01-2010 00:57:04 -5.6 C 2.58 g/m*3 -5.6 C 0 km/h
1325 31-01-2010 01:09:04 -5.1 C 2.67 g/m*3 -5.1 C 0 km/h
Sensor: Nr:Datum:Temp:Abs-Feuchte:Windchill:Wind:
Aussen-T/F 1326 31-01-2010 01:21:04 -5 C 2.69 g/m*3 -5 C 0 km/h
1327 31-01-2010 01:33:04 -4.7 C 2.71 g/m*3 -4.7 C 0 km/h
1328 31-01-2010 01:45:04 -4.6 C 2.73 g/m*3 -4.6 C 0 km/h
1329 31-01-2010 01:57:04 -4.6 C 2.8 g/m*3 -4.6 C 0 km/h
1330 31-01-2010 02:09:04 -4.4 C 2.88 g/m*3 -4.4 C 0 km/h
1331 31-01-2010 02:21:04 -4.3 C 2.94 g/m*3 -4.3 C 0 km/h
1332 31-01-2010 02:33:04 -4.2 C 2.96 g/m*3 -4.2 C 0 km/h
1333 31-01-2010 02:45:04 -4.2 C 2.99 g/m*3 -4.2 C 0 km/h
1334 31-01-2010 02:57:05 -4.2 C 3.03 g/m*3 -4.2 C 0 km/h
1335 31-01-2010 03:09:05 -4 C 3.07 g/m*3 -4 C 0 km/h
1336 31-01-2010 03:21:05 -3.9 C 3.06 g/m*3 -3.9 C 0 km/h
1337 31-01-2010 03:33:05 -3.7 C 3.1 g/m*3 -3.7 C 0 km/h
1338 31-01-2010 03:45:05 -3.5 C 3.11 g/m*3 -3.5 C 0 km/h
1339 31-01-2010 03:57:05 -3.5 C 3.15 g/m*3 -3.5 C 0 km/h
1340 31-01-2010 04:09:05 -3.4 C 3.17 g/m*3 -3.4 C 0 km/h
1341 31-01-2010 04:21:05 -3.4 C 3.17 g/m*3 -3.4 C 0 km/h
1342 31-01-2010 04:33:05 -3.3 C 3.19 g/m*3 -3.3 C 0 km/h
1343 31-01-2010 04:45:05 -3.2 C 3.18 g/m*3 -3.2 C 0 km/h
1344 31-01-2010 04:57:05 -3.2 C 3.18 g/m*3 -3.2 C 0 km/h
1345 31-01-2010 05:09:05 -3.2 C 3.21 g/m*3 -3.2 C 0 km/h
1346 31-01-2010 05:21:05 -3.1 C 3.24 g/m*3 -3.1 C 0 km/h
1347 31-01-2010 05:33:05 -2.9 C 3.24 g/m*3 -2.9 C 0 km/h
1348 31-01-2010 05:45:05 -2.9 C 3.24 g/m*3 -2.9 C 0 km/h
1349 31-01-2010 05:57:05 -2.9 C 3.24 g/m*3 -2.9 C 0 km/h
1350 31-01-2010 06:09:05 -2.8 C 3.27 g/m*3 -2.8 C 0 km/h
Sensor: Nr:Datum:Temp:Abs-Feuchte:Windchill:Wind:
Aussen-T/F 1351 31-01-2010 06:21:05 -2.8 C 3.27 g/m*3 -2.8 C 0 km/h
1352 31-01-2010 06:33:05 -2.8 C 3.27 g/m*3 -2.8 C 0 km/h
1353 31-01-2010 06:45:05 -2.8 C 3.27 g/m*3 -2.8 C 0 km/h
1354 31-01-2010 06:57:05 -2.7 C 3.29 g/m*3 -2.7 C 0 km/h
1355 31-01-2010 07:09:05 -2.6 C 3.31 g/m*3 -2.6 C 0 km/h
1356 31-01-2010 07:21:05 -2.6 C 3.31 g/m*3 -2.6 C 0 km/h
1357 31-01-2010 07:33:06 -2.6 C 3.31 g/m*3 -2.6 C 0 km/h
1358 31-01-2010 07:45:06 -2.5 C 3.3 g/m*3 -2.5 C 0 km/h
1359 31-01-2010 07:57:06 -2.5 C 3.3 g/m*3 -2.5 C 0 km/h
1360 31-01-2010 08:09:06 -2.4 C 3.36 g/m*3 -2.4 C 0 km/h
1361 31-01-2010 08:21:06 -2.4 C 3.4 g/m*3 -2.4 C 0 km/h
1362 31-01-2010 08:33:03 -2.4 C 3.36 g/m*3 -2.4 C 0 km/h
1363 31-01-2010 08:45:02 -2.4 C 3.36 g/m*3 -2.4 C 0 km/h
1364 31-01-2010 08:57:02 -2.4 C 3.36 g/m*3 -2.4 C 0 km/h
1365 31-01-2010 09:09:02 -2.1 C 3.43 g/m*3 -2.1 C 0 km/h
1366 31-01-2010 09:21:02 -2 C 3.41 g/m*3 -2 C 0 km/h
1367 31-01-2010 09:33:01 -2.2 C 3.33 g/m*3 -2.2 C 0 km/h
1368 31-01-2010 09:45:02 -2 C 3.33 g/m*3 -2 C 0 km/h
1369 31-01-2010 09:57:02 -1.8 C 3.33 g/m*3 -1.8 C 0 km/h
1370 31-01-2010 10:09:01 -1.6 C 3.38 g/m*3 -1.6 C 0 km/h
1371 31-01-2010 10:21:02 -1.7 C 3.31 g/m*3 -1.7 C 0 km/h
1372 31-01-2010 10:33:01 -1.7 C 3.27 g/m*3 -1.7 C 0 km/h
1373 31-01-2010 10:45:02 -1.7 C 3.27 g/m*3 -1.7 C 0 km/h
1374 31-01-2010 10:57:02 -1.6 C 3.29 g/m*3 -1.6 C 0 km/h
1375 31-01-2010 11:09:02 -1.4 C 3.34 g/m*3 -1.4 C 0 km/h
Sensor: Nr:Datum:Temp:Abs-Feuchte:Windchill:Wind:
Aussen-T/F 1376 31-01-2010 11:21:02 -1.1 C 3.41 g/m*3 -1.1 C 0 km/h
1377 31-01-2010 11:33:03 -0.7 C 3.42 g/m*3 -0.7 C 0 km/h
1378 31-01-2010 11:45:02 -0.6 C 3.39 g/m*3 -0.6 C 0 km/h
1379 31-01-2010 11:57:03 -0.4 C 3.44 g/m*3 -0.4 C 0 km/h
1380 31-01-2010 12:09:01 -0.2 C 3.44 g/m*3 -0.2 C 0 km/h
1381 31-01-2010 12:21:02 0.2 C 3.54 g/m*3 0.2 C 0 km/h
1382 31-01-2010 12:33:02 0.7 C 3.61 g/m*3 0.7 C 0 km/h
1383 31-01-2010 12:45:02 1.1 C 3.5 g/m*3 1.1 C 0 km/h
1384 31-01-2010 12:57:02 1.3 C 3.5 g/m*3 1.3 C 0 km/h
1385 31-01-2010 13:09:03 1.6 C 3.46 g/m*3 1.6 C 0 km/h
1386 31-01-2010 13:21:02 1.7 C 3.38 g/m*3 1.7 C 0 km/h
1387 31-01-2010 13:33:03 2 C 3.28 g/m*3 2 C 0 km/h
1388 31-01-2010 13:45:02 2 C 3.22 g/m*3 2 C 0 km/h
1389 31-01-2010 13:57:02 2.2 C 3.15 g/m*3 2.2 C 0 km/h
1390 31-01-2010 14:09:02 2.1 C 3.08 g/m*3 2.1 C 0 km/h
1391 31-01-2010 14:21:01 2.2 C 3.15 g/m*3 2.2 C 0 km/h
1392 31-01-2010 14:33:02 2.4 C 3.14 g/m*3 2.4 C 0 km/h
1393 31-01-2010 14:45:02 2.2 C 2.99 g/m*3 2.2 C 0 km/h
1394 31-01-2010 14:57:02 2.2 C 2.93 g/m*3 2.2 C 0 km/h
1395 31-01-2010 15:09:02 1.7 C 2.94 g/m*3 1.7 C 0 km/h
1396 31-01-2010 15:21:02 1.3 C 2.97 g/m*3 1.3 C 0 km/h
1397 31-01-2010 15:33:02 1.1 C 2.93 g/m*3 1.1 C 0 km/h
1398 31-01-2010 15:45:02 1.1 C 3.03 g/m*3 1.1 C 0 km/h
1399 31-01-2010 15:57:02 1.3 C 3.13 g/m*3 1.3 C 0 km/h
1400 31-01-2010 16:09:02 1.2 C 3.1 g/m*3 1.2 C 0 km/h
Sensor: Nr:Datum:Temp:Abs-Feuchte:Windchill:Wind:
Aussen-T/F 1401 31-01-2010 16:21:02 0.8 C 3.12 g/m*3 0.8 C 0 km/h
1402 31-01-2010 16:33:02 0.7 C 3.1 g/m*3 0.7 C 0 km/h
1403 31-01-2010 16:45:02 0.7 C 3.15 g/m*3 0.7 C 0 km/h
1404 31-01-2010 16:57:02 0.5 C 3.11 g/m*3 0.5 C 0 km/h
1405 31-01-2010 17:09:03 0.3 C 3.07 g/m*3 0.3 C 0 km/h
1406 31-01-2010 17:21:02 0 C 3.15 g/m*3 0 C 0 km/h
1407 31-01-2010 17:33:02 -0.4 C 3.11 g/m*3 -0.4 C 0 km/h
1408 31-01-2010 17:45:01 -0.6 C 3.11 g/m*3 -0.6 C 0 km/h
1409 31-01-2010 17:57:01 -1 C 3.07 g/m*3 -1 C 0 km/h
1410 31-01-2010 18:09:02 -1.1 C 3.14 g/m*3 -1.1 C 0 km/h
1411 31-01-2010 18:21:01 -1.3 C 3.1 g/m*3 -1.3 C 0 km/h
1412 31-01-2010 18:33:01 -1.5 C 3.1 g/m*3 -1.5 C 0 km/h
1413 31-01-2010 18:45:01 -1.7 C 3.1 g/m*3 -1.7 C 0 km/h
1414 31-01-2010 18:57:01 -1.8 C 3.16 g/m*3 -1.8 C 0 km/h
1415 31-01-2010 19:09:02 -1.8 C 3.16 g/m*3 -1.8 C 0 km/h
1416 31-01-2010 19:21:01 -1.8 C 3.12 g/m*3 -1.8 C 0 km/h
1417 31-01-2010 19:33:02 -1.9 C 3.1 g/m*3 -1.9 C 0 km/h
1418 31-01-2010 19:45:01 -1.8 C 3.12 g/m*3 -1.8 C 0 km/h
1419 31-01-2010 19:57:01 -2.1 C 3.06 g/m*3 -2.1 C 0 km/h
1420 31-01-2010 20:09:02 -2.1 C 3.14 g/m*3 -2.1 C 0 km/h
1421 31-01-2010 20:21:01 -1.9 C 3.18 g/m*3 -1.9 C 0 km/h
1422 31-01-2010 20:33:02 -2 C 3.16 g/m*3 -2 C 0 km/h
1423 31-01-2010 20:45:01 -2 C 3.2 g/m*3 -2 C 0 km/h
1424 31-01-2010 20:57:01 -2 C 3.2 g/m*3 -2 C 0 km/h
1425 31-01-2010 21:09:02 -1.8 C 3.25 g/m*3 -1.8 C 0 km/h
Sensor: Nr:Datum:Temp:Abs-Feuchte:Windchill:Wind:
Aussen-T/F 1426 31-01-2010 21:21:01 -1.6 C 3.29 g/m*3 -1.6 C 0 km/h
1427 31-01-2010 21:33:02 -1.5 C 3.32 g/m*3 -1.5 C 0 km/h
1428 31-01-2010 21:45:01 -1.3 C 3.32 g/m*3 -1.3 C 0 km/h
1429 31-01-2010 21:57:01 -1.1 C 3.37 g/m*3 -1.1 C 0 km/h
1430 31-01-2010 22:09:02 -0.8 C 3.39 g/m*3 -0.8 C 0 km/h
1431 31-01-2010 22:21:02 -0.6 C 3.39 g/m*3 -0.6 C 0 km/h
1432 31-01-2010 22:33:01 -0.6 C 3.35 g/m*3 -0.6 C 0 km/h
1433 31-01-2010 22:46:02 -0.7 C 3.32 g/m*3 -0.7 C 0 km/h
1434 31-01-2010 22:58:02 -0.7 C 3.37 g/m*3 -0.7 C 0 km/h
1435 31-01-2010 23:10:02 -0.6 C 3.39 g/m*3 -0.6 C 0 km/h
1436 31-01-2010 23:22:02 -0.5 C 3.37 g/m*3 -0.5 C 0 km/h
1437 31-01-2010 23:34:02 -0.6 C 3.35 g/m*3 -0.6 C 0 km/h
1438 31-01-2010 23:46:02 -0.7 C 3.37 g/m*3 -0.7 C 0 km/h
1439 31-01-2010 23:58:02 -0.7 C 3.42 g/m*3 -0.7 C 0 km/h
1440 01-02-2010 00:10:02 -0.8 C 3.39 g/m*3 -0.8 C 0 km/h
1441 01-02-2010 00:22:02 -1 C 3.35 g/m*3 -1 C 0 km/h
1442 01-02-2010 00:34:02 -1.1 C 3.32 g/m*3 -1.1 C 0 km/h
1443 01-02-2010 00:46:02 -0.7 C 3.42 g/m*3 -0.7 C 0 km/h
1444 01-02-2010 00:58:03 -0.7 C 3.37 g/m*3 -0.7 C 0 km/h
1445 01-02-2010 01:10:03 -0.6 C 3.35 g/m*3 -0.6 C 0 km/h
1446 01-02-2010 01:22:03 -0.5 C 3.37 g/m*3 -0.5 C 0 km/h
1447 01-02-2010 01:34:03 -0.5 C 3.37 g/m*3 -0.5 C 0 km/h
1448 01-02-2010 01:46:03 -0.4 C 3.35 g/m*3 -0.4 C 0 km/h
1449 01-02-2010 01:58:03 -0.4 C 3.35 g/m*3 -0.4 C 0 km/h
1450 01-02-2010 02:10:03 -0.6 C 3.25 g/m*3 -0.6 C 0 km/h
Sensor: Nr:Datum:Temp:Abs-Feuchte:Windchill:Wind:
Aussen-T/F 1451 01-02-2010 02:22:03 -0.8 C 3.25 g/m*3 -0.8 C 0 km/h
1452 01-02-2010 02:34:03 -0.8 C 3.25 g/m*3 -0.8 C 0 km/h
1453 01-02-2010 02:46:03 -0.8 C 3.25 g/m*3 -0.8 C 0 km/h
1454 01-02-2010 02:58:03 -0.8 C 3.25 g/m*3 -0.8 C 0 km/h
1455 01-02-2010 03:10:03 -0.7 C 3.28 g/m*3 -0.7 C 0 km/h
1456 01-02-2010 03:22:03 -0.8 C 3.25 g/m*3 -0.8 C 0 km/h
1457 01-02-2010 03:34:03 -0.8 C 3.25 g/m*3 -0.8 C 0 km/h
1458 01-02-2010 03:46:03 -0.7 C 3.32 g/m*3 -0.7 C 0 km/h
1459 01-02-2010 03:58:03 -0.8 C 3.25 g/m*3 -0.8 C 0 km/h
1460 01-02-2010 04:10:03 -0.8 C 3.25 g/m*3 -0.8 C 0 km/h
1461 01-02-2010 04:22:03 -0.9 C 3.28 g/m*3 -0.9 C 0 km/h
1462 01-02-2010 04:34:03 -1 C 3.25 g/m*3 -1 C 0 km/h
1463 01-02-2010 04:46:03 -0.8 C 3.3 g/m*3 -0.8 C 0 km/h
1464 01-02-2010 04:58:03 -0.7 C 3.28 g/m*3 -0.7 C 0 km/h
1465 01-02-2010 05:10:03 -0.7 C 3.28 g/m*3 -0.7 C 0 km/h
1466 01-02-2010 05:22:04 -0.6 C 3.3 g/m*3 -0.6 C 0 km/h
1467 01-02-2010 05:34:04 -0.5 C 3.32 g/m*3 -0.5 C 0 km/h
1468 01-02-2010 05:46:04 -0.4 C 3.35 g/m*3 -0.4 C 0 km/h
1469 01-02-2010 05:58:04 -0.4 C 3.35 g/m*3 -0.4 C 0 km/h
1470 01-02-2010 06:10:04 -0.4 C 3.35 g/m*3 -0.4 C 0 km/h
1471 01-02-2010 06:22:04 -0.4 C 3.35 g/m*3 -0.4 C 0 km/h
1472 01-02-2010 06:34:04 -0.3 C 3.37 g/m*3 -0.3 C 0 km/h
1473 01-02-2010 06:46:04 -0.3 C 3.37 g/m*3 -0.3 C 0 km/h
1474 01-02-2010 06:58:04 -0.4 C 3.35 g/m*3 -0.4 C 0 km/h
1475 01-02-2010 07:10:02 -0.5 C 3.37 g/m*3 -0.5 C 0 km/h
Sensor: Nr:Datum:Temp:Abs-Feuchte:Windchill:Wind:
Aussen-T/F 1476 01-02-2010 07:22:03 -0.7 C 3.32 g/m*3 -0.7 C 0 km/h
1477 01-02-2010 07:34:02 -0.7 C 3.37 g/m*3 -0.7 C 0 km/h
1478 01-02-2010 07:46:02 -0.6 C 3.39 g/m*3 -0.6 C 0 km/h
1479 01-02-2010 07:58:02 -0.5 C 3.42 g/m*3 -0.5 C 0 km/h
1480 01-02-2010 08:10:02 -0.4 C 3.39 g/m*3 -0.4 C 0 km/h
1481 01-02-2010 08:22:02 -0.4 C 3.44 g/m*3 -0.4 C 0 km/h
1482 01-02-2010 08:34:02 -0.4 C 3.39 g/m*3 -0.4 C 0 km/h
1483 01-02-2010 08:46:02 -0.4 C 3.39 g/m*3 -0.4 C 0 km/h
1484 01-02-2010 08:58:02 -0.4 C 3.39 g/m*3 -0.4 C 0 km/h
1485 01-02-2010 09:10:02 -0.4 C 3.39 g/m*3 -0.4 C 0 km/h
1486 01-02-2010 09:22:02 -0.3 C 3.37 g/m*3 -0.3 C 0 km/h
1487 01-02-2010 09:34:02 -0.3 C 3.37 g/m*3 -0.3 C 0 km/h
1488 01-02-2010 09:46:02 -0.2 C 3.39 g/m*3 -0.2 C 0 km/h
1489 01-02-2010 09:58:02 -0.2 C 3.39 g/m*3 -0.2 C 0 km/h
1490 01-02-2010 10:10:02 -0.1 C 3.37 g/m*3 -0.1 C 0 km/h
1491 01-02-2010 10:22:02 0.2 C 3.44 g/m*3 0.2 C 0 km/h
1492 01-02-2010 10:34:01 0.2 C 3.34 g/m*3 0.2 C 0 km/h
1493 01-02-2010 10:46:02 0.3 C 3.36 g/m*3 0.3 C 0 km/h
1494 01-02-2010 10:58:02 0.3 C 3.31 g/m*3 0.3 C 0 km/h
1495 01-02-2010 11:10:01 0.5 C 3.31 g/m*3 0.5 C 0 km/h
1496 01-02-2010 11:22:02 0.5 C 3.26 g/m*3 0.5 C 0 km/h
1497 01-02-2010 11:34:01 0.7 C 3.3 g/m*3 0.7 C 0 km/h
1498 01-02-2010 11:46:02 1 C 3.22 g/m*3 1 C 0 km/h
1499 01-02-2010 11:58:02 1 C 3.22 g/m*3 1 C 0 km/h
1500 01-02-2010 12:10:02 1.4 C 3.31 g/m*3 1.4 C 0 km/h
Sensor: Nr:Datum:Temp:Abs-Feuchte:Windchill:Wind:
Aussen-T/F 1501 01-02-2010 12:22:02 1.3 C 3.23 g/m*3 1.3 C 0 km/h
1502 01-02-2010 12:34:02 1.7 C 3.32 g/m*3 1.7 C 0 km/h
1503 01-02-2010 12:46:02 1.5 C 3.28 g/m*3 1.5 C 0 km/h
1504 01-02-2010 12:58:02 1.5 C 3.28 g/m*3 1.5 C 0 km/h
1505 01-02-2010 13:10:01 1.4 C 3.25 g/m*3 1.4 C 0 km/h
1506 01-02-2010 13:22:02 1.6 C 3.3 g/m*3 1.6 C 0 km/h
1507 01-02-2010 13:34:01 1.7 C 3.32 g/m*3 1.7 C 0 km/h
1508 01-02-2010 13:46:02 2.3 C 3.29 g/m*3 2.3 C 0 km/h
1509 01-02-2010 13:58:02 2.3 C 3.18 g/m*3 2.3 C 0 km/h
1510 01-02-2010 14:10:01 2.4 C 3.25 g/m*3 2.4 C 0 km/h
1511 01-02-2010 14:22:01 2.4 C 3.25 g/m*3 2.4 C 0 km/h
1512 01-02-2010 14:34:02 2.1 C 3.24 g/m*3 2.1 C 0 km/h
1513 01-02-2010 14:46:02 1.5 C 3.44 g/m*3 1.5 C 0 km/h
1514 01-02-2010 14:58:03 1.4 C 3.68 g/m*3 1.4 C 0 km/h
1515 01-02-2010 15:10:01 1.3 C 3.71 g/m*3 1.3 C 0 km/h
1516 01-02-2010 15:22:02 1.8 C 3.73 g/m*3 1.8 C 0 km/h
1517 01-02-2010 15:34:02 1.5 C 3.71 g/m*3 1.5 C 0 km/h
1518 01-02-2010 15:46:02 1.1 C 3.81 g/m*3 1.1 C 0 km/h
1519 01-02-2010 15:58:02 0.9 C 3.92 g/m*3 0.9 C 0 km/h
1520 01-02-2010 16:10:01 0.7 C 4.02 g/m*3 0.7 C 0 km/h
1521 01-02-2010 16:22:02 0.7 C 4.12 g/m*3 0.7 C 0 km/h
1522 01-02-2010 16:34:01 0.7 C 4.12 g/m*3 0.7 C 0 km/h
1523 01-02-2010 16:46:03 0.8 C 4.1 g/m*3 0.8 C 0 km/h
1524 01-02-2010 16:58:03 1 C 4 g/m*3 1 C 0 km/h
1525 01-02-2010 17:10:03 0.8 C 4.04 g/m*3 0.8 C 0 km/h
Sensor: Nr:Datum:Temp:Abs-Feuchte:Windchill:Wind:
Aussen-T/F 1526 01-02-2010 17:22:02 0.4 C 4.13 g/m*3 0.4 C 0 km/h
1527 01-02-2010 17:34:03 0.4 C 4.28 g/m*3 0.4 C 0 km/h
1528 01-02-2010 17:46:01 0.4 C 4.33 g/m*3 0.4 C 0 km/h
1529 01-02-2010 17:58:01 0.3 C 4.3 g/m*3 0.3 C 0 km/h
1530 01-02-2010 18:10:02 0.2 C 4.32 g/m*3 0.2 C 0 km/h
1531 01-02-2010 18:22:02 0.2 C 4.37 g/m*3 0.2 C 0 km/h
1532 01-02-2010 18:34:02 0.2 C 4.42 g/m*3 0.2 C 0 km/h
1533 01-02-2010 18:46:02 0.2 C 4.47 g/m*3 0.2 C 0 km/h
1534 01-02-2010 18:58:02 0.2 C 4.52 g/m*3 0.2 C 0 km/h
1535 01-02-2010 19:10:02 0.3 C 4.55 g/m*3 0.3 C 0 km/h
1536 01-02-2010 19:22:02 0.3 C 4.55 g/m*3 0.3 C 0 km/h
1537 01-02-2010 19:34:01 0.3 C 4.5 g/m*3 0.3 C 0 km/h
1538 01-02-2010 19:46:02 0.3 C 4.5 g/m*3 0.3 C 0 km/h
1539 01-02-2010 19:58:02 0.5 C 4.56 g/m*3 0.5 C 0 km/h
1540 01-02-2010 20:10:01 0.5 C 4.51 g/m*3 0.5 C 0 km/h
1541 01-02-2010 20:22:02 0.5 C 4.46 g/m*3 0.5 C 0 km/h
1542 01-02-2010 20:34:01 0.5 C 4.41 g/m*3 0.5 C 0 km/h
1543 01-02-2010 20:46:02 0.3 C 4.35 g/m*3 0.3 C 0 km/h
1544 01-02-2010 20:58:02 0.3 C 4.35 g/m*3 0.3 C 0 km/h
1545 01-02-2010 21:10:01 0.2 C 4.32 g/m*3 0.2 C 0 km/h
1546 01-02-2010 21:22:02 0.3 C 4.35 g/m*3 0.3 C 0 km/h
1547 01-02-2010 21:34:01 0.3 C 4.35 g/m*3 0.3 C 0 km/h
1548 01-02-2010 21:46:03 0.2 C 4.32 g/m*3 0.2 C 0 km/h
1549 01-02-2010 21:58:03 0.2 C 4.32 g/m*3 0.2 C 0 km/h
1550 01-02-2010 22:10:02 0.2 C 4.37 g/m*3 0.2 C 0 km/h
Sensor: Nr:Datum:Temp:Abs-Feuchte:Windchill:Wind:
Aussen-T/F 1551 01-02-2010 22:23:02 0.2 C 4.37 g/m*3 0.2 C 0 km/h
1552 01-02-2010 22:35:02 0.5 C 4.51 g/m*3 0.5 C 0 km/h
1553 01-02-2010 22:47:02 0.5 C 4.46 g/m*3 0.5 C 0 km/h
1554 01-02-2010 22:59:02 0.5 C 4.46 g/m*3 0.5 C 0 km/h
1555 01-02-2010 23:11:02 0.4 C 4.33 g/m*3 0.4 C 0 km/h
1556 01-02-2010 23:23:03 0.4 C 4.28 g/m*3 0.4 C 0 km/h
1557 01-02-2010 23:35:03 0.3 C 4.25 g/m*3 0.3 C 0 km/h
1558 01-02-2010 23:47:03 0.3 C 4.3 g/m*3 0.3 C 0 km/h
1559 01-02-2010 23:59:03 0.3 C 4.3 g/m*3 0.3 C 0 km/h
1560 02-02-2010 00:11:03 0.3 C 4.11 g/m*3 0.3 C 0 km/h
1561 02-02-2010 00:23:03 0.4 C 3.84 g/m*3 0.4 C 0 km/h
1562 02-02-2010 00:35:03 0.2 C 3.68 g/m*3 0.2 C 0 km/h
1563 02-02-2010 00:47:03 0.1 C 3.66 g/m*3 0.1 C 0 km/h
1564 02-02-2010 00:59:03 -0.1 C 3.56 g/m*3 -0.1 C 0 km/h
1565 02-02-2010 01:11:03 -0.3 C 3.51 g/m*3 -0.3 C 0 km/h
1566 02-02-2010 01:23:03 -0.5 C 3.51 g/m*3 -0.5 C 0 km/h
1567 02-02-2010 01:35:03 -0.8 C 3.48 g/m*3 -0.8 C 0 km/h
1568 02-02-2010 01:47:03 -0.7 C 3.6 g/m*3 -0.7 C 0 km/h
1569 02-02-2010 01:59:03 -0.6 C 3.63 g/m*3 -0.6 C 0 km/h
1570 02-02-2010 02:11:03 -0.6 C 3.53 g/m*3 -0.6 C 0 km/h
1571 02-02-2010 02:23:03 -0.7 C 3.46 g/m*3 -0.7 C 0 km/h
1572 02-02-2010 02:35:03 -1 C 3.3 g/m*3 -1 C 0 km/h
1573 02-02-2010 02:47:03 -1.6 C 3.25 g/m*3 -1.6 C 0 km/h
1574 02-02-2010 02:59:03 -2.1 C 3.22 g/m*3 -2.1 C 0 km/h
1575 02-02-2010 03:11:03 -2.5 C 3.17 g/m*3 -2.5 C 0 km/h
Sensor: Nr:Datum:Temp:Abs-Feuchte:Windchill:Wind:
Aussen-T/F 1576 02-02-2010 03:23:03 -2.8 C 3.15 g/m*3 -2.8 C 0 km/h
1577 02-02-2010 03:35:03 -3 C 3.14 g/m*3 -3 C 0 km/h
1578 02-02-2010 03:47:04 -3 C 3.18 g/m*3 -3 C 0 km/h
1579 02-02-2010 03:59:04 -3 C 3.22 g/m*3 -3 C 0 km/h
1580 02-02-2010 04:11:04 -3.1 C 3.24 g/m*3 -3.1 C 0 km/h
1581 02-02-2010 04:23:04 -3 C 3.3 g/m*3 -3 C 0 km/h
1582 02-02-2010 04:35:04 -2.9 C 3.36 g/m*3 -2.9 C 0 km/h
1583 02-02-2010 04:47:04 -2.7 C 3.45 g/m*3 -2.7 C 0 km/h
1584 02-02-2010 04:59:04 -2.6 C 3.48 g/m*3 -2.6 C 0 km/h
1585 02-02-2010 05:11:04 -2.4 C 3.57 g/m*3 -2.4 C 0 km/h
1586 02-02-2010 05:23:04 -2.2 C 3.62 g/m*3 -2.2 C 0 km/h
1587 02-02-2010 05:35:04 -2.3 C 3.59 g/m*3 -2.3 C 0 km/h
1588 02-02-2010 05:47:04 -2.4 C 3.52 g/m*3 -2.4 C 0 km/h
1589 02-02-2010 05:59:04 -2.4 C 3.52 g/m*3 -2.4 C 0 km/h
1590 02-02-2010 06:11:04 -2.3 C 3.55 g/m*3 -2.3 C 0 km/h
1591 02-02-2010 06:23:04 -1.7 C 3.75 g/m*3 -1.7 C 0 km/h
1592 02-02-2010 06:35:04 -1.2 C 3.74 g/m*3 -1.2 C 0 km/h
1593 02-02-2010 06:47:04 -1.2 C 3.66 g/m*3 -1.2 C 0 km/h
1594 02-02-2010 06:59:04 -1.3 C 3.59 g/m*3 -1.3 C 0 km/h
1595 02-02-2010 07:11:02 -1.3 C 3.59 g/m*3 -1.3 C 0 km/h
1596 02-02-2010 07:23:02 -1.6 C 3.47 g/m*3 -1.6 C 0 km/h
1597 02-02-2010 07:35:02 -1.8 C 3.46 g/m*3 -1.8 C 0 km/h
1598 02-02-2010 07:47:02 -1.7 C 3.49 g/m*3 -1.7 C 0 km/h
1599 02-02-2010 07:59:02 -1.5 C 3.49 g/m*3 -1.5 C 0 km/h
1600 02-02-2010 08:11:03 -1.4 C 3.52 g/m*3 -1.4 C 0 km/h
Sensor: Nr:Datum:Temp:Abs-Feuchte:Windchill:Wind:
Aussen-T/F 1601 02-02-2010 08:23:02 -1.3 C 3.5 g/m*3 -1.3 C 0 km/h
1602 02-02-2010 08:35:02 -1.2 C 3.48 g/m*3 -1.2 C 0 km/h
1603 02-02-2010 08:47:02 -1.1 C 3.5 g/m*3 -1.1 C 0 km/h
1604 02-02-2010 08:59:02 -0.8 C 3.53 g/m*3 -0.8 C 0 km/h
1605 02-02-2010 09:11:02 -0.7 C 3.55 g/m*3 -0.7 C 0 km/h
1606 02-02-2010 09:23:02 -0.6 C 3.63 g/m*3 -0.6 C 0 km/h
1607 02-02-2010 09:35:02 -0.3 C 3.7 g/m*3 -0.3 C 0 km/h
1608 02-02-2010 09:47:02 -0.1 C 3.75 g/m*3 -0.1 C 0 km/h
1609 02-02-2010 09:59:02 0.1 C 3.81 g/m*3 0.1 C 0 km/h
1610 02-02-2010 10:11:02 0.4 C 3.88 g/m*3 0.4 C 0 km/h
1611 02-02-2010 10:23:02 0.6 C 3.89 g/m*3 0.6 C 0 km/h
1612 02-02-2010 10:35:01 0.8 C 3.89 g/m*3 0.8 C 0 km/h
1613 02-02-2010 10:47:02 1 C 3.89 g/m*3 1 C 0 km/h
1614 02-02-2010 10:59:02 1.1 C 3.92 g/m*3 1.1 C 0 km/h
1615 02-02-2010 11:11:01 1.3 C 3.92 g/m*3 1.3 C 0 km/h
1616 02-02-2010 11:23:02 1.5 C 3.97 g/m*3 1.5 C 0 km/h
1617 02-02-2010 11:35:01 1.5 C 3.97 g/m*3 1.5 C 0 km/h
1618 02-02-2010 11:47:03 1.5 C 3.97 g/m*3 1.5 C 0 km/h
1619 02-02-2010 11:59:03 1.6 C 4.06 g/m*3 1.6 C 0 km/h
1620 02-02-2010 12:11:02 1.8 C 4.11 g/m*3 1.8 C 0 km/h
1621 02-02-2010 12:23:03 1.9 C 4.14 g/m*3 1.9 C 0 km/h
1622 02-02-2010 12:35:02 2 C 4.11 g/m*3 2 C 0 km/h
1623 02-02-2010 12:47:02 2.1 C 4.14 g/m*3 2.1 C 0 km/h
1624 02-02-2010 12:59:02 2.2 C 4.22 g/m*3 2.2 C 0 km/h
1625 02-02-2010 13:11:02 2.2 C 4.22 g/m*3 2.2 C 0 km/h
Sensor: Nr:Datum:Temp:Abs-Feuchte:Windchill:Wind:
Aussen-T/F 1626 02-02-2010 13:23:02 2.4 C 4.23 g/m*3 2.4 C 0 km/h
1627 02-02-2010 13:35:02 2.6 C 4.22 g/m*3 2.6 C 0 km/h
1628 02-02-2010 13:47:02 2.6 C 4.17 g/m*3 2.6 C 0 km/h
1629 02-02-2010 13:59:02 2.8 C 4.22 g/m*3 2.8 C 0 km/h
1630 02-02-2010 14:11:02 2.8 C 4.22 g/m*3 2.8 C 0 km/h
1631 02-02-2010 14:23:02 2.9 C 4.25 g/m*3 2.9 C 0 km/h
1632 02-02-2010 14:35:01 2.9 C 4.25 g/m*3 2.9 C 0 km/h
1633 02-02-2010 14:47:02 2.9 C 4.19 g/m*3 2.9 C 0 km/h
1634 02-02-2010 14:59:02 2.7 C 4.2 g/m*3 2.7 C 0 km/h
1635 02-02-2010 15:11:01 2.7 C 4.31 g/m*3 2.7 C 0 km/h
1636 02-02-2010 15:23:02 2.7 C 4.37 g/m*3 2.7 C 0 km/h
1637 02-02-2010 15:35:01 2.7 C 4.37 g/m*3 2.7 C 0 km/h
1638 02-02-2010 15:47:03 2.6 C 4.4 g/m*3 2.6 C 0 km/h
1639 02-02-2010 15:59:03 2.6 C 4.4 g/m*3 2.6 C 0 km/h
1640 02-02-2010 16:11:02 2.5 C 4.37 g/m*3 2.5 C 0 km/h
1641 02-02-2010 16:23:03 2.4 C 4.4 g/m*3 2.4 C 0 km/h
1642 02-02-2010 16:35:02 2.4 C 4.45 g/m*3 2.4 C 0 km/h
1643 02-02-2010 16:47:03 2.3 C 4.48 g/m*3 2.3 C 0 km/h
1644 02-02-2010 16:59:03 2.2 C 4.45 g/m*3 2.2 C 0 km/h
1645 02-02-2010 17:11:02 2.1 C 4.48 g/m*3 2.1 C 0 km/h
1646 02-02-2010 17:23:02 2.1 C 4.48 g/m*3 2.1 C 0 km/h
1647 02-02-2010 17:35:02 2.1 C 4.48 g/m*3 2.1 C 0 km/h
1648 02-02-2010 17:47:02 2.2 C 4.45 g/m*3 2.2 C 0 km/h
1649 02-02-2010 17:59:02 2.2 C 4.45 g/m*3 2.2 C 0 km/h
1650 02-02-2010 18:11:02 2.3 C 4.48 g/m*3 2.3 C 0 km/h
Sensor: Nr:Datum:Temp:Abs-Feuchte:Windchill:Wind:
Aussen-T/F 1651 02-02-2010 18:23:02 2.2 C 4.45 g/m*3 2.2 C 0 km/h
1652 02-02-2010 18:35:01 2.2 C 4.45 g/m*3 2.2 C 0 km/h
1653 02-02-2010 18:47:02 2.2 C 4.39 g/m*3 2.2 C 0 km/h
1654 02-02-2010 18:59:02 2.2 C 4.39 g/m*3 2.2 C 0 km/h
1655 02-02-2010 19:11:01 2.3 C 4.42 g/m*3 2.3 C 0 km/h
1656 02-02-2010 19:23:02 2.2 C 4.45 g/m*3 2.2 C 0 km/h
1657 02-02-2010 19:35:01 2.1 C 4.48 g/m*3 2.1 C 0 km/h
1658 02-02-2010 19:47:02 2.1 C 4.53 g/m*3 2.1 C 0 km/h
1659 02-02-2010 19:59:02 2.2 C 4.56 g/m*3 2.2 C 0 km/h
1660 02-02-2010 20:11:01 2.2 C 4.56 g/m*3 2.2 C 0 km/h
1661 02-02-2010 20:23:02 2.4 C 4.62 g/m*3 2.4 C 0 km/h
1662 02-02-2010 20:35:01 2.5 C 4.6 g/m*3 2.5 C 0 km/h
1663 02-02-2010 20:47:02 2.4 C 4.57 g/m*3 2.4 C 0 km/h
1664 02-02-2010 20:59:02 2.5 C 4.6 g/m*3 2.5 C 0 km/h
1665 02-02-2010 21:11:02 2.6 C 4.57 g/m*3 2.6 C 0 km/h
1666 02-02-2010 21:23:02 2.6 C 4.57 g/m*3 2.6 C 0 km/h
1667 02-02-2010 21:35:02 2.6 C 4.57 g/m*3 2.6 C 0 km/h
1668 02-02-2010 21:48:03 2.6 C 4.63 g/m*3 2.6 C 0 km/h
1669 02-02-2010 22:00:03 2.7 C 4.66 g/m*3 2.7 C 0 km/h
1670 02-02-2010 22:12:03 2.6 C 4.69 g/m*3 2.6 C 0 km/h
1671 02-02-2010 22:24:03 2.5 C 4.77 g/m*3 2.5 C 0 km/h
1672 02-02-2010 22:36:03 2.4 C 4.8 g/m*3 2.4 C 0 km/h
1673 02-02-2010 22:48:03 2.4 C 4.8 g/m*3 2.4 C 0 km/h
1674 02-02-2010 23:00:03 2.5 C 4.83 g/m*3 2.5 C 0 km/h
1675 02-02-2010 23:12:03 2.7 C 4.84 g/m*3 2.7 C 0 km/h
Sensor: Nr:Datum:Temp:Abs-Feuchte:Windchill:Wind:
Aussen-T/F 1676 02-02-2010 23:24:03 2.7 C 4.78 g/m*3 2.7 C 0 km/h
1677 02-02-2010 23:36:03 2.8 C 4.81 g/m*3 2.8 C 0 km/h
1678 02-02-2010 23:48:04 2.9 C 4.84 g/m*3 2.9 C 0 km/h
1679 03-02-2010 00:00:04 2.8 C 4.81 g/m*3 2.8 C 0 km/h
1680 03-02-2010 00:12:04 3.3 C 4.91 g/m*3 3.3 C 0 km/h
1681 03-02-2010 00:24:04 3.6 C 4.89 g/m*3 3.6 C 0 km/h
1682 03-02-2010 00:36:04 3.7 C 4.92 g/m*3 3.7 C 0 km/h
1683 03-02-2010 00:48:04 4 C 4.96 g/m*3 4 C 0 km/h
1684 03-02-2010 01:00:04 4 C 4.9 g/m*3 4 C 0 km/h
1685 03-02-2010 01:12:04 4 C 4.9 g/m*3 4 C 0 km/h
1686 03-02-2010 01:24:04 4 C 4.96 g/m*3 4 C 0 km/h
1687 03-02-2010 01:36:04 4.3 C 5.06 g/m*3 4.3 C 0 km/h
1688 03-02-2010 01:48:04 4.4 C 5.09 g/m*3 4.4 C 0 km/h
1689 03-02-2010 02:00:04 4.6 C 5.16 g/m*3 4.6 C 0 km/h
1690 03-02-2010 02:12:04 4.8 C 5.16 g/m*3 4.8 C 0 km/h
1691 03-02-2010 02:24:04 4.7 C 5.13 g/m*3 4.7 C 0 km/h
1692 03-02-2010 02:36:04 2.9 C 4.78 g/m*3 2.9 C 0 km/h
1693 03-02-2010 02:48:04 2.4 C 4.8 g/m*3 2.4 C 0 km/h
1694 03-02-2010 03:00:04 2.1 C 4.81 g/m*3 2.1 C 0 km/h
1695 03-02-2010 03:12:04 1.9 C 4.86 g/m*3 1.9 C 0 km/h
1696 03-02-2010 03:24:04 1.7 C 4.85 g/m*3 1.7 C 0 km/h
1697 03-02-2010 03:36:04 1.6 C 4.87 g/m*3 1.6 C 0 km/h
1698 03-02-2010 03:48:04 1.6 C 4.87 g/m*3 1.6 C 0 km/h
1699 03-02-2010 04:00:05 1.5 C 4.89 g/m*3 1.5 C 0 km/h
1700 03-02-2010 04:12:05 1.2 C 4.79 g/m*3 1.2 C 0 km/h
Sensor: Nr:Datum:Temp:Abs-Feuchte:Windchill:Wind:
Aussen-T/F 1701 03-02-2010 04:24:05 0.9 C 4.69 g/m*3 0.9 C 0 km/h
1702 03-02-2010 04:36:05 0.8 C 4.66 g/m*3 0.8 C 0 km/h
1703 03-02-2010 04:48:05 1 C 4.72 g/m*3 1 C 0 km/h
1704 03-02-2010 05:00:05 1.1 C 4.81 g/m*3 1.1 C 0 km/h
1705 03-02-2010 05:12:05 1.1 C 4.81 g/m*3 1.1 C 0 km/h
1706 03-02-2010 05:24:05 1.1 C 4.86 g/m*3 1.1 C 0 km/h
1707 03-02-2010 05:36:05 1.1 C 4.86 g/m*3 1.1 C 0 km/h
1708 03-02-2010 05:48:05 1.2 C 4.89 g/m*3 1.2 C 0 km/h
1709 03-02-2010 06:00:05 1.1 C 4.91 g/m*3 1.1 C 0 km/h
1710 03-02-2010 06:12:05 1.1 C 4.91 g/m*3 1.1 C 0 km/h
1711 03-02-2010 06:24:05 1.1 C 4.91 g/m*3 1.1 C 0 km/h
1712 03-02-2010 06:36:05 1 C 4.88 g/m*3 1 C 0 km/h
1713 03-02-2010 06:48:05 1.1 C 4.91 g/m*3 1.1 C 0 km/h
1714 03-02-2010 07:00:05 1 C 4.88 g/m*3 1 C 0 km/h
1715 03-02-2010 07:12:03 0.9 C 4.9 g/m*3 0.9 C 0 km/h
1716 03-02-2010 07:24:02 1 C 4.88 g/m*3 1 C 0 km/h
1717 03-02-2010 07:36:03 1 C 4.93 g/m*3 1 C 0 km/h
1718 03-02-2010 07:48:02 1 C 4.93 g/m*3 1 C 0 km/h
1719 03-02-2010 08:00:02 1 C 4.93 g/m*3 1 C 0 km/h
1720 03-02-2010 08:12:01 1 C 4.93 g/m*3 1 C 0 km/h
1721 03-02-2010 08:24:02 1 C 4.93 g/m*3 1 C 0 km/h
1722 03-02-2010 08:36:02 1.1 C 4.96 g/m*3 1.1 C 0 km/h
1723 03-02-2010 08:48:02 1.2 C 5 g/m*3 1.2 C 0 km/h
1724 03-02-2010 09:00:02 1.2 C 5 g/m*3 1.2 C 0 km/h
1725 03-02-2010 09:12:03 1.3 C 5.03 g/m*3 1.3 C 0 km/h
Sensor: Nr:Datum:Temp:Abs-Feuchte:Windchill:Wind:
Aussen-T/F 1726 03-02-2010 09:24:02 1.5 C 5.1 g/m*3 1.5 C 0 km/h
1727 03-02-2010 09:36:02 1.5 C 5.1 g/m*3 1.5 C 0 km/h
1728 03-02-2010 09:48:02 1.7 C 5.17 g/m*3 1.7 C 0 km/h
1729 03-02-2010 10:00:02 2 C 5.22 g/m*3 2 C 0 km/h
1730 03-02-2010 10:12:01 2.2 C 5.29 g/m*3 2.2 C 0 km/h
1731 03-02-2010 10:24:02 2.3 C 5.27 g/m*3 2.3 C 0 km/h
1732 03-02-2010 10:36:02 2.7 C 5.36 g/m*3 2.7 C 0 km/h
1733 03-02-2010 10:48:02 3.1 C 5.45 g/m*3 3.1 C 0 km/h
1734 03-02-2010 11:00:02 3.1 C 5.33 g/m*3 3.1 C 0 km/h
1735 03-02-2010 11:12:02 3 C 5.11 g/m*3 3 C 0 km/h
1736 03-02-2010 11:24:02 3.3 C 5.22 g/m*3 3.3 C 0 km/h
1737 03-02-2010 11:36:02 3.3 C 5.1 g/m*3 3.3 C 0 km/h
1738 03-02-2010 11:48:02 3.1 C 4.97 g/m*3 3.1 C 0 km/h
1739 03-02-2010 12:00:02 3.2 C 5.06 g/m*3 3.2 C 0 km/h
1740 03-02-2010 12:12:01 3.1 C 5.03 g/m*3 3.1 C 0 km/h
1741 03-02-2010 12:24:02 3 C 5.05 g/m*3 3 C 0 km/h
1742 03-02-2010 12:36:02 3 C 5.11 g/m*3 3 C 0 km/h
1743 03-02-2010 12:48:02 3.1 C 5.15 g/m*3 3.1 C 0 km/h
1744 03-02-2010 13:00:02 3.1 C 5.21 g/m*3 3.1 C 0 km/h
1745 03-02-2010 13:12:02 3.1 C 5.21 g/m*3 3.1 C 0 km/h
1746 03-02-2010 13:24:02 3.3 C 5.28 g/m*3 3.3 C 0 km/h
1747 03-02-2010 13:36:02 3.2 C 5.24 g/m*3 3.2 C 0 km/h
1748 03-02-2010 13:48:02 3.3 C 5.28 g/m*3 3.3 C 0 km/h
1749 03-02-2010 14:00:02 3.3 C 5.28 g/m*3 3.3 C 0 km/h
1750 03-02-2010 14:12:02 3.3 C 5.28 g/m*3 3.3 C 0 km/h
Sensor: Nr:Datum:Temp:Abs-Feuchte:Windchill:Wind:
Aussen-T/F 1751 03-02-2010 14:24:02 3.3 C 5.28 g/m*3 3.3 C 0 km/h
1752 03-02-2010 14:36:02 3.3 C 5.28 g/m*3 3.3 C 0 km/h
1753 03-02-2010 14:48:02 3.2 C 5.24 g/m*3 3.2 C 0 km/h
1754 03-02-2010 15:00:02 3.2 C 5.24 g/m*3 3.2 C 0 km/h
1755 03-02-2010 15:12:02 3.1 C 5.27 g/m*3 3.1 C 0 km/h
1756 03-02-2010 15:24:02 2.9 C 5.2 g/m*3 2.9 C 0 km/h
1757 03-02-2010 15:36:02 3 C 5.23 g/m*3 3 C 0 km/h
1758 03-02-2010 15:48:02 2.9 C 5.26 g/m*3 2.9 C 0 km/h
1759 03-02-2010 16:00:02 2.8 C 5.22 g/m*3 2.8 C 0 km/h
1760 03-02-2010 16:12:02 2.6 C 5.15 g/m*3 2.6 C 0 km/h
1761 03-02-2010 16:24:02 2.6 C 5.15 g/m*3 2.6 C 0 km/h
1762 03-02-2010 16:36:02 2.5 C 5.12 g/m*3 2.5 C 0 km/h
1763 03-02-2010 16:48:02 2.4 C 5.08 g/m*3 2.4 C 0 km/h
1764 03-02-2010 17:00:02 2.4 C 5.14 g/m*3 2.4 C 0 km/h
1765 03-02-2010 17:12:02 2.3 C 5.1 g/m*3 2.3 C 0 km/h
1766 03-02-2010 17:24:02 2.2 C 5.07 g/m*3 2.2 C 0 km/h
1767 03-02-2010 17:36:02 2.1 C 5.04 g/m*3 2.1 C 0 km/h
1768 03-02-2010 17:48:01 1.9 C 5.02 g/m*3 1.9 C 0 km/h
1769 03-02-2010 18:00:01 1.9 C 5.02 g/m*3 1.9 C 0 km/h
1770 03-02-2010 18:12:02 1.9 C 5.02 g/m*3 1.9 C 0 km/h
1771 03-02-2010 18:24:01 1.9 C 5.08 g/m*3 1.9 C 0 km/h
1772 03-02-2010 18:36:01 1.9 C 5.08 g/m*3 1.9 C 0 km/h
1773 03-02-2010 18:48:01 1.8 C 5.04 g/m*3 1.8 C 0 km/h
1774 03-02-2010 19:00:01 1.8 C 5.04 g/m*3 1.8 C 0 km/h
1775 03-02-2010 19:12:02 1.7 C 5.01 g/m*3 1.7 C 0 km/h
Sensor: Nr:Datum:Temp:Abs-Feuchte:Windchill:Wind:
Aussen-T/F 1776 03-02-2010 19:20:01 1.7 C 5.01 g/m*3 1.7 C 0 km/h
1777 03-02-2010 19:45:01 1.8 C 5.04 g/m*3 1.8 C 0 km/h
1778 03-02-2010 20:10:02 1.9 C 5.13 g/m*3 1.9 C 0 km/h
1779 03-02-2010 20:35:01 1.8 C 5.1 g/m*3 1.8 C 0 km/h
1780 03-02-2010 21:00:01 1.7 C 5.06 g/m*3 1.7 C 0 km/h
1781 03-02-2010 21:25:01 1.7 C 5.06 g/m*3 1.7 C 0 km/h
1782 03-02-2010 21:50:02 1.8 C 5.1 g/m*3 1.8 C 0 km/h
1783 03-02-2010 22:15:03 1.8 C 5.1 g/m*3 1.8 C 0 km/h
1784 03-02-2010 22:40:02 1.8 C 5.1 g/m*3 1.8 C 0 km/h
1785 03-02-2010 23:05:02 1.8 C 5.1 g/m*3 1.8 C 0 km/h
1786 03-02-2010 23:30:02 1.8 C 5.1 g/m*3 1.8 C 0 km/h
1787 03-02-2010 23:55:02 2 C 5.17 g/m*3 2 C 0 km/h
1788 04-02-2010 00:20:02 2 C 5.17 g/m*3 2 C 0 km/h
1789 04-02-2010 00:45:02 2 C 5.17 g/m*3 2 C 0 km/h
1790 04-02-2010 01:10:02 2 C 5.17 g/m*3 2 C 0 km/h
1791 04-02-2010 01:35:02 2 C 5.22 g/m*3 2 C 0 km/h
1792 04-02-2010 02:00:02 2.1 C 5.26 g/m*3 2.1 C 0 km/h
1793 04-02-2010 02:25:03 2.2 C 5.29 g/m*3 2.2 C 0 km/h
1794 04-02-2010 02:51:03 2.1 C 5.26 g/m*3 2.1 C 0 km/h
1795 04-02-2010 03:16:04 2.2 C 5.29 g/m*3 2.2 C 0 km/h
1796 04-02-2010 03:41:01 2.3 C 5.33 g/m*3 2.3 C 0 km/h
1797 04-02-2010 04:06:02 2.3 C 5.33 g/m*3 2.3 C 0 km/h
1798 04-02-2010 04:31:02 2.3 C 5.33 g/m*3 2.3 C 0 km/h
1799 04-02-2010 04:56:01 2.4 C 5.37 g/m*3 2.4 C 0 km/h
1800 04-02-2010 05:21:02 2.5 C 5.46 g/m*3 2.5 C 0 km/h
Sensor: Nr:Datum:Temp:Abs-Feuchte:Windchill:Wind:
Aussen-T/F 1801 04-02-2010 05:46:02 2.7 C 5.54 g/m*3 2.7 C 0 km/h
1802 04-02-2010 06:11:01 3 C 5.65 g/m*3 3 C 0 km/h
1803 04-02-2010 06:51:02 3.6 C 5.88 g/m*3 3.6 C 0 km/h
1804 04-02-2010 07:16:02 3.4 C 5.8 g/m*3 3.4 C 0 km/h
1805 04-02-2010 07:41:02 3.2 C 5.72 g/m*3 3.2 C 0 km/h
1806 04-02-2010 08:06:02 3.3 C 5.76 g/m*3 3.3 C 0 km/h
1807 04-02-2010 08:31:02 3.2 C 5.72 g/m*3 3.2 C 0 km/h
1808 04-02-2010 08:56:02 3.3 C 5.76 g/m*3 3.3 C 0 km/h
1809 04-02-2010 09:21:02 3.7 C 5.92 g/m*3 3.7 C 0 km/h
1810 04-02-2010 09:46:02 4.5 C 6.24 g/m*3 4.5 C 0 km/h
1811 04-02-2010 10:11:02 4.7 C 6.19 g/m*3 4.7 C 0 km/h
1812 04-02-2010 10:36:02 5.2 C 6.13 g/m*3 5.2 C 0 km/h
1813 04-02-2010 11:01:02 5.7 C 6.19 g/m*3 5.7 C 0 km/h
1814 04-02-2010 11:26:02 6.3 C 6.07 g/m*3 6.3 C 0 km/h
1815 04-02-2010 11:51:02 6.9 C 6 g/m*3 6.9 C 0 km/h
1816 04-02-2010 12:16:02 7.1 C 5.85 g/m*3 7.1 C 0 km/h
1817 04-02-2010 12:41:02 7.5 C 5.92 g/m*3 7.5 C 0 km/h
1818 04-02-2010 13:06:02 8 C 5.95 g/m*3 8 C 0 km/h
1819 04-02-2010 13:31:02 8.5 C 5.98 g/m*3 8.5 C 0 km/h
1820 04-02-2010 13:56:02 8.7 C 5.88 g/m*3 8.7 C 0 km/h
1821 04-02-2010 14:21:02 8.5 C 5.81 g/m*3 8.5 C 0 km/h
1822 04-02-2010 14:46:03 8.2 C 5.61 g/m*3 8.2 C 0 km/h
1823 04-02-2010 15:11:03 8.8 C 5.92 g/m*3 8.8 C 0 km/h
1824 04-02-2010 15:36:03 8.8 C 5.74 g/m*3 8.8 C 0 km/h
1825 04-02-2010 16:01:03 7.8 C 5.55 g/m*3 7.8 C 0 km/h
Sensor: Nr:Datum:Temp:Abs-Feuchte:Windchill:Wind:
Aussen-T/F 1826 04-02-2010 16:26:03 7.5 C 5.52 g/m*3 7.5 C 0 km/h
1827 04-02-2010 16:51:03 6.2 C 5.37 g/m*3 6.2 C 0 km/h
1828 04-02-2010 17:16:03 5.7 C 5.48 g/m*3 5.7 C 0 km/h
1829 04-02-2010 17:41:03 5 C 5.37 g/m*3 5 C 0 km/h
1830 04-02-2010 18:06:03 4.4 C 5.29 g/m*3 4.4 C 0 km/h
1831 04-02-2010 18:31:03 4 C 5.28 g/m*3 4 C 0 km/h
1832 04-02-2010 18:56:03 3.6 C 5.2 g/m*3 3.6 C 0 km/h
1833 04-02-2010 19:21:03 3.3 C 5.16 g/m*3 3.3 C 0 km/h
1834 04-02-2010 19:46:03 3 C 5.11 g/m*3 3 C 0 km/h
1835 04-02-2010 20:11:03 2.7 C 5.13 g/m*3 2.7 C 0 km/h
1836 04-02-2010 20:36:03 2.5 C 5.12 g/m*3 2.5 C 0 km/h
1837 04-02-2010 21:01:03 2.5 C 5.17 g/m*3 2.5 C 0 km/h
1838 04-02-2010 21:26:03 2.6 C 5.27 g/m*3 2.6 C 0 km/h
1839 04-02-2010 21:51:03 2.1 C 5.04 g/m*3 2.1 C 0 km/h
1840 04-02-2010 22:16:03 2.2 C 5.18 g/m*3 2.2 C 0 km/h
1841 04-02-2010 22:41:03 1.8 C 5.04 g/m*3 1.8 C 0 km/h
1842 04-02-2010 23:06:03 1.8 C 5.1 g/m*3 1.8 C 0 km/h
1843 04-02-2010 23:31:03 1.7 C 5.06 g/m*3 1.7 C 0 km/h
1844 04-02-2010 23:56:04 2.1 C 5.2 g/m*3 2.1 C 0 km/h
1845 05-02-2010 00:21:04 2.6 C 5.44 g/m*3 2.6 C 0 km/h
1846 05-02-2010 00:46:04 2.2 C 5.24 g/m*3 2.2 C 0 km/h
1847 05-02-2010 01:11:04 2 C 5.17 g/m*3 2 C 0 km/h
1848 05-02-2010 01:36:04 1.7 C 5.12 g/m*3 1.7 C 0 km/h
1849 05-02-2010 02:01:04 2.2 C 5.24 g/m*3 2.2 C 0 km/h
1850 05-02-2010 02:26:04 2.6 C 5.38 g/m*3 2.6 C 0 km/h
Sensor: Nr:Datum:Temp:Abs-Feuchte:Windchill:Wind:
Aussen-T/F 1851 05-02-2010 02:51:04 2.7 C 5.3 g/m*3 2.7 C 0 km/h
1852 05-02-2010 03:16:04 2.7 C 5.19 g/m*3 2.7 C 0 km/h
1853 05-02-2010 03:41:04 2.8 C 5.04 g/m*3 2.8 C 0 km/h
1854 05-02-2010 04:06:04 2.8 C 5.04 g/m*3 2.8 C 0 km/h
1855 05-02-2010 04:31:04 2.8 C 4.93 g/m*3 2.8 C 0 km/h
1856 05-02-2010 04:56:04 2.8 C 4.93 g/m*3 2.8 C 0 km/h
1857 05-02-2010 05:21:04 2.7 C 4.89 g/m*3 2.7 C 0 km/h
1858 05-02-2010 05:46:04 2.7 C 4.84 g/m*3 2.7 C 0 km/h
1859 05-02-2010 06:11:04 2.8 C 4.87 g/m*3 2.8 C 0 km/h
1860 05-02-2010 06:36:04 2.7 C 4.84 g/m*3 2.7 C 0 km/h
1861 05-02-2010 07:01:04 2.4 C 4.74 g/m*3 2.4 C 0 km/h
1862 05-02-2010 07:26:04 2.5 C 4.89 g/m*3 2.5 C 0 km/h
1863 05-02-2010 07:51:04 2.8 C 4.99 g/m*3 2.8 C 0 km/h
1864 05-02-2010 08:16:04 3.2 C 4.88 g/m*3 3.2 C 0 km/h
1865 05-02-2010 08:41:05 3.4 C 4.89 g/m*3 3.4 C 0 km/h
1866 05-02-2010 09:06:05 3.6 C 4.89 g/m*3 3.6 C 0 km/h
1867 05-02-2010 09:31:05 3.8 C 4.83 g/m*3 3.8 C 0 km/h
1868 05-02-2010 09:56:05 4.1 C 4.67 g/m*3 4.1 C 0 km/h
1869 05-02-2010 10:21:05 4.1 C 4.54 g/m*3 4.1 C 0 km/h
1870 05-02-2010 10:46:05 4 C 4.51 g/m*3 4 C 0 km/h
1871 05-02-2010 11:11:05 4.3 C 4.54 g/m*3 4.3 C 0 km/h
1872 05-02-2010 11:36:05 4.3 C 4.41 g/m*3 4.3 C 0 km/h
1873 05-02-2010 12:01:05 4.4 C 4.37 g/m*3 4.4 C 0 km/h
1874 05-02-2010 12:26:05 4.4 C 4.31 g/m*3 4.4 C 0 km/h
1875 05-02-2010 12:51:05 4.3 C 4.28 g/m*3 4.3 C 0 km/h
Sensor: Nr:Datum:Temp:Abs-Feuchte:Windchill:Wind:
Aussen-T/F 1876 05-02-2010 13:16:05 4.5 C 4.4 g/m*3 4.5 C 0 km/h
1877 05-02-2010 13:41:05 4.9 C 4.52 g/m*3 4.9 C 0 km/h
1878 05-02-2010 14:06:05 5.1 C 4.38 g/m*3 5.1 C 0 km/h
1879 05-02-2010 14:31:05 4.8 C 4.36 g/m*3 4.8 C 0 km/h
1880 05-02-2010 14:56:05 4.6 C 4.37 g/m*3 4.6 C 0 km/h
1881 05-02-2010 15:21:05 4.5 C 4.4 g/m*3 4.5 C 0 km/h
1882 05-02-2010 15:46:05 4.2 C 4.38 g/m*3 4.2 C 0 km/h
1883 05-02-2010 16:11:05 3.8 C 4.64 g/m*3 3.8 C 0 km/h
1884 05-02-2010 16:36:05 3.6 C 4.7 g/m*3 3.6 C 0 km/h
1885 05-02-2010 17:01:05 3.4 C 4.83 g/m*3 3.4 C 0 km/h
1886 05-02-2010 17:26:05 3.4 C 4.95 g/m*3 3.4 C 0 km/h
1887 05-02-2010 17:51:06 3.2 C 4.94 g/m*3 3.2 C 0 km/h
1888 05-02-2010 18:16:06 3.3 C 5.04 g/m*3 3.3 C 0 km/h
1889 05-02-2010 18:41:06 3.1 C 5.03 g/m*3 3.1 C 0 km/h
1890 05-02-2010 19:06:06 3.2 C 5.12 g/m*3 3.2 C 0 km/h
1891 05-02-2010 19:31:06 3 C 5.05 g/m*3 3 C 0 km/h
1892 05-02-2010 19:56:06 3.1 C 5.09 g/m*3 3.1 C 0 km/h
1893 05-02-2010 20:21:06 3 C 5.11 g/m*3 3 C 0 km/h
1894 05-02-2010 20:46:06 2.8 C 5.1 g/m*3 2.8 C 0 km/h
1895 05-02-2010 21:11:06 2.8 C 5.16 g/m*3 2.8 C 0 km/h
1896 05-02-2010 21:36:06 2.6 C 5.09 g/m*3 2.6 C 0 km/h
1897 05-02-2010 22:01:06 2.7 C 5.19 g/m*3 2.7 C 0 km/h
1898 05-02-2010 22:26:06 2.9 C 5.26 g/m*3 2.9 C 0 km/h
1899 05-02-2010 22:51:06 3 C 5.23 g/m*3 3 C 0 km/h
1900 05-02-2010 23:16:06 3 C 5.23 g/m*3 3 C 0 km/h
Sensor: Nr:Datum:Temp:Abs-Feuchte:Windchill:Wind:
Aussen-T/F 1901 05-02-2010 23:41:06 3 C 5.23 g/m*3 3 C 0 km/h
1902 06-02-2010 00:06:06 2.8 C 5.22 g/m*3 2.8 C 0 km/h
1903 06-02-2010 00:31:06 2.8 C 5.22 g/m*3 2.8 C 0 km/h
1904 06-02-2010 00:56:06 2.7 C 5.19 g/m*3 2.7 C 0 km/h
1905 06-02-2010 01:21:06 2.4 C 5.08 g/m*3 2.4 C 0 km/h
1906 06-02-2010 01:46:06 2.1 C 4.98 g/m*3 2.1 C 0 km/h
1907 06-02-2010 02:11:06 2.4 C 5.14 g/m*3 2.4 C 0 km/h
1908 06-02-2010 02:36:06 2.7 C 5.24 g/m*3 2.7 C 0 km/h
1909 06-02-2010 03:01:07 2.8 C 5.28 g/m*3 2.8 C 0 km/h
1910 06-02-2010 03:26:07 2.5 C 5.17 g/m*3 2.5 C 0 km/h
1911 06-02-2010 03:51:07 2.4 C 5.14 g/m*3 2.4 C 0 km/h
1912 06-02-2010 04:16:07 2.6 C 5.27 g/m*3 2.6 C 0 km/h
1913 06-02-2010 04:41:07 2.8 C 5.34 g/m*3 2.8 C 0 km/h
1914 06-02-2010 05:06:07 3 C 5.41 g/m*3 3 C 0 km/h
1915 06-02-2010 05:31:07 3 C 5.41 g/m*3 3 C 0 km/h
1916 06-02-2010 05:56:07 3 C 5.41 g/m*3 3 C 0 km/h
1917 06-02-2010 06:21:07 3.2 C 5.48 g/m*3 3.2 C 0 km/h
1918 06-02-2010 06:46:07 3 C 5.41 g/m*3 3 C 0 km/h
1919 06-02-2010 07:11:07 3 C 5.41 g/m*3 3 C 0 km/h
1920 06-02-2010 07:36:07 3.1 C 5.45 g/m*3 3.1 C 0 km/h
1921 06-02-2010 08:01:07 3.1 C 5.45 g/m*3 3.1 C 0 km/h
1922 06-02-2010 08:26:07 3.2 C 5.48 g/m*3 3.2 C 0 km/h
1923 06-02-2010 08:51:07 3.4 C 5.56 g/m*3 3.4 C 0 km/h
1924 06-02-2010 09:16:07 3.7 C 5.67 g/m*3 3.7 C 0 km/h
1925 06-02-2010 09:41:07 4 C 5.72 g/m*3 4 C 0 km/h
Sensor: Nr:Datum:Temp:Abs-Feuchte:Windchill:Wind:
Aussen-T/F 1926 06-02-2010 10:06:07 4.6 C 5.89 g/m*3 4.6 C 0 km/h
1927 06-02-2010 10:31:07 5.1 C 5.95 g/m*3 5.1 C 0 km/h
1928 06-02-2010 10:56:07 5.6 C 6.01 g/m*3 5.6 C 0 km/h
1929 06-02-2010 11:21:07 5.7 C 5.84 g/m*3 5.7 C 0 km/h
1930 06-02-2010 11:46:07 6.3 C 5.85 g/m*3 6.3 C 0 km/h
1931 06-02-2010 12:11:07 6.7 C 5.93 g/m*3 6.7 C 0 km/h
1932 06-02-2010 12:36:08 6.9 C 6 g/m*3 6.9 C 0 km/h
1933 06-02-2010 13:01:08 7.3 C 5.69 g/m*3 7.3 C 0 km/h
1934 06-02-2010 13:26:08 7.4 C 5.65 g/m*3 7.4 C 0 km/h
1935 06-02-2010 13:51:08 7.3 C 5.29 g/m*3 7.3 C 0 km/h
1936 06-02-2010 14:16:08 7.1 C 5.23 g/m*3 7.1 C 0 km/h
1937 06-02-2010 14:41:08 7 C 5.27 g/m*3 7 C 0 km/h
1938 06-02-2010 15:06:08 6.7 C 5.39 g/m*3 6.7 C 0 km/h
1939 06-02-2010 15:31:08 6.5 C 5.47 g/m*3 6.5 C 0 km/h
1940 06-02-2010 15:56:08 6.4 C 5.36 g/m*3 6.4 C 0 km/h
1941 06-02-2010 16:21:08 6.2 C 5.44 g/m*3 6.2 C 0 km/h
1942 06-02-2010 16:46:08 6 C 5.37 g/m*3 6 C 0 km/h
1943 06-02-2010 17:11:08 5.8 C 5.44 g/m*3 5.8 C 0 km/h
1944 06-02-2010 17:36:08 5.7 C 5.48 g/m*3 5.7 C 0 km/h
1945 06-02-2010 18:01:08 5.5 C 5.41 g/m*3 5.5 C 0 km/h
1946 06-02-2010 18:26:08 5.3 C 5.41 g/m*3 5.3 C 0 km/h
1947 06-02-2010 18:51:08 5.2 C 5.37 g/m*3 5.2 C 0 km/h
1948 06-02-2010 19:16:08 5.1 C 5.4 g/m*3 5.1 C 0 km/h
1949 06-02-2010 19:41:08 5.1 C 5.4 g/m*3 5.1 C 0 km/h
1950 06-02-2010 20:06:08 5 C 5.37 g/m*3 5 C 0 km/h
Sensor: Nr:Datum:Temp:Abs-Feuchte:Windchill:Wind:
Aussen-T/F 1951 06-02-2010 20:31:08 4.9 C 5.4 g/m*3 4.9 C 0 km/h
1952 06-02-2010 20:56:08 4.9 C 5.47 g/m*3 4.9 C 0 km/h
1953 06-02-2010 21:21:09 4.8 C 5.43 g/m*3 4.8 C 0 km/h
1954 06-02-2010 21:46:09 4.8 C 5.43 g/m*3 4.8 C 0 km/h
1955 06-02-2010 22:11:09 4.8 C 5.5 g/m*3 4.8 C 0 km/h
1956 06-02-2010 22:36:09 4.7 C 5.46 g/m*3 4.7 C 0 km/h
1957 06-02-2010 23:01:09 4.7 C 5.46 g/m*3 4.7 C 0 km/h
1958 06-02-2010 23:26:09 4.6 C 5.43 g/m*3 4.6 C 0 km/h
1959 06-02-2010 23:51:09 4.6 C 5.43 g/m*3 4.6 C 0 km/h
1960 07-02-2010 00:16:09 4.5 C 5.46 g/m*3 4.5 C 0 km/h
1961 07-02-2010 00:41:09 4.5 C 5.46 g/m*3 4.5 C 0 km/h
1962 07-02-2010 01:06:09 4.5 C 5.46 g/m*3 4.5 C 0 km/h
1963 07-02-2010 01:31:09 4.6 C 5.49 g/m*3 4.6 C 0 km/h
1964 07-02-2010 01:56:09 4.4 C 5.42 g/m*3 4.4 C 0 km/h
1965 07-02-2010 02:21:09 4.2 C 5.41 g/m*3 4.2 C 0 km/h
1966 07-02-2010 02:46:09 4.1 C 5.38 g/m*3 4.1 C 0 km/h
1967 07-02-2010 03:11:09 4.1 C 5.5 g/m*3 4.1 C 0 km/h
1968 07-02-2010 03:36:09 4.1 C 5.5 g/m*3 4.1 C 0 km/h
1969 07-02-2010 04:01:09 4.1 C 5.57 g/m*3 4.1 C 0 km/h
1970 07-02-2010 04:26:09 4 C 5.59 g/m*3 4 C 0 km/h
1971 07-02-2010 04:51:09 4 C 5.59 g/m*3 4 C 0 km/h
1972 07-02-2010 05:16:09 4.1 C 5.7 g/m*3 4.1 C 0 km/h
1973 07-02-2010 05:41:09 3.8 C 5.58 g/m*3 3.8 C 0 km/h
1974 07-02-2010 06:06:10 3.8 C 5.65 g/m*3 3.8 C 0 km/h
1975 07-02-2010 06:31:10 3.8 C 5.65 g/m*3 3.8 C 0 km/h
Sensor: Nr:Datum:Temp:Abs-Feuchte:Windchill:Wind:
Aussen-T/F 1976 07-02-2010 06:56:10 3.8 C 5.65 g/m*3 3.8 C 0 km/h
1977 07-02-2010 07:21:10 3.7 C 5.61 g/m*3 3.7 C 0 km/h
1978 07-02-2010 07:46:10 3.7 C 5.67 g/m*3 3.7 C 0 km/h
1979 07-02-2010 08:11:10 3.8 C 5.71 g/m*3 3.8 C 0 km/h
1980 07-02-2010 08:36:10 3.7 C 5.67 g/m*3 3.7 C 0 km/h
1981 07-02-2010 09:01:10 3.8 C 5.71 g/m*3 3.8 C 0 km/h
1982 07-02-2010 09:26:10 3.9 C 5.75 g/m*3 3.9 C 0 km/h
1983 07-02-2010 09:51:10 4.1 C 5.76 g/m*3 4.1 C 0 km/h
1984 07-02-2010 10:16:10 4.1 C 5.7 g/m*3 4.1 C 0 km/h
1985 07-02-2010 10:41:10 4.5 C 5.72 g/m*3 4.5 C 0 km/h
1986 07-02-2010 11:06:10 4.9 C 5.6 g/m*3 4.9 C 0 km/h
1987 07-02-2010 11:31:10 4.7 C 5.13 g/m*3 4.7 C 0 km/h
1988 07-02-2010 11:56:10 4.5 C 4.93 g/m*3 4.5 C 0 km/h
1989 07-02-2010 12:21:10 5.3 C 5.06 g/m*3 5.3 C 0 km/h
1990 07-02-2010 12:46:10 5.7 C 4.84 g/m*3 5.7 C 0 km/h
1991 07-02-2010 13:11:10 5.6 C 4.67 g/m*3 5.6 C 0 km/h
1992 07-02-2010 13:36:10 5.8 C 4.66 g/m*3 5.8 C 0 km/h
1993 07-02-2010 14:01:10 6 C 4.57 g/m*3 6 C 0 km/h
1994 07-02-2010 14:26:10 6.1 C 4.53 g/m*3 6.1 C 0 km/h
1995 07-02-2010 14:51:10 5.7 C 4.41 g/m*3 5.7 C 0 km/h
1996 07-02-2010 15:16:11 5.5 C 4.49 g/m*3 5.5 C 0 km/h
1997 07-02-2010 15:41:11 5.4 C 4.47 g/m*3 5.4 C 0 km/h
1998 07-02-2010 16:06:11 5 C 4.62 g/m*3 5 C 0 km/h
1999 07-02-2010 16:31:11 4.8 C 4.76 g/m*3 4.8 C 0 km/h
2000 07-02-2010 16:56:11 4.6 C 4.83 g/m*3 4.6 C 0 km/h
Sensor: Nr:Datum:Temp:Abs-Feuchte:Windchill:Wind:
Aussen-T/F 2001 07-02-2010 17:21:11 4.7 C 4.93 g/m*3 4.7 C 0 km/h
2002 07-02-2010 17:46:11 4.5 C 4.93 g/m*3 4.5 C 0 km/h
2003 07-02-2010 18:11:11 4.4 C 4.96 g/m*3 4.4 C 0 km/h
2004 07-02-2010 18:36:11 4.2 C 4.96 g/m*3 4.2 C 0 km/h
2005 07-02-2010 19:01:11 4.1 C 4.86 g/m*3 4.1 C 0 km/h
2006 07-02-2010 19:26:11 3.7 C 4.49 g/m*3 3.7 C 0 km/h
2007 07-02-2010 19:51:11 3.7 C 4.42 g/m*3 3.7 C 0 km/h
2008 07-02-2010 20:16:11 3.5 C 4.37 g/m*3 3.5 C 0 km/h
2009 07-02-2010 20:41:11 3.3 C 4.37 g/m*3 3.3 C 0 km/h
2010 07-02-2010 21:06:11 3 C 4.22 g/m*3 3 C 0 km/h
2011 07-02-2010 21:31:11 2.7 C 4.08 g/m*3 2.7 C 0 km/h
2012 07-02-2010 21:56:11 2.5 C 3.97 g/m*3 2.5 C 0 km/h
2013 07-02-2010 22:21:11 2.4 C 3.83 g/m*3 2.4 C 0 km/h
2014 07-02-2010 22:46:11 2 C 3.56 g/m*3 2 C 0 km/h
2015 07-02-2010 23:11:11 2 C 3.67 g/m*3 2 C 0 km/h
2016 07-02-2010 23:36:12 1.7 C 3.65 g/m*3 1.7 C 0 km/h
2017 08-02-2010 00:01:12 1.4 C 3.52 g/m*3 1.4 C 0 km/h
2018 08-02-2010 00:26:12 1.6 C 3.68 g/m*3 1.6 C 0 km/h
2019 08-02-2010 00:51:12 1.4 C 3.47 g/m*3 1.4 C 0 km/h
2020 08-02-2010 01:16:12 1.2 C 3.42 g/m*3 1.2 C 0 km/h
2021 08-02-2010 01:41:12 1 C 3.43 g/m*3 1 C 0 km/h
2022 08-02-2010 02:06:12 0.8 C 3.48 g/m*3 0.8 C 0 km/h
2023 08-02-2010 02:31:12 0.8 C 3.48 g/m*3 0.8 C 0 km/h
2024 08-02-2010 02:56:12 0.7 C 3.46 g/m*3 0.7 C 0 km/h
2025 08-02-2010 03:21:12 0.5 C 3.41 g/m*3 0.5 C 0 km/h
Sensor: Nr:Datum:Temp:Abs-Feuchte:Windchill:Wind:
Aussen-T/F 2026 08-02-2010 03:46:12 0.5 C 3.41 g/m*3 0.5 C 0 km/h
2027 08-02-2010 04:11:12 0.3 C 3.31 g/m*3 0.3 C 0 km/h
2028 08-02-2010 04:36:12 0.3 C 3.31 g/m*3 0.3 C 0 km/h
2029 08-02-2010 05:01:12 0.2 C 3.24 g/m*3 0.2 C 0 km/h
2030 08-02-2010 05:26:12 -0.1 C 3.22 g/m*3 -0.1 C 0 km/h
2031 08-02-2010 05:51:12 -0.3 C 3.23 g/m*3 -0.3 C 0 km/h
2032 08-02-2010 06:16:12 -0.4 C 3.25 g/m*3 -0.4 C 0 km/h
2033 08-02-2010 06:41:12 -0.3 C 3.23 g/m*3 -0.3 C 0 km/h
2034 08-02-2010 07:06:12 -0.5 C 3.18 g/m*3 -0.5 C 0 km/h
2035 08-02-2010 07:31:12 -0.6 C 3.16 g/m*3 -0.6 C 0 km/h
2036 08-02-2010 07:56:12 -0.8 C 3.07 g/m*3 -0.8 C 0 km/h
2037 08-02-2010 08:21:13 -0.9 C 3.05 g/m*3 -0.9 C 0 km/h
2038 08-02-2010 08:46:13 -0.9 C 3 g/m*3 -0.9 C 0 km/h
2039 08-02-2010 09:11:13 -0.7 C 3 g/m*3 -0.7 C 0 km/h
2040 08-02-2010 09:36:13 -0.8 C 2.93 g/m*3 -0.8 C 0 km/h
2041 08-02-2010 10:01:13 -0.6 C 2.93 g/m*3 -0.6 C 0 km/h
2042 08-02-2010 10:26:13 -0.6 C 2.88 g/m*3 -0.6 C 0 km/h
2043 08-02-2010 10:51:13 -0.5 C 2.9 g/m*3 -0.5 C 0 km/h
2044 08-02-2010 11:16:13 -0.5 C 2.86 g/m*3 -0.5 C 0 km/h
2045 08-02-2010 11:41:13 -0.2 C 2.72 g/m*3 -0.2 C 0 km/h
2046 08-02-2010 12:06:13 -0.3 C 2.66 g/m*3 -0.3 C 0 km/h
2047 08-02-2010 12:31:13 -0.4 C 2.5 g/m*3 -0.4 C 0 km/h
2048 08-02-2010 12:56:13 0.3 C 2.57 g/m*3 0.3 C 0 km/h
2049 08-02-2010 13:21:13 0.5 C 2.56 g/m*3 0.5 C 0 km/h
2050 08-02-2010 13:46:13 0.8 C 2.66 g/m*3 0.8 C 0 km/h
Sensor: Nr:Datum:Temp:Abs-Feuchte:Windchill:Wind:
Aussen-T/F 2051 08-02-2010 14:11:13 0.6 C 2.63 g/m*3 0.6 C 0 km/h
2052 08-02-2010 14:36:13 0.5 C 2.66 g/m*3 0.5 C 0 km/h
2053 08-02-2010 15:01:13 -0.2 C 2.63 g/m*3 -0.2 C 0 km/h
2054 08-02-2010 15:26:13 -0.6 C 2.6 g/m*3 -0.6 C 0 km/h
2055 08-02-2010 15:51:13 -1.1 C 2.51 g/m*3 -1.1 C 0 km/h
2056 08-02-2010 16:16:13 -1.1 C 2.6 g/m*3 -1.1 C 0 km/h
2057 08-02-2010 16:41:13 -1.4 C 2.55 g/m*3 -1.4 C 0 km/h
2058 08-02-2010 17:06:13 -1.9 C 2.55 g/m*3 -1.9 C 0 km/h
2059 08-02-2010 17:31:14 -2.1 C 2.51 g/m*3 -2.1 C 0 km/h
2060 08-02-2010 17:56:14 -2.3 C 2.48 g/m*3 -2.3 C 0 km/h
2061 08-02-2010 18:21:14 -2.3 C 2.52 g/m*3 -2.3 C 0 km/h
2062 08-02-2010 18:46:14 -2.4 C 2.5 g/m*3 -2.4 C 0 km/h
2063 08-02-2010 19:11:14 -2.4 C 2.5 g/m*3 -2.4 C 0 km/h
2064 08-02-2010 19:36:14 -2.5 C 2.48 g/m*3 -2.5 C 0 km/h
2065 08-02-2010 20:01:14 -2.6 C 2.46 g/m*3 -2.6 C 0 km/h
2066 08-02-2010 20:26:14 -2.6 C 2.46 g/m*3 -2.6 C 0 km/h
2067 08-02-2010 20:51:14 -2.6 C 2.51 g/m*3 -2.6 C 0 km/h
2068 08-02-2010 21:16:14 -2.6 C 2.51 g/m*3 -2.6 C 0 km/h
2069 08-02-2010 21:41:14 -2.6 C 2.51 g/m*3 -2.6 C 0 km/h
2070 08-02-2010 22:06:14 -2.5 C 2.52 g/m*3 -2.5 C 0 km/h
2071 08-02-2010 22:31:14 -2.7 C 2.45 g/m*3 -2.7 C 0 km/h
2072 08-02-2010 22:56:14 -2.8 C 2.39 g/m*3 -2.8 C 0 km/h
2073 08-02-2010 23:21:14 -3.1 C 2.34 g/m*3 -3.1 C 0 km/h
2074 08-02-2010 23:46:14 -3.1 C 2.34 g/m*3 -3.1 C 0 km/h
2075 09-02-2010 00:11:14 -3.3 C 2.31 g/m*3 -3.3 C 0 km/h
Sensor: Nr:Datum:Temp:Abs-Feuchte:Windchill:Wind:
Aussen-T/F 2076 09-02-2010 00:36:14 -3.4 C 2.33 g/m*3 -3.4 C 0 km/h
2077 09-02-2010 01:01:14 -3.3 C 2.38 g/m*3 -3.3 C 0 km/h
2078 09-02-2010 01:26:14 -3.2 C 2.36 g/m*3 -3.2 C 0 km/h
2079 09-02-2010 01:51:14 -3.3 C 2.35 g/m*3 -3.3 C 0 km/h
2080 09-02-2010 02:16:14 -3.2 C 2.36 g/m*3 -3.2 C 0 km/h
2081 09-02-2010 02:41:15 -3.2 C 2.32 g/m*3 -3.2 C 0 km/h
2082 09-02-2010 03:06:15 -3.2 C 2.32 g/m*3 -3.2 C 0 km/h
2083 09-02-2010 03:31:15 -3.4 C 2.29 g/m*3 -3.4 C 0 km/h
2084 09-02-2010 03:56:15 -3.4 C 2.29 g/m*3 -3.4 C 0 km/h
2085 09-02-2010 04:21:15 -3.4 C 2.29 g/m*3 -3.4 C 0 km/h
2086 09-02-2010 04:46:15 -3.5 C 2.27 g/m*3 -3.5 C 0 km/h
2087 09-02-2010 05:11:15 -3.5 C 2.27 g/m*3 -3.5 C 0 km/h
2088 09-02-2010 05:36:15 -3.5 C 2.27 g/m*3 -3.5 C 0 km/h
2089 09-02-2010 06:01:15 -3.7 C 2.28 g/m*3 -3.7 C 0 km/h
2090 09-02-2010 06:26:15 -3.7 C 2.32 g/m*3 -3.7 C 0 km/h
2091 09-02-2010 06:51:15 -3.7 C 2.32 g/m*3 -3.7 C 0 km/h
2092 09-02-2010 07:16:15 -3.8 C 2.26 g/m*3 -3.8 C 0 km/h
2093 09-02-2010 07:41:15 -3.8 C 2.3 g/m*3 -3.8 C 0 km/h
2094 09-02-2010 08:06:15 -3.9 C 2.28 g/m*3 -3.9 C 0 km/h
2095 09-02-2010 08:31:15 -3.9 C 2.28 g/m*3 -3.9 C 0 km/h
2096 09-02-2010 08:56:15 -4.1 C 2.25 g/m*3 -4.1 C 0 km/h
2097 09-02-2010 09:21:15 -4 C 2.27 g/m*3 -4 C 0 km/h
2098 09-02-2010 09:46:15 -3.9 C 2.32 g/m*3 -3.9 C 0 km/h
2099 09-02-2010 10:11:15 -4 C 2.38 g/m*3 -4 C 0 km/h
2100 09-02-2010 10:36:15 -3.6 C 2.52 g/m*3 -3.6 C 0 km/h
Sensor: Nr:Datum:Temp:Abs-Feuchte:Windchill:Wind:
Aussen-T/F 2101 09-02-2010 11:01:15 -3.2 C 2.56 g/m*3 -3.2 C 0 km/h
2102 09-02-2010 11:26:15 -3.4 C 2.37 g/m*3 -3.4 C 0 km/h
2103 09-02-2010 11:51:16 -3.5 C 2.35 g/m*3 -3.5 C 0 km/h
2104 09-02-2010 12:16:16 -3.4 C 2.25 g/m*3 -3.4 C 0 km/h
2105 09-02-2010 12:41:16 -3.1 C 2.18 g/m*3 -3.1 C 0 km/h
2106 09-02-2010 13:06:16 -2.8 C 2.23 g/m*3 -2.8 C 0 km/h
2107 09-02-2010 13:31:16 -2.8 C 2.11 g/m*3 -2.8 C 0 km/h
2108 09-02-2010 13:56:16 -3 C 2.04 g/m*3 -3 C 0 km/h
2109 09-02-2010 14:21:16 -3.4 C 2.02 g/m*3 -3.4 C 0 km/h
2110 09-02-2010 14:46:16 -3.5 C 2.01 g/m*3 -3.5 C 0 km/h
2111 09-02-2010 15:11:16 -3.5 C 1.97 g/m*3 -3.5 C 0 km/h
2112 09-02-2010 15:36:16 -3.6 C 2 g/m*3 -3.6 C 0 km/h
2113 09-02-2010 16:01:16 -3.8 C 1.97 g/m*3 -3.8 C 0 km/h
2114 09-02-2010 16:26:16 -3.6 C 2 g/m*3 -3.6 C 0 km/h
2115 09-02-2010 16:51:16 -3.5 C 1.97 g/m*3 -3.5 C 0 km/h
2116 09-02-2010 17:16:16 -3.9 C 2.03 g/m*3 -3.9 C 0 km/h
2117 09-02-2010 17:41:16 -4 C 2.09 g/m*3 -4 C 0 km/h
2118 09-02-2010 18:06:16 -4.1 C 2.14 g/m*3 -4.1 C 0 km/h
2119 09-02-2010 18:31:16 -4.1 C 2.14 g/m*3 -4.1 C 0 km/h
2120 09-02-2010 18:56:16 -4.2 C 2.09 g/m*3 -4.2 C 0 km/h
2121 09-02-2010 19:21:16 -4.1 C 2.18 g/m*3 -4.1 C 0 km/h
2122 09-02-2010 19:46:16 -4.1 C 2.18 g/m*3 -4.1 C 0 km/h
2123 09-02-2010 20:11:16 -4.5 C 2.08 g/m*3 -4.5 C 0 km/h
2124 09-02-2010 20:36:16 -4.6 C 2.1 g/m*3 -4.6 C 0 km/h
2125 09-02-2010 21:01:17 -4.6 C 1.93 g/m*3 -4.6 C 0 km/h
Sensor: Nr:Datum:Temp:Abs-Feuchte:Windchill:Wind:
Aussen-T/F 2126 09-02-2010 21:26:17 -4.6 C 1.75 g/m*3 -4.6 C 0 km/h
2127 09-02-2010 21:51:17 -4.7 C 1.77 g/m*3 -4.7 C 0 km/h
2128 09-02-2010 22:16:17 -4.6 C 1.82 g/m*3 -4.6 C 0 km/h
2129 09-02-2010 22:41:17 -4.5 C 1.87 g/m*3 -4.5 C 0 km/h
2130 09-02-2010 23:06:17 -4.6 C 1.93 g/m*3 -4.6 C 0 km/h
2131 09-02-2010 23:31:17 -4.5 C 1.94 g/m*3 -4.5 C 0 km/h
2132 09-02-2010 23:56:17 -4.5 C 1.94 g/m*3 -4.5 C 0 km/h
2133 10-02-2010 00:21:17 -4.6 C 2.07 g/m*3 -4.6 C 0 km/h
2134 10-02-2010 00:46:17 -4.7 C 2.12 g/m*3 -4.7 C 0 km/h
2135 10-02-2010 01:11:17 -4.7 C 2.12 g/m*3 -4.7 C 0 km/h
2136 10-02-2010 01:36:17 -4.7 C 2.16 g/m*3 -4.7 C 0 km/h
2137 10-02-2010 02:01:17 -4.7 C 2.23 g/m*3 -4.7 C 0 km/h
2138 10-02-2010 02:26:17 -4.6 C 2.28 g/m*3 -4.6 C 0 km/h
2139 10-02-2010 02:51:17 -4.7 C 2.3 g/m*3 -4.7 C 0 km/h
2140 10-02-2010 03:16:17 -4.7 C 2.33 g/m*3 -4.7 C 0 km/h
2141 10-02-2010 03:41:17 -4.9 C 2.33 g/m*3 -4.9 C 0 km/h
2142 10-02-2010 04:06:17 -4.9 C 2.3 g/m*3 -4.9 C 0 km/h
2143 10-02-2010 04:31:17 -5 C 2.32 g/m*3 -5 C 0 km/h
2144 10-02-2010 04:56:17 -5 C 2.35 g/m*3 -5 C 0 km/h
2145 10-02-2010 05:21:17 -5 C 2.38 g/m*3 -5 C 0 km/h
2146 10-02-2010 05:46:17 -5 C 2.35 g/m*3 -5 C 0 km/h
2147 10-02-2010 06:11:18 -5 C 2.35 g/m*3 -5 C 0 km/h
2148 10-02-2010 06:36:18 -5.2 C 2.32 g/m*3 -5.2 C 0 km/h
2149 10-02-2010 07:01:18 -5.4 C 2.28 g/m*3 -5.4 C 0 km/h
2150 10-02-2010 07:26:18 -5.6 C 2.31 g/m*3 -5.6 C 0 km/h
Sensor: Nr:Datum:Temp:Abs-Feuchte:Windchill:Wind:
Aussen-T/F 2151 10-02-2010 07:51:18 -5.4 C 2.38 g/m*3 -5.4 C 0 km/h
2152 10-02-2010 08:16:18 -5.5 C 2.36 g/m*3 -5.5 C 0 km/h
2153 10-02-2010 08:41:18 -5.3 C 2.33 g/m*3 -5.3 C 0 km/h
2154 10-02-2010 09:06:18 -5 C 2.42 g/m*3 -5 C 0 km/h
2155 10-02-2010 09:31:18 -4.7 C 2.4 g/m*3 -4.7 C 0 km/h
2156 10-02-2010 09:56:18 -4.7 C 2.4 g/m*3 -4.7 C 0 km/h
2157 10-02-2010 10:21:18 -4.4 C 2.45 g/m*3 -4.4 C 0 km/h
2158 10-02-2010 10:46:18 -4.4 C 2.35 g/m*3 -4.4 C 0 km/h
2159 10-02-2010 11:11:18 -4 C 2.41 g/m*3 -4 C 0 km/h
2160 10-02-2010 11:36:18 -3.7 C 2.35 g/m*3 -3.7 C 0 km/h
2161 10-02-2010 12:01:18 -3.7 C 2.39 g/m*3 -3.7 C 0 km/h
2162 10-02-2010 12:26:18 -3.2 C 2.32 g/m*3 -3.2 C 0 km/h
2163 10-02-2010 12:51:18 -3.4 C 2.37 g/m*3 -3.4 C 0 km/h
2164 10-02-2010 13:16:18 -3.2 C 2.52 g/m*3 -3.2 C 0 km/h
2165 10-02-2010 13:41:18 -2.6 C 2.26 g/m*3 -2.6 C 0 km/h
2166 10-02-2010 14:06:18 -3.2 C 2.21 g/m*3 -3.2 C 0 km/h
2167 10-02-2010 14:31:18 -3.3 C 2.27 g/m*3 -3.3 C 0 km/h
2168 10-02-2010 14:56:18 -3.2 C 2.25 g/m*3 -3.2 C 0 km/h
2169 10-02-2010 15:21:18 -3.3 C 2.42 g/m*3 -3.3 C 0 km/h
2170 10-02-2010 15:46:19 -3 C 2.24 g/m*3 -3 C 0 km/h
2171 10-02-2010 16:11:19 -3.4 C 2.29 g/m*3 -3.4 C 0 km/h
2172 10-02-2010 16:36:19 -3.5 C 2.27 g/m*3 -3.5 C 0 km/h
2173 10-02-2010 17:01:19 -3.4 C 2.29 g/m*3 -3.4 C 0 km/h
2174 10-02-2010 17:26:19 -3.8 C 2.3 g/m*3 -3.8 C 0 km/h
2175 10-02-2010 17:51:19 -4.4 C 2.42 g/m*3 -4.4 C 0 km/h
Sensor: Nr:Datum:Temp:Abs-Feuchte:Windchill:Wind:
Aussen-T/F 2176 10-02-2010 18:16:19 -5.2 C 2.32 g/m*3 -5.2 C 0 km/h
2177 10-02-2010 18:41:19 -5.2 C 2.45 g/m*3 -5.2 C 0 km/h
2178 10-02-2010 19:06:19 -5.3 C 2.37 g/m*3 -5.3 C 0 km/h
2179 10-02-2010 19:31:19 -6 C 2.28 g/m*3 -6 C 0 km/h
2180 10-02-2010 19:56:19 -6.2 C 2.31 g/m*3 -6.2 C 0 km/h
2181 10-02-2010 20:21:19 -6.5 C 2.29 g/m*3 -6.5 C 0 km/h
2182 10-02-2010 20:46:19 -6.3 C 2.35 g/m*3 -6.3 C 0 km/h
2183 10-02-2010 21:11:19 -6.1 C 2.39 g/m*3 -6.1 C 0 km/h
2184 10-02-2010 21:36:19 -6.6 C 2.27 g/m*3 -6.6 C 0 km/h
2185 10-02-2010 22:01:19 -6.3 C 2.35 g/m*3 -6.3 C 0 km/h
2186 10-02-2010 22:26:19 -6.5 C 2.26 g/m*3 -6.5 C 0 km/h
2187 10-02-2010 22:51:19 -6.9 C 2.16 g/m*3 -6.9 C 0 km/h
2188 10-02-2010 23:16:19 -7.4 C 2.09 g/m*3 -7.4 C 0 km/h
2189 10-02-2010 23:41:19 -7 C 2.18 g/m*3 -7 C 0 km/h
2190 11-02-2010 00:06:20 -6.5 C 2.29 g/m*3 -6.5 C 0 km/h
2191 11-02-2010 00:31:20 -6.5 C 2.17 g/m*3 -6.5 C 0 km/h
2192 11-02-2010 00:56:20 -6.6 C 2.12 g/m*3 -6.6 C 0 km/h
2193 11-02-2010 01:21:20 -7.5 C 1.96 g/m*3 -7.5 C 0 km/h
2194 11-02-2010 01:46:20 -8.1 C 1.9 g/m*3 -8.1 C 0 km/h
2195 11-02-2010 02:11:20 -7.7 C 2.04 g/m*3 -7.7 C 0 km/h
2196 11-02-2010 02:36:20 -7.4 C 2.09 g/m*3 -7.4 C 0 km/h
2197 11-02-2010 03:01:20 -7.2 C 2.12 g/m*3 -7.2 C 0 km/h
2198 11-02-2010 03:26:20 -6.9 C 2.14 g/m*3 -6.9 C 0 km/h
2199 11-02-2010 03:51:20 -6.8 C 2.12 g/m*3 -6.8 C 0 km/h
2200 11-02-2010 04:16:20 -6.8 C 2.09 g/m*3 -6.8 C 0 km/h
Sensor: Nr:Datum:Temp:Abs-Feuchte:Windchill:Wind:
Aussen-T/F 2201 11-02-2010 04:41:20 -6.4 C 2.18 g/m*3 -6.4 C 0 km/h
2202 11-02-2010 05:06:20 -6.2 C 2.18 g/m*3 -6.2 C 0 km/h
2203 11-02-2010 05:31:20 -6.1 C 2.23 g/m*3 -6.1 C 0 km/h
2204 11-02-2010 05:56:20 -6 C 2.31 g/m*3 -6 C 0 km/h
2205 11-02-2010 06:21:20 -5.9 C 2.36 g/m*3 -5.9 C 0 km/h
2206 11-02-2010 06:46:20 -5.8 C 2.44 g/m*3 -5.8 C 0 km/h
2207 11-02-2010 07:11:20 -5.7 C 2.46 g/m*3 -5.7 C 0 km/h
2208 11-02-2010 07:36:20 -5.6 C 2.51 g/m*3 -5.6 C 0 km/h
2209 11-02-2010 08:01:20 -5.5 C 2.56 g/m*3 -5.5 C 0 km/h
2210 11-02-2010 08:26:20 -5.4 C 2.58 g/m*3 -5.4 C 0 km/h
2211 11-02-2010 08:51:20 -5.2 C 2.62 g/m*3 -5.2 C 0 km/h
2212 11-02-2010 09:16:20 -4.9 C 2.64 g/m*3 -4.9 C 0 km/h
2213 11-02-2010 09:41:21 -4.5 C 2.68 g/m*3 -4.5 C 0 km/h
2214 11-02-2010 10:06:21 -4 C 2.74 g/m*3 -4 C 0 km/h
2215 11-02-2010 10:31:21 -3.7 C 2.77 g/m*3 -3.7 C 0 km/h
2216 11-02-2010 10:56:21 -3.3 C 2.77 g/m*3 -3.3 C 0 km/h
2217 11-02-2010 11:21:21 -2.9 C 2.77 g/m*3 -2.9 C 0 km/h
2218 11-02-2010 11:46:21 -2.7 C 2.81 g/m*3 -2.7 C 0 km/h
2219 11-02-2010 12:11:21 -2.5 C 2.89 g/m*3 -2.5 C 0 km/h
2220 11-02-2010 12:36:21 -2 C 2.99 g/m*3 -2 C 0 km/h
2221 11-02-2010 13:01:21 -1.5 C 3.1 g/m*3 -1.5 C 0 km/h
2222 11-02-2010 13:26:21 -1.1 C 3.05 g/m*3 -1.1 C 0 km/h
2223 11-02-2010 13:51:21 -1.3 C 2.92 g/m*3 -1.3 C 0 km/h
2224 11-02-2010 14:16:21 -1.1 C 3.1 g/m*3 -1.1 C 0 km/h
2225 11-02-2010 14:41:21 -1.2 C 2.94 g/m*3 -1.2 C 0 km/h
Sensor: Nr:Datum:Temp:Abs-Feuchte:Windchill:Wind:
Aussen-T/F 2226 11-02-2010 15:06:21 -1.2 C 2.9 g/m*3 -1.2 C 0 km/h
2227 11-02-2010 15:31:21 -1.6 C 2.86 g/m*3 -1.6 C 0 km/h
2228 11-02-2010 15:56:21 -1.3 C 2.88 g/m*3 -1.3 C 0 km/h
2229 11-02-2010 16:21:21 -1.4 C 2.9 g/m*3 -1.4 C 0 km/h
2230 11-02-2010 16:46:21 -1.6 C 2.9 g/m*3 -1.6 C 0 km/h
2231 11-02-2010 17:11:21 -1.7 C 2.84 g/m*3 -1.7 C 0 km/h
2232 11-02-2010 17:36:21 -1.7 C 2.76 g/m*3 -1.7 C 0 km/h
2233 11-02-2010 18:01:21 -1.8 C 2.74 g/m*3 -1.8 C 0 km/h
2234 11-02-2010 18:26:21 -1.8 C 2.74 g/m*3 -1.8 C 0 km/h
2235 11-02-2010 18:51:22 -1.8 C 2.69 g/m*3 -1.8 C 0 km/h
2236 11-02-2010 19:16:22 -1.8 C 2.65 g/m*3 -1.8 C 0 km/h
2237 11-02-2010 19:41:22 -1.8 C 2.65 g/m*3 -1.8 C 0 km/h
2238 11-02-2010 20:06:22 -1.8 C 2.65 g/m*3 -1.8 C 0 km/h
2239 11-02-2010 20:31:22 -1.8 C 2.69 g/m*3 -1.8 C 0 km/h
2240 11-02-2010 20:56:22 -1.8 C 2.74 g/m*3 -1.8 C 0 km/h
2241 11-02-2010 21:21:22 -2.1 C 2.85 g/m*3 -2.1 C 0 km/h
2242 11-02-2010 21:46:22 -2.2 C 2.95 g/m*3 -2.2 C 0 km/h
2243 11-02-2010 22:11:22 -2.5 C 3.05 g/m*3 -2.5 C 0 km/h
2244 11-02-2010 22:36:22 -2.5 C 3.09 g/m*3 -2.5 C 0 km/h
2245 11-02-2010 23:01:22 -2.5 C 3.13 g/m*3 -2.5 C 0 km/h
2246 11-02-2010 23:26:22 -2.6 C 3.15 g/m*3 -2.6 C 0 km/h
2247 11-02-2010 23:51:22 -2.5 C 3.17 g/m*3 -2.5 C 0 km/h
2248 12-02-2010 00:16:22 -2.6 C 3.19 g/m*3 -2.6 C 0 km/h
2249 12-02-2010 00:41:22 -2.7 C 3.21 g/m*3 -2.7 C 0 km/h
2250 12-02-2010 01:06:22 -2.7 C 3.21 g/m*3 -2.7 C 0 km/h
Sensor: Nr:Datum:Temp:Abs-Feuchte:Windchill:Wind:
Aussen-T/F 2251 12-02-2010 01:31:22 -2.7 C 3.21 g/m*3 -2.7 C 0 km/h
2252 12-02-2010 01:56:22 -2.6 C 3.19 g/m*3 -2.6 C 0 km/h
2253 12-02-2010 02:21:22 -2.6 C 3.19 g/m*3 -2.6 C 0 km/h
2254 12-02-2010 02:46:22 -2.6 C 3.15 g/m*3 -2.6 C 0 km/h
2255 12-02-2010 03:11:22 -2.6 C 3.19 g/m*3 -2.6 C 0 km/h
2256 12-02-2010 03:36:22 -2.7 C 3.17 g/m*3 -2.7 C 0 km/h
2257 12-02-2010 04:01:23 -2.6 C 3.23 g/m*3 -2.6 C 0 km/h
2258 12-02-2010 04:26:23 -2.6 C 3.19 g/m*3 -2.6 C 0 km/h
2259 12-02-2010 04:51:23 -2.6 C 3.19 g/m*3 -2.6 C 0 km/h
2260 12-02-2010 05:16:23 -2.6 C 3.19 g/m*3 -2.6 C 0 km/h
2261 12-02-2010 05:41:23 -2.5 C 3.21 g/m*3 -2.5 C 0 km/h
2262 12-02-2010 06:06:23 -2.6 C 3.15 g/m*3 -2.6 C 0 km/h
2263 12-02-2010 06:31:23 -2.5 C 3.17 g/m*3 -2.5 C 0 km/h
2264 12-02-2010 06:56:23 -2.6 C 3.19 g/m*3 -2.6 C 0 km/h
2265 12-02-2010 07:21:23 -2.7 C 3.17 g/m*3 -2.7 C 0 km/h
2266 12-02-2010 07:46:23 -2.8 C 3.07 g/m*3 -2.8 C 0 km/h
2267 12-02-2010 08:11:23 -2.7 C 3.01 g/m*3 -2.7 C 0 km/h
2268 12-02-2010 08:36:23 -2.6 C 3.03 g/m*3 -2.6 C 0 km/h
2269 12-02-2010 09:01:23 -2.6 C 3.03 g/m*3 -2.6 C 0 km/h
2270 12-02-2010 09:26:23 -2.5 C 3.01 g/m*3 -2.5 C 0 km/h
2271 12-02-2010 09:51:23 -2.3 C 2.97 g/m*3 -2.3 C 0 km/h
2272 12-02-2010 10:16:23 -2.1 C 2.93 g/m*3 -2.1 C 0 km/h
2273 12-02-2010 10:41:23 -1.9 C 2.84 g/m*3 -1.9 C 0 km/h
2274 12-02-2010 11:06:23 -1.2 C 2.9 g/m*3 -1.2 C 0 km/h
2275 12-02-2010 11:31:23 -1.3 C 2.74 g/m*3 -1.3 C 0 km/h
Sensor: Nr:Datum:Temp:Abs-Feuchte:Windchill:Wind:
Aussen-T/F 2276 12-02-2010 11:56:23 -1 C 2.71 g/m*3 -1 C 0 km/h
2277 12-02-2010 12:21:23 -1.1 C 2.69 g/m*3 -1.1 C 0 km/h
2278 12-02-2010 12:46:23 -1.4 C 2.77 g/m*3 -1.4 C 0 km/h
2279 12-02-2010 13:11:24 -1.2 C 2.85 g/m*3 -1.2 C 0 km/h
2280 12-02-2010 13:36:24 -1.2 C 2.9 g/m*3 -1.2 C 0 km/h
2281 12-02-2010 14:01:24 -1.1 C 2.92 g/m*3 -1.1 C 0 km/h
2282 12-02-2010 14:26:24 -0.7 C 2.95 g/m*3 -0.7 C 0 km/h
2283 12-02-2010 14:51:24 -0.5 C 2.95 g/m*3 -0.5 C 0 km/h
2284 12-02-2010 15:16:24 -0.8 C 2.84 g/m*3 -0.8 C 0 km/h
2285 12-02-2010 15:41:24 -0.8 C 2.89 g/m*3 -0.8 C 0 km/h
2286 12-02-2010 16:06:24 -0.9 C 2.91 g/m*3 -0.9 C 0 km/h
2287 12-02-2010 16:31:24 -1.2 C 2.85 g/m*3 -1.2 C 0 km/h
2288 12-02-2010 16:56:24 -1.2 C 2.76 g/m*3 -1.2 C 0 km/h
2289 12-02-2010 17:21:24 -1.4 C 2.73 g/m*3 -1.4 C 0 km/h
2290 12-02-2010 17:46:24 -1.9 C 2.76 g/m*3 -1.9 C 0 km/h
2291 12-02-2010 18:11:24 -2.1 C 2.72 g/m*3 -2.1 C 0 km/h
2292 12-02-2010 18:36:24 -2.2 C 2.78 g/m*3 -2.2 C 0 km/h
2293 12-02-2010 19:01:24 -2.4 C 2.66 g/m*3 -2.4 C 0 km/h
2294 12-02-2010 19:26:24 -2.5 C 2.69 g/m*3 -2.5 C 0 km/h
2295 12-02-2010 19:51:24 -2.5 C 2.73 g/m*3 -2.5 C 0 km/h
2296 12-02-2010 20:16:24 -2.6 C 2.71 g/m*3 -2.6 C 0 km/h
2297 12-02-2010 20:41:24 -2.6 C 2.75 g/m*3 -2.6 C 0 km/h
2298 12-02-2010 21:06:24 -2.6 C 2.71 g/m*3 -2.6 C 0 km/h
2299 12-02-2010 21:31:24 -2.7 C 2.73 g/m*3 -2.7 C 0 km/h
2300 12-02-2010 21:56:25 -2.8 C 2.71 g/m*3 -2.8 C 0 km/h
Sensor: Nr:Datum:Temp:Abs-Feuchte:Windchill:Wind:
Aussen-T/F 2301 12-02-2010 22:21:25 -2.8 C 2.75 g/m*3 -2.8 C 0 km/h
2302 12-02-2010 22:46:25 -2.9 C 2.73 g/m*3 -2.9 C 0 km/h
2303 12-02-2010 23:11:25 -3 C 2.71 g/m*3 -3 C 0 km/h
2304 12-02-2010 23:36:25 -3.2 C 2.67 g/m*3 -3.2 C 0 km/h
2305 13-02-2010 00:01:25 -3.2 C 2.71 g/m*3 -3.2 C 0 km/h
2306 13-02-2010 00:26:25 -3.4 C 2.75 g/m*3 -3.4 C 0 km/h
2307 13-02-2010 00:51:25 -3.7 C 2.73 g/m*3 -3.7 C 0 km/h
2308 13-02-2010 01:16:25 -3.9 C 2.76 g/m*3 -3.9 C 0 km/h
2309 13-02-2010 01:41:25 -4 C 2.78 g/m*3 -4 C 0 km/h
2310 13-02-2010 02:06:25 -3.9 C 2.8 g/m*3 -3.9 C 0 km/h
2311 13-02-2010 02:31:25 -4 C 2.74 g/m*3 -4 C 0 km/h
2312 13-02-2010 02:56:25 -4.1 C 2.69 g/m*3 -4.1 C 0 km/h
2313 13-02-2010 03:21:25 -4.2 C 2.7 g/m*3 -4.2 C 0 km/h
2314 13-02-2010 03:46:25 -4.2 C 2.74 g/m*3 -4.2 C 0 km/h
2315 13-02-2010 04:11:25 -4.2 C 2.74 g/m*3 -4.2 C 0 km/h
2316 13-02-2010 04:36:25 -4.1 C 2.8 g/m*3 -4.1 C 0 km/h
2317 13-02-2010 05:01:25 -4.1 C 2.8 g/m*3 -4.1 C 0 km/h
2318 13-02-2010 05:26:25 -4 C 2.82 g/m*3 -4 C 0 km/h
2319 13-02-2010 05:51:25 -3.8 C 2.86 g/m*3 -3.8 C 0 km/h
2320 13-02-2010 06:16:26 -3.9 C 2.84 g/m*3 -3.9 C 0 km/h
2321 13-02-2010 06:41:26 -3.8 C 2.86 g/m*3 -3.8 C 0 km/h
2322 13-02-2010 07:06:26 -3.7 C 2.84 g/m*3 -3.7 C 0 km/h
2323 13-02-2010 07:31:26 -3.8 C 2.78 g/m*3 -3.8 C 0 km/h
2324 13-02-2010 07:56:26 -3.8 C 2.82 g/m*3 -3.8 C 0 km/h
2325 13-02-2010 08:21:26 -3.6 C 2.86 g/m*3 -3.6 C 0 km/h
Sensor: Nr:Datum:Temp:Abs-Feuchte:Windchill:Wind:
Aussen-T/F 2326 13-02-2010 08:46:26 -3.2 C 2.9 g/m*3 -3.2 C 0 km/h
2327 13-02-2010 09:11:26 -2.9 C 2.89 g/m*3 -2.9 C 0 km/h
2328 13-02-2010 09:36:26 -2.6 C 2.91 g/m*3 -2.6 C 0 km/h
2329 13-02-2010 10:01:26 -2.7 C 2.73 g/m*3 -2.7 C 0 km/h
2330 13-02-2010 10:26:26 -2.4 C 2.7 g/m*3 -2.4 C 0 km/h
2331 13-02-2010 10:51:26 -2.3 C 2.64 g/m*3 -2.3 C 0 km/h
2332 13-02-2010 11:16:26 -1.9 C 2.76 g/m*3 -1.9 C 0 km/h
2333 13-02-2010 11:41:26 -1.5 C 2.66 g/m*3 -1.5 C 0 km/h
2334 13-02-2010 12:06:26 -1.3 C 2.7 g/m*3 -1.3 C 0 km/h
2335 13-02-2010 12:31:26 -0.5 C 2.86 g/m*3 -0.5 C 0 km/h
2336 13-02-2010 12:56:26 -1.2 C 2.67 g/m*3 -1.2 C 0 km/h
2337 13-02-2010 13:21:26 -1.4 C 2.73 g/m*3 -1.4 C 0 km/h
2338 13-02-2010 13:46:26 -1 C 2.76 g/m*3 -1 C 0 km/h
2339 13-02-2010 14:11:26 -1.1 C 2.51 g/m*3 -1.1 C 0 km/h
2340 13-02-2010 14:36:26 0 C 2.76 g/m*3 0 C 0 km/h
2341 13-02-2010 15:01:27 -0.3 C 2.56 g/m*3 -0.3 C 0 km/h
2342 13-02-2010 15:26:27 -0.5 C 2.57 g/m*3 -0.5 C 0 km/h
2343 13-02-2010 15:51:27 -0.7 C 2.54 g/m*3 -0.7 C 0 km/h
2344 13-02-2010 16:16:27 -0.9 C 2.55 g/m*3 -0.9 C 0 km/h
2345 13-02-2010 16:41:27 -1 C 2.58 g/m*3 -1 C 0 km/h
2346 13-02-2010 17:06:27 -1.4 C 2.68 g/m*3 -1.4 C 0 km/h
2347 13-02-2010 17:31:27 -1.9 C 2.8 g/m*3 -1.9 C 0 km/h
2348 13-02-2010 17:56:27 -2 C 2.91 g/m*3 -2 C 0 km/h
2349 13-02-2010 18:21:27 -2 C 2.95 g/m*3 -2 C 0 km/h
2350 13-02-2010 18:46:27 -2.1 C 2.97 g/m*3 -2.1 C 0 km/h
Sensor: Nr:Datum:Temp:Abs-Feuchte:Windchill:Wind:
Aussen-T/F 2351 13-02-2010 19:11:27 -2.2 C 2.99 g/m*3 -2.2 C 0 km/h
2352 13-02-2010 19:36:27 -2.1 C 3.01 g/m*3 -2.1 C 0 km/h
2353 13-02-2010 20:01:27 -2.2 C 2.99 g/m*3 -2.2 C 0 km/h
2354 13-02-2010 20:26:27 -2.3 C 3.01 g/m*3 -2.3 C 0 km/h
2355 13-02-2010 20:51:27 -2.4 C 2.99 g/m*3 -2.4 C 0 km/h
2356 13-02-2010 21:16:27 -2.4 C 2.99 g/m*3 -2.4 C 0 km/h
2357 13-02-2010 21:41:27 -2.4 C 2.99 g/m*3 -2.4 C 0 km/h
2358 13-02-2010 22:06:27 -2.5 C 2.97 g/m*3 -2.5 C 0 km/h
2359 13-02-2010 22:31:27 -2.6 C 2.99 g/m*3 -2.6 C 0 km/h
2360 13-02-2010 22:56:27 -2.5 C 3.05 g/m*3 -2.5 C 0 km/h
2361 13-02-2010 23:21:28 -2.7 C 3.05 g/m*3 -2.7 C 0 km/h
2362 13-02-2010 23:46:28 -2.8 C 3.03 g/m*3 -2.8 C 0 km/h
2363 14-02-2010 00:11:28 -2.9 C 3.01 g/m*3 -2.9 C 0 km/h
2364 14-02-2010 00:36:28 -3.1 C 3 g/m*3 -3.1 C 0 km/h
2365 14-02-2010 01:01:28 -3.2 C 2.98 g/m*3 -3.2 C 0 km/h
2366 14-02-2010 01:26:28 -3.3 C 2.96 g/m*3 -3.3 C 0 km/h
2367 14-02-2010 01:51:28 -3.4 C 2.94 g/m*3 -3.4 C 0 km/h
2368 14-02-2010 02:16:28 -3.4 C 2.98 g/m*3 -3.4 C 0 km/h
2369 14-02-2010 02:41:28 -3.4 C 2.98 g/m*3 -3.4 C 0 km/h
2370 14-02-2010 03:06:28 -3.4 C 3.02 g/m*3 -3.4 C 0 km/h
2371 14-02-2010 03:31:28 -3.4 C 3.02 g/m*3 -3.4 C 0 km/h
2372 14-02-2010 03:56:28 -3.6 C 2.97 g/m*3 -3.6 C 0 km/h
2373 14-02-2010 04:21:28 -3.5 C 2.99 g/m*3 -3.5 C 0 km/h
2374 14-02-2010 04:46:28 -3.6 C 2.97 g/m*3 -3.6 C 0 km/h
2375 14-02-2010 05:11:28 -3.7 C 2.95 g/m*3 -3.7 C 0 km/h
Sensor: Nr:Datum:Temp:Abs-Feuchte:Windchill:Wind:
Aussen-T/F 2376 14-02-2010 05:36:28 -3.6 C 3.01 g/m*3 -3.6 C 0 km/h
2377 14-02-2010 06:01:28 -3.7 C 2.99 g/m*3 -3.7 C 0 km/h
2378 14-02-2010 06:26:28 -3.7 C 2.99 g/m*3 -3.7 C 0 km/h
2379 14-02-2010 06:51:28 -3.7 C 2.99 g/m*3 -3.7 C 0 km/h
2380 14-02-2010 07:16:28 -3.4 C 3.05 g/m*3 -3.4 C 0 km/h
2381 14-02-2010 07:41:28 -3.6 C 3.01 g/m*3 -3.6 C 0 km/h
2382 14-02-2010 08:06:29 -3.5 C 3.03 g/m*3 -3.5 C 0 km/h
2383 14-02-2010 08:31:29 -3.5 C 3.03 g/m*3 -3.5 C 0 km/h
2384 14-02-2010 08:56:29 -3.3 C 3.08 g/m*3 -3.3 C 0 km/h
2385 14-02-2010 09:21:29 -3.2 C 3.1 g/m*3 -3.2 C 0 km/h
2386 14-02-2010 09:46:29 -3.1 C 3.12 g/m*3 -3.1 C 0 km/h
2387 14-02-2010 10:11:29 -2.8 C 3.19 g/m*3 -2.8 C 0 km/h
2388 14-02-2010 10:36:29 -2.4 C 3.24 g/m*3 -2.4 C 0 km/h
2389 14-02-2010 11:01:29 -2.1 C 3.22 g/m*3 -2.1 C 0 km/h
2390 14-02-2010 11:26:29 -1.9 C 3.23 g/m*3 -1.9 C 0 km/h
2391 14-02-2010 11:51:29 -1.5 C 3.23 g/m*3 -1.5 C 0 km/h
2392 14-02-2010 12:16:29 -1.1 C 3.19 g/m*3 -1.1 C 0 km/h
2393 14-02-2010 12:41:29 -0.6 C 3.07 g/m*3 -0.6 C 0 km/h
2394 14-02-2010 13:06:29 0.2 C 3.14 g/m*3 0.2 C 0 km/h
2395 14-02-2010 13:31:29 0.6 C 3.03 g/m*3 0.6 C 0 km/h
2396 14-02-2010 13:56:29 1 C 3.01 g/m*3 1 C 0 km/h
2397 14-02-2010 14:21:29 1.4 C 3.09 g/m*3 1.4 C 0 km/h
2398 14-02-2010 14:46:29 1.4 C 3.04 g/m*3 1.4 C 0 km/h
2399 14-02-2010 15:11:29 0.8 C 2.92 g/m*3 0.8 C 0 km/h
2400 14-02-2010 15:36:29 0.7 C 3 g/m*3 0.7 C 0 km/h
Sensor: Nr:Datum:Temp:Abs-Feuchte:Windchill:Wind:
Aussen-T/F 2401 14-02-2010 16:01:29 0.1 C 2.98 g/m*3 0.1 C 0 km/h
2402 14-02-2010 16:26:30 -0.3 C 2.99 g/m*3 -0.3 C 0 km/h
2403 14-02-2010 16:51:30 -0.5 C 3.09 g/m*3 -0.5 C 0 km/h
2404 14-02-2010 17:16:30 -0.7 C 3.14 g/m*3 -0.7 C 0 km/h
2405 14-02-2010 17:41:30 -0.9 C 3.19 g/m*3 -0.9 C 0 km/h
2406 14-02-2010 18:06:30 -1.1 C 3.23 g/m*3 -1.1 C 0 km/h
2407 14-02-2010 18:31:30 -1.3 C 3.23 g/m*3 -1.3 C 0 km/h
2408 14-02-2010 18:56:30 -1.5 C 3.27 g/m*3 -1.5 C 0 km/h
2409 14-02-2010 19:21:30 -1.7 C 3.27 g/m*3 -1.7 C 0 km/h
2410 14-02-2010 19:46:30 -1.8 C 3.29 g/m*3 -1.8 C 0 km/h
2411 14-02-2010 20:11:30 -1.7 C 3.36 g/m*3 -1.7 C 0 km/h
2412 14-02-2010 20:36:30 -1.9 C 3.31 g/m*3 -1.9 C 0 km/h
2413 14-02-2010 21:01:30 -2.2 C 3.24 g/m*3 -2.2 C 0 km/h
2414 14-02-2010 21:26:30 -2.4 C 3.16 g/m*3 -2.4 C 0 km/h
2415 14-02-2010 21:51:30 -2.6 C 3.11 g/m*3 -2.6 C 0 km/h
2416 14-02-2010 22:16:30 -2.9 C 3.01 g/m*3 -2.9 C 0 km/h
2417 14-02-2010 22:41:30 -3 C 3.02 g/m*3 -3 C 0 km/h
2418 14-02-2010 23:06:30 -3 C 2.99 g/m*3 -3 C 0 km/h
2419 14-02-2010 23:31:30 -3 C 2.99 g/m*3 -3 C 0 km/h
2420 14-02-2010 23:56:30 -3 C 2.99 g/m*3 -3 C 0 km/h
2421 15-02-2010 00:21:30 -3 C 2.99 g/m*3 -3 C 0 km/h
2422 15-02-2010 00:46:30 -3 C 2.99 g/m*3 -3 C 0 km/h
2423 15-02-2010 01:11:31 -3 C 2.99 g/m*3 -3 C 0 km/h
2424 15-02-2010 01:36:31 -2.9 C 2.97 g/m*3 -2.9 C 0 km/h
2425 15-02-2010 02:01:31 -2.8 C 2.99 g/m*3 -2.8 C 0 km/h
Sensor: Nr:Datum:Temp:Abs-Feuchte:Windchill:Wind:
Aussen-T/F 2426 15-02-2010 02:26:31 -2.7 C 3.01 g/m*3 -2.7 C 0 km/h
2427 15-02-2010 02:51:31 -2.6 C 3.03 g/m*3 -2.6 C 0 km/h
2428 15-02-2010 03:16:31 -2.6 C 2.99 g/m*3 -2.6 C 0 km/h
2429 15-02-2010 03:41:31 -2.6 C 2.99 g/m*3 -2.6 C 0 km/h
2430 15-02-2010 04:06:31 -2.6 C 2.99 g/m*3 -2.6 C 0 km/h
2431 15-02-2010 04:31:31 -2.6 C 3.03 g/m*3 -2.6 C 0 km/h
2432 15-02-2010 04:56:31 -2.6 C 3.03 g/m*3 -2.6 C 0 km/h
2433 15-02-2010 05:21:31 -2.6 C 3.07 g/m*3 -2.6 C 0 km/h
2434 15-02-2010 05:46:31 -2.6 C 3.11 g/m*3 -2.6 C 0 km/h
2435 15-02-2010 06:11:31 -2.7 C 3.05 g/m*3 -2.7 C 0 km/h
2436 15-02-2010 06:36:31 -2.8 C 3.03 g/m*3 -2.8 C 0 km/h
2437 15-02-2010 07:01:31 -2.9 C 3.01 g/m*3 -2.9 C 0 km/h
2438 15-02-2010 07:26:31 -3.2 C 2.9 g/m*3 -3.2 C 0 km/h
2439 15-02-2010 07:51:31 -3.1 C 2.96 g/m*3 -3.1 C 0 km/h
2440 15-02-2010 08:16:31 -3.1 C 2.96 g/m*3 -3.1 C 0 km/h
2441 15-02-2010 08:41:31 -3 C 2.91 g/m*3 -3 C 0 km/h
2442 15-02-2010 09:06:31 -2.7 C 2.93 g/m*3 -2.7 C 0 km/h
2443 15-02-2010 09:31:31 -2.3 C 2.97 g/m*3 -2.3 C 0 km/h
2444 15-02-2010 09:56:32 -1.8 C 3.04 g/m*3 -1.8 C 0 km/h
2445 15-02-2010 10:21:32 -1.4 C 3.03 g/m*3 -1.4 C 0 km/h
2446 15-02-2010 10:46:32 -0.2 C 3.11 g/m*3 -0.2 C 0 km/h
2447 15-02-2010 11:11:32 -0.3 C 3.04 g/m*3 -0.3 C 0 km/h
2448 15-02-2010 11:36:32 -0.2 C 3.11 g/m*3 -0.2 C 0 km/h
2449 15-02-2010 12:01:32 0.3 C 3.07 g/m*3 0.3 C 0 km/h
2450 15-02-2010 12:26:32 0.9 C 3.2 g/m*3 0.9 C 0 km/h
Sensor: Nr:Datum:Temp:Abs-Feuchte:Windchill:Wind:
Aussen-T/F 2451 15-02-2010 12:51:32 1.2 C 3.21 g/m*3 1.2 C 0 km/h
2452 15-02-2010 13:16:32 1.6 C 3.24 g/m*3 1.6 C 0 km/h
2453 15-02-2010 13:41:32 1.8 C 3.29 g/m*3 1.8 C 0 km/h
2454 15-02-2010 14:06:32 2.2 C 3.21 g/m*3 2.2 C 0 km/h
2455 15-02-2010 14:31:32 1.4 C 3.2 g/m*3 1.4 C 0 km/h
2456 15-02-2010 14:56:32 1.6 C 3.41 g/m*3 1.6 C 0 km/h
2457 15-02-2010 15:21:32 1.8 C 3.45 g/m*3 1.8 C 0 km/h
2458 15-02-2010 15:46:32 1.8 C 3.4 g/m*3 1.8 C 0 km/h
2459 15-02-2010 16:11:32 1.5 C 3.38 g/m*3 1.5 C 0 km/h
2460 15-02-2010 16:36:32 1.3 C 3.44 g/m*3 1.3 C 0 km/h
2461 15-02-2010 17:01:32 0.7 C 3.46 g/m*3 0.7 C 0 km/h
2462 15-02-2010 17:26:32 0.3 C 3.46 g/m*3 0.3 C 0 km/h
2463 15-02-2010 17:51:32 -0.2 C 3.39 g/m*3 -0.2 C 0 km/h
2464 15-02-2010 18:16:33 -0.4 C 3.44 g/m*3 -0.4 C 0 km/h
2465 15-02-2010 18:41:33 -0.6 C 3.44 g/m*3 -0.6 C 0 km/h
2466 15-02-2010 19:06:33 -0.9 C 3.46 g/m*3 -0.9 C 0 km/h
2467 15-02-2010 19:31:33 -1 C 3.44 g/m*3 -1 C 0 km/h
2468 15-02-2010 19:56:33 -1 C 3.48 g/m*3 -1 C 0 km/h
2469 15-02-2010 20:21:33 -1.2 C 3.43 g/m*3 -1.2 C 0 km/h
2470 15-02-2010 20:46:33 -1.3 C 3.41 g/m*3 -1.3 C 0 km/h
2471 15-02-2010 21:11:33 -1.2 C 3.43 g/m*3 -1.2 C 0 km/h
2472 15-02-2010 21:36:33 -1.2 C 3.48 g/m*3 -1.2 C 0 km/h
2473 15-02-2010 22:01:33 -1 C 3.57 g/m*3 -1 C 0 km/h
2474 15-02-2010 22:26:33 -1 C 3.53 g/m*3 -1 C 0 km/h
2475 15-02-2010 22:51:33 -1.2 C 3.48 g/m*3 -1.2 C 0 km/h
Sensor: Nr:Datum:Temp:Abs-Feuchte:Windchill:Wind:
Aussen-T/F 2476 15-02-2010 23:16:33 -1.2 C 3.48 g/m*3 -1.2 C 0 km/h
2477 15-02-2010 23:41:33 -1.3 C 3.45 g/m*3 -1.3 C 0 km/h
2478 16-02-2010 00:06:33 -1.4 C 3.43 g/m*3 -1.4 C 0 km/h
2479 16-02-2010 00:31:33 -2.1 C 3.22 g/m*3 -2.1 C 0 km/h
2480 16-02-2010 00:56:33 -2.7 C 3.13 g/m*3 -2.7 C 0 km/h
2481 16-02-2010 01:21:33 -2.9 C 3.13 g/m*3 -2.9 C 0 km/h
2482 16-02-2010 01:46:33 -2.9 C 3.16 g/m*3 -2.9 C 0 km/h
2483 16-02-2010 02:11:33 -2.9 C 3.16 g/m*3 -2.9 C 0 km/h
2484 16-02-2010 02:36:33 -3.2 C 3.1 g/m*3 -3.2 C 0 km/h
2485 16-02-2010 03:01:34 -3.3 C 3.08 g/m*3 -3.3 C 0 km/h
2486 16-02-2010 03:26:34 -3.4 C 3.09 g/m*3 -3.4 C 0 km/h
2487 16-02-2010 03:51:34 -3.1 C 3.16 g/m*3 -3.1 C 0 km/h
2488 16-02-2010 04:16:34 -2.9 C 3.2 g/m*3 -2.9 C 0 km/h
2489 16-02-2010 04:41:34 -2.7 C 3.29 g/m*3 -2.7 C 0 km/h
2490 16-02-2010 05:06:34 -2.7 C 3.25 g/m*3 -2.7 C 0 km/h
2491 16-02-2010 05:31:34 -2.7 C 3.25 g/m*3 -2.7 C 0 km/h
2492 16-02-2010 05:56:34 -2.6 C 3.27 g/m*3 -2.6 C 0 km/h
2493 16-02-2010 06:21:34 -2.3 C 3.34 g/m*3 -2.3 C 0 km/h
2494 16-02-2010 06:46:34 -2.3 C 3.3 g/m*3 -2.3 C 0 km/h
2495 16-02-2010 07:11:34 -2.5 C 3.26 g/m*3 -2.5 C 0 km/h
2496 16-02-2010 07:36:34 -2.8 C 3.19 g/m*3 -2.8 C 0 km/h
2497 16-02-2010 08:01:34 -2.8 C 3.19 g/m*3 -2.8 C 0 km/h
2498 16-02-2010 08:26:34 -2.5 C 3.3 g/m*3 -2.5 C 0 km/h
2499 16-02-2010 08:51:34 -1.9 C 3.4 g/m*3 -1.9 C 0 km/h
2500 16-02-2010 09:16:34 -1.4 C 3.47 g/m*3 -1.4 C 0 km/h
Sensor: Nr:Datum:Temp:Abs-Feuchte:Windchill:Wind:
Aussen-T/F 2501 16-02-2010 09:41:34 -0.7 C 3.51 g/m*3 -0.7 C 0 km/h
2502 16-02-2010 10:06:34 -0.6 C 3.35 g/m*3 -0.6 C 0 km/h
2503 16-02-2010 10:31:34 0.1 C 3.42 g/m*3 0.1 C 0 km/h
2504 16-02-2010 10:56:34 -0.1 C 3.27 g/m*3 -0.1 C 0 km/h
2505 16-02-2010 11:21:34 0.3 C 3.31 g/m*3 0.3 C 0 km/h
2506 16-02-2010 11:46:35 0.4 C 3.19 g/m*3 0.4 C 0 km/h
2507 16-02-2010 12:11:35 1.2 C 3.31 g/m*3 1.2 C 0 km/h
2508 16-02-2010 12:36:35 2.4 C 2.91 g/m*3 2.4 C 0 km/h
2509 16-02-2010 13:01:35 2.8 C 2.76 g/m*3 2.8 C 0 km/h
2510 16-02-2010 13:26:35 2.9 C 2.6 g/m*3 2.9 C 0 km/h
2511 16-02-2010 13:51:35 2.8 C 2.7 g/m*3 2.8 C 0 km/h
2512 16-02-2010 14:16:35 3.5 C 2.64 g/m*3 3.5 C 0 km/h
2513 16-02-2010 14:41:35 3.4 C 2.57 g/m*3 3.4 C 0 km/h
2514 16-02-2010 15:06:35 3.2 C 2.53 g/m*3 3.2 C 0 km/h
2515 16-02-2010 15:31:35 3.9 C 2.4 g/m*3 3.9 C 0 km/h
2516 16-02-2010 15:56:35 4.5 C 2.43 g/m*3 4.5 C 0 km/h
2517 16-02-2010 16:21:35 4.4 C 2.42 g/m*3 4.4 C 0 km/h
2518 16-02-2010 16:46:35 4.1 C 2.43 g/m*3 4.1 C 0 km/h
2519 16-02-2010 17:11:35 2.8 C 2.58 g/m*3 2.8 C 0 km/h
2520 16-02-2010 17:36:35 1.1 C 2.61 g/m*3 1.1 C 0 km/h
2521 16-02-2010 18:01:35 -0.2 C 2.63 g/m*3 -0.2 C 0 km/h
2522 16-02-2010 18:26:35 -1.4 C 2.73 g/m*3 -1.4 C 0 km/h
2523 16-02-2010 18:51:35 -2 C 2.74 g/m*3 -2 C 0 km/h
2524 16-02-2010 19:16:35 -2.5 C 2.73 g/m*3 -2.5 C 0 km/h
2525 16-02-2010 19:41:35 -2.7 C 2.77 g/m*3 -2.7 C 0 km/h
Sensor: Nr:Datum:Temp:Abs-Feuchte:Windchill:Wind:
Aussen-T/F 2526 16-02-2010 20:06:36 -3 C 2.75 g/m*3 -3 C 0 km/h
2527 16-02-2010 20:31:36 -3.2 C 2.75 g/m*3 -3.2 C 0 km/h
2528 16-02-2010 20:56:36 -3.6 C 2.67 g/m*3 -3.6 C 0 km/h
2529 16-02-2010 21:21:36 -3.8 C 2.67 g/m*3 -3.8 C 0 km/h
2530 16-02-2010 21:46:36 -4.1 C 2.62 g/m*3 -4.1 C 0 km/h
2531 16-02-2010 22:11:36 -4.2 C 2.63 g/m*3 -4.2 C 0 km/h
2532 16-02-2010 22:36:36 -4.5 C 2.58 g/m*3 -4.5 C 0 km/h
2533 16-02-2010 23:01:36 -4.7 C 2.54 g/m*3 -4.7 C 0 km/h
2534 16-02-2010 23:26:36 -4.9 C 2.5 g/m*3 -4.9 C 0 km/h
2535 16-02-2010 23:51:36 -5.1 C 2.47 g/m*3 -5.1 C 0 km/h
2536 17-02-2010 00:16:36 -5.4 C 2.41 g/m*3 -5.4 C 0 km/h
2537 17-02-2010 00:41:36 -5.7 C 2.36 g/m*3 -5.7 C 0 km/h
2538 17-02-2010 01:06:36 -6 C 2.34 g/m*3 -6 C 0 km/h
2539 17-02-2010 01:31:36 -6.2 C 2.31 g/m*3 -6.2 C 0 km/h
2540 17-02-2010 01:56:36 -6.5 C 2.26 g/m*3 -6.5 C 0 km/h
2541 17-02-2010 02:21:36 -6.6 C 2.27 g/m*3 -6.6 C 0 km/h
2542 17-02-2010 02:46:36 -6.8 C 2.24 g/m*3 -6.8 C 0 km/h
2543 17-02-2010 03:11:36 -6.9 C 2.22 g/m*3 -6.9 C 0 km/h
2544 17-02-2010 03:36:36 -6.2 C 2.37 g/m*3 -6.2 C 0 km/h
2545 17-02-2010 04:01:36 -5.8 C 2.44 g/m*3 -5.8 C 0 km/h
2546 17-02-2010 04:26:36 -5.5 C 2.5 g/m*3 -5.5 C 0 km/h
2547 17-02-2010 04:51:37 -5.3 C 2.5 g/m*3 -5.3 C 0 km/h
2548 17-02-2010 05:16:37 -5.2 C 2.48 g/m*3 -5.2 C 0 km/h
2549 17-02-2010 05:41:37 -4.9 C 2.54 g/m*3 -4.9 C 0 km/h
2550 17-02-2010 06:06:37 -4.9 C 2.54 g/m*3 -4.9 C 0 km/h
Sensor: Nr:Datum:Temp:Abs-Feuchte:Windchill:Wind:
Aussen-T/F 2551 17-02-2010 06:31:37 -4.7 C 2.57 g/m*3 -4.7 C 0 km/h
2552 17-02-2010 06:56:37 -4.5 C 2.61 g/m*3 -4.5 C 0 km/h
2553 17-02-2010 07:21:37 -4.4 C 2.6 g/m*3 -4.4 C 0 km/h
2554 17-02-2010 07:46:37 -4.1 C 2.62 g/m*3 -4.1 C 0 km/h
2555 17-02-2010 08:11:37 -3.8 C 2.67 g/m*3 -3.8 C 0 km/h
2556 17-02-2010 08:36:37 -3.4 C 2.71 g/m*3 -3.4 C 0 km/h
2557 17-02-2010 09:01:37 -3.1 C 2.65 g/m*3 -3.1 C 0 km/h
2558 17-02-2010 09:26:37 -2.9 C 2.49 g/m*3 -2.9 C 0 km/h
2559 17-02-2010 09:51:37 -2.7 C 2.53 g/m*3 -2.7 C 0 km/h
2560 17-02-2010 10:16:37 -2.7 C 2.53 g/m*3 -2.7 C 0 km/h
2561 17-02-2010 10:41:37 -2.2 C 2.54 g/m*3 -2.2 C 0 km/h
2562 17-02-2010 11:06:37 -1.4 C 2.73 g/m*3 -1.4 C 0 km/h
2563 17-02-2010 11:31:37 -0.6 C 2.79 g/m*3 -0.6 C 0 km/h
2564 17-02-2010 11:56:37 1 C 2.91 g/m*3 1 C 0 km/h
2565 17-02-2010 12:21:37 2.7 C 2.8 g/m*3 2.7 C 0 km/h
2566 17-02-2010 12:46:37 3.5 C 2.71 g/m*3 3.5 C 0 km/h
2567 17-02-2010 13:11:38 2.9 C 2.72 g/m*3 2.9 C 0 km/h
2568 17-02-2010 13:36:38 2.8 C 2.7 g/m*3 2.8 C 0 km/h
2569 17-02-2010 14:01:38 2.7 C 2.97 g/m*3 2.7 C 0 km/h
2570 17-02-2010 14:26:38 2.1 C 3.3 g/m*3 2.1 C 0 km/h
2571 17-02-2010 14:51:38 2.1 C 3.58 g/m*3 2.1 C 0 km/h
2572 17-02-2010 15:16:38 1.3 C 3.81 g/m*3 1.3 C 0 km/h
2573 17-02-2010 15:41:38 1.2 C 4 g/m*3 1.2 C 0 km/h
2574 17-02-2010 16:06:38 1.3 C 4.13 g/m*3 1.3 C 0 km/h
2575 17-02-2010 16:31:38 1 C 4.15 g/m*3 1 C 0 km/h
Sensor: Nr:Datum:Temp:Abs-Feuchte:Windchill:Wind:
Aussen-T/F 2576 17-02-2010 16:56:38 0.9 C 4.23 g/m*3 0.9 C 0 km/h
2577 17-02-2010 17:21:38 0.7 C 4.17 g/m*3 0.7 C 0 km/h
2578 17-02-2010 17:46:38 0.6 C 4.19 g/m*3 0.6 C 0 km/h
2579 17-02-2010 18:11:38 0.5 C 4.21 g/m*3 0.5 C 0 km/h
2580 17-02-2010 18:36:38 0.5 C 4.31 g/m*3 0.5 C 0 km/h
2581 17-02-2010 19:01:38 0.5 C 4.36 g/m*3 0.5 C 0 km/h
2582 17-02-2010 19:26:38 0.5 C 4.36 g/m*3 0.5 C 0 km/h
2583 17-02-2010 19:51:38 0.5 C 4.41 g/m*3 0.5 C 0 km/h
2584 17-02-2010 20:16:38 0.7 C 4.53 g/m*3 0.7 C 0 km/h
2585 17-02-2010 20:41:38 0.7 C 4.53 g/m*3 0.7 C 0 km/h
2586 17-02-2010 21:06:38 0.7 C 4.53 g/m*3 0.7 C 0 km/h
2587 17-02-2010 21:31:38 0.8 C 4.51 g/m*3 0.8 C 0 km/h
2588 17-02-2010 21:56:39 0.8 C 4.56 g/m*3 0.8 C 0 km/h
2589 17-02-2010 22:21:39 0.8 C 4.51 g/m*3 0.8 C 0 km/h
2590 17-02-2010 22:46:39 0.8 C 4.51 g/m*3 0.8 C 0 km/h
2591 17-02-2010 23:11:39 0.8 C 4.51 g/m*3 0.8 C 0 km/h
2592 17-02-2010 23:36:39 0.8 C 4.51 g/m*3 0.8 C 0 km/h
2593 18-02-2010 00:01:39 0.8 C 4.51 g/m*3 0.8 C 0 km/h
2594 18-02-2010 00:26:39 0.9 C 4.54 g/m*3 0.9 C 0 km/h
2595 18-02-2010 00:51:39 0.9 C 4.54 g/m*3 0.9 C 0 km/h
2596 18-02-2010 01:16:39 1 C 4.57 g/m*3 1 C 0 km/h
2597 18-02-2010 01:41:39 1 C 4.57 g/m*3 1 C 0 km/h
2598 18-02-2010 02:06:39 1 C 4.57 g/m*3 1 C 0 km/h
2599 18-02-2010 02:31:39 1.2 C 4.63 g/m*3 1.2 C 0 km/h
2600 18-02-2010 02:56:39 1 C 4.57 g/m*3 1 C 0 km/h
Sensor: Nr:Datum:Temp:Abs-Feuchte:Windchill:Wind:
Aussen-T/F 2601 18-02-2010 03:21:39 1.2 C 4.63 g/m*3 1.2 C 0 km/h
2602 18-02-2010 03:46:39 1 C 4.57 g/m*3 1 C 0 km/h
2603 18-02-2010 04:11:39 1 C 4.62 g/m*3 1 C 0 km/h
2604 18-02-2010 04:36:39 1 C 4.62 g/m*3 1 C 0 km/h
2605 18-02-2010 05:01:39 1.2 C 4.68 g/m*3 1.2 C 0 km/h
2606 18-02-2010 05:26:39 1 C 4.62 g/m*3 1 C 0 km/h
2607 18-02-2010 05:51:39 1.1 C 4.65 g/m*3 1.1 C 0 km/h
2608 18-02-2010 06:16:40 1.1 C 4.65 g/m*3 1.1 C 0 km/h
2609 18-02-2010 06:41:40 1.2 C 4.74 g/m*3 1.2 C 0 km/h
2610 18-02-2010 07:06:40 1.1 C 4.7 g/m*3 1.1 C 0 km/h
2611 18-02-2010 07:31:40 1.1 C 4.7 g/m*3 1.1 C 0 km/h
2612 18-02-2010 07:56:40 1.1 C 4.7 g/m*3 1.1 C 0 km/h
2613 18-02-2010 08:21:40 1.1 C 4.76 g/m*3 1.1 C 0 km/h
2614 18-02-2010 08:46:40 1.4 C 4.85 g/m*3 1.4 C 0 km/h
2615 18-02-2010 09:11:40 1.7 C 5.01 g/m*3 1.7 C 0 km/h
2616 18-02-2010 09:36:40 2 C 5.06 g/m*3 2 C 0 km/h
2617 18-02-2010 10:01:40 2.6 C 5.32 g/m*3 2.6 C 0 km/h
2618 18-02-2010 10:26:40 3.6 C 5.63 g/m*3 3.6 C 0 km/h
2619 18-02-2010 10:51:40 3.8 C 5.58 g/m*3 3.8 C 0 km/h
2620 18-02-2010 11:16:40 4.1 C 5.25 g/m*3 4.1 C 0 km/h
2621 18-02-2010 11:41:40 4.4 C 5.03 g/m*3 4.4 C 0 km/h
2622 18-02-2010 12:06:40 4.7 C 4.86 g/m*3 4.7 C 0 km/h
2623 18-02-2010 12:31:40 5.1 C 4.65 g/m*3 5.1 C 0 km/h
2624 18-02-2010 12:56:40 5.8 C 4.58 g/m*3 5.8 C 0 km/h
2625 18-02-2010 13:21:40 6.8 C 4.36 g/m*3 6.8 C 0 km/h
Sensor: Nr:Datum:Temp:Abs-Feuchte:Windchill:Wind:
Aussen-T/F 2626 18-02-2010 13:46:40 7.4 C 4.14 g/m*3 7.4 C 0 km/h
2627 18-02-2010 14:11:40 8 C 4.13 g/m*3 8 C 0 km/h
2628 18-02-2010 14:36:41 8.5 C 4.1 g/m*3 8.5 C 0 km/h
2629 18-02-2010 15:01:41 9.1 C 3.73 g/m*3 9.1 C 0 km/h
2630 18-02-2010 15:26:41 9.5 C 3.64 g/m*3 9.5 C 0 km/h
2631 18-02-2010 15:51:41 10.1 C 3.59 g/m*3 10.1 C 0 km/h
2632 18-02-2010 16:16:41 9.6 C 3.57 g/m*3 9.6 C 0 km/h
2633 18-02-2010 16:41:41 9.3 C 3.59 g/m*3 9.3 C 0 km/h
2634 18-02-2010 17:06:41 7.5 C 3.36 g/m*3 7.5 C 0 km/h
2635 18-02-2010 17:31:41 6.3 C 3.55 g/m*3 6.3 C 0 km/h
2636 18-02-2010 17:56:41 5.6 C 3.68 g/m*3 5.6 C 0 km/h
2637 18-02-2010 18:21:41 4 C 3.88 g/m*3 4 C 0 km/h
2638 18-02-2010 18:46:41 3.2 C 3.98 g/m*3 3.2 C 0 km/h
2639 18-02-2010 19:11:41 2.6 C 4.11 g/m*3 2.6 C 0 km/h
2640 18-02-2010 19:36:41 2.5 C 4.2 g/m*3 2.5 C 0 km/h
2641 18-02-2010 20:01:41 2.1 C 4.08 g/m*3 2.1 C 0 km/h
2642 18-02-2010 20:26:41 2 C 4.17 g/m*3 2 C 0 km/h
2643 18-02-2010 20:51:41 1.6 C 4.16 g/m*3 1.6 C 0 km/h
2644 18-02-2010 21:16:41 1.4 C 4.21 g/m*3 1.4 C 0 km/h
2645 18-02-2010 21:41:41 1.4 C 4.21 g/m*3 1.4 C 0 km/h
2646 18-02-2010 22:06:41 1.7 C 4.3 g/m*3 1.7 C 0 km/h
2647 18-02-2010 22:31:41 2 C 4.33 g/m*3 2 C 0 km/h
2648 18-02-2010 22:56:42 1.9 C 4.36 g/m*3 1.9 C 0 km/h
2649 18-02-2010 23:21:42 1.7 C 4.3 g/m*3 1.7 C 0 km/h
2650 18-02-2010 23:46:42 1.9 C 4.53 g/m*3 1.9 C 0 km/h
Sensor: Nr:Datum:Temp:Abs-Feuchte:Windchill:Wind:
Aussen-T/F 2651 19-02-2010 00:11:42 2.1 C 4.59 g/m*3 2.1 C 0 km/h
2652 19-02-2010 00:36:42 1.8 C 4.55 g/m*3 1.8 C 0 km/h
2653 19-02-2010 01:01:42 2 C 4.67 g/m*3 2 C 0 km/h
2654 19-02-2010 01:26:42 2 C 4.67 g/m*3 2 C 0 km/h
2655 19-02-2010 01:51:42 2.1 C 4.76 g/m*3 2.1 C 0 km/h
2656 19-02-2010 02:16:42 2.1 C 4.7 g/m*3 2.1 C 0 km/h
2657 19-02-2010 02:41:42 2 C 4.67 g/m*3 2 C 0 km/h
2658 19-02-2010 03:06:42 1.8 C 4.66 g/m*3 1.8 C 0 km/h
2659 19-02-2010 03:31:42 1.8 C 4.71 g/m*3 1.8 C 0 km/h
2660 19-02-2010 03:56:42 1.6 C 4.7 g/m*3 1.6 C 0 km/h
2661 19-02-2010 04:21:42 1.6 C 4.7 g/m*3 1.6 C 0 km/h
2662 19-02-2010 04:46:42 1.6 C 4.7 g/m*3 1.6 C 0 km/h
2663 19-02-2010 05:11:42 1.7 C 4.79 g/m*3 1.7 C 0 km/h
2664 19-02-2010 05:36:42 1.8 C 4.77 g/m*3 1.8 C 0 km/h
2665 19-02-2010 06:01:42 1.9 C 4.8 g/m*3 1.9 C 0 km/h
2666 19-02-2010 06:26:42 2.1 C 4.76 g/m*3 2.1 C 0 km/h
2667 19-02-2010 06:51:42 2 C 4.67 g/m*3 2 C 0 km/h
2668 19-02-2010 07:16:42 1.7 C 4.63 g/m*3 1.7 C 0 km/h
2669 19-02-2010 07:41:43 1.5 C 4.57 g/m*3 1.5 C 0 km/h
2670 19-02-2010 08:06:43 1.5 C 4.62 g/m*3 1.5 C 0 km/h
2671 19-02-2010 08:31:43 1.6 C 4.65 g/m*3 1.6 C 0 km/h
2672 19-02-2010 08:56:43 2.1 C 4.81 g/m*3 2.1 C 0 km/h
2673 19-02-2010 09:21:43 2.5 C 4.83 g/m*3 2.5 C 0 km/h
2674 19-02-2010 09:46:43 3.1 C 4.91 g/m*3 3.1 C 0 km/h
2675 19-02-2010 10:11:43 3.7 C 5.05 g/m*3 3.7 C 0 km/h
Sensor: Nr:Datum:Temp:Abs-Feuchte:Windchill:Wind:
Aussen-T/F 2676 19-02-2010 10:36:02 4.6 C 5.1 g/m*3 4.6 C 0 km/h
2677 19-02-2010 11:01:02 5.3 C 5.06 g/m*3 5.3 C 0 km/h
2678 19-02-2010 11:26:01 6 C 4.79 g/m*3 6 C 0 km/h
2679 19-02-2010 11:51:02 6.5 C 4.72 g/m*3 6.5 C 0 km/h
2680 19-02-2010 12:16:02 7 C 4.49 g/m*3 7 C 0 km/h
2681 19-02-2010 12:41:02 7.6 C 4.27 g/m*3 7.6 C 0 km/h
2682 19-02-2010 13:06:02 7.6 C 4.11 g/m*3 7.6 C 0 km/h
2683 19-02-2010 13:31:02 7.7 C 4.05 g/m*3 7.7 C 0 km/h
2684 19-02-2010 13:56:02 7.6 C 3.95 g/m*3 7.6 C 0 km/h
2685 19-02-2010 14:21:01 7.5 C 4 g/m*3 7.5 C 0 km/h
2686 19-02-2010 14:46:02 7.5 C 3.92 g/m*3 7.5 C 0 km/h
2687 19-02-2010 15:11:03 7.8 C 3.67 g/m*3 7.8 C 0 km/h
2688 19-02-2010 15:36:02 7.2 C 3.53 g/m*3 7.2 C 0 km/h
2689 19-02-2010 16:01:02 6.3 C 3.33 g/m*3 6.3 C 0 km/h
2690 19-02-2010 16:26:01 6.1 C 3.29 g/m*3 6.1 C 0 km/h
2691 19-02-2010 16:51:01 5.5 C 3.23 g/m*3 5.5 C 0 km/h
2692 19-02-2010 17:16:02 5 C 3.06 g/m*3 5 C 0 km/h
2693 19-02-2010 17:41:02 5.1 C 3.01 g/m*3 5.1 C 0 km/h
2694 19-02-2010 18:06:02 4.5 C 3.02 g/m*3 4.5 C 0 km/h
2695 19-02-2010 18:31:02 4.1 C 3.07 g/m*3 4.1 C 0 km/h
2696 19-02-2010 18:56:01 3.7 C 3.18 g/m*3 3.7 C 0 km/h
2697 19-02-2010 19:21:01 3.6 C 3.22 g/m*3 3.6 C 0 km/h
2698 19-02-2010 19:46:02 3.6 C 3.28 g/m*3 3.6 C 0 km/h
2699 19-02-2010 20:11:02 3.3 C 3.34 g/m*3 3.3 C 0 km/h
2700 19-02-2010 20:36:02 3.3 C 3.46 g/m*3 3.3 C 0 km/h
Sensor: Nr:Datum:Temp:Abs-Feuchte:Windchill:Wind:
Aussen-T/F 2701 19-02-2010 21:14:02 3.3 C 3.52 g/m*3 3.3 C 0 km/h
2702 19-02-2010 21:26:02 3.2 C 3.56 g/m*3 3.2 C 0 km/h
2703 19-02-2010 21:38:01 3.2 C 3.5 g/m*3 3.2 C 0 km/h
2704 19-02-2010 21:50:01 3.1 C 3.53 g/m*3 3.1 C 0 km/h
2705 19-02-2010 22:02:02 2.8 C 3.52 g/m*3 2.8 C 0 km/h
2706 19-02-2010 22:14:02 2.6 C 3.53 g/m*3 2.6 C 0 km/h
2707 19-02-2010 22:26:01 2.6 C 3.47 g/m*3 2.6 C 0 km/h
2708 19-02-2010 22:38:02 2.4 C 3.43 g/m*3 2.4 C 0 km/h
2709 19-02-2010 22:50:01 2.2 C 3.38 g/m*3 2.2 C 0 km/h
2710 19-02-2010 23:02:02 2.1 C 3.36 g/m*3 2.1 C 0 km/h
2711 19-02-2010 23:14:02 2.5 C 3.22 g/m*3 2.5 C 0 km/h
2712 19-02-2010 23:26:01 2.5 C 3.16 g/m*3 2.5 C 0 km/h
2713 19-02-2010 23:38:02 2.2 C 3.21 g/m*3 2.2 C 0 km/h
2714 19-02-2010 23:50:01 1.6 C 3.24 g/m*3 1.6 C 0 km/h
2715 20-02-2010 00:02:02 1.5 C 3.33 g/m*3 1.5 C 0 km/h
2716 20-02-2010 00:14:02 1.4 C 3.31 g/m*3 1.4 C 0 km/h
2717 20-02-2010 00:26:02 1.2 C 3.37 g/m*3 1.2 C 0 km/h
2718 20-02-2010 00:38:01 1.1 C 3.4 g/m*3 1.1 C 0 km/h
2719 20-02-2010 00:50:02 0.7 C 3.41 g/m*3 0.7 C 0 km/h
2720 20-02-2010 01:02:01 0.4 C 3.39 g/m*3 0.4 C 0 km/h
2721 20-02-2010 01:14:01 0.1 C 3.42 g/m*3 0.1 C 0 km/h
2722 20-02-2010 01:26:01 -0.1 C 3.46 g/m*3 -0.1 C 0 km/h
2723 20-02-2010 01:38:02 -0.1 C 3.51 g/m*3 -0.1 C 0 km/h
2724 20-02-2010 01:50:02 -0.1 C 3.56 g/m*3 -0.1 C 0 km/h
2725 20-02-2010 02:02:02 -0.2 C 3.58 g/m*3 -0.2 C 0 km/h
Sensor: Nr:Datum:Temp:Abs-Feuchte:Windchill:Wind:
Aussen-T/F 2726 20-02-2010 02:14:02 -0.3 C 3.56 g/m*3 -0.3 C 0 km/h
2727 20-02-2010 02:26:02 -0.3 C 3.61 g/m*3 -0.3 C 0 km/h
2728 20-02-2010 02:38:02 -0.4 C 3.58 g/m*3 -0.4 C 0 km/h
2729 20-02-2010 02:50:01 -0.4 C 3.58 g/m*3 -0.4 C 0 km/h
2730 20-02-2010 03:02:01 -0.4 C 3.58 g/m*3 -0.4 C 0 km/h
2731 20-02-2010 03:14:01 -0.7 C 3.46 g/m*3 -0.7 C 0 km/h
2732 20-02-2010 03:26:01 -0.7 C 3.51 g/m*3 -0.7 C 0 km/h
2733 20-02-2010 03:38:02 -0.8 C 3.48 g/m*3 -0.8 C 0 km/h
2734 20-02-2010 03:50:02 -1 C 3.44 g/m*3 -1 C 0 km/h
2735 20-02-2010 04:02:01 -0.9 C 3.51 g/m*3 -0.9 C 0 km/h
2736 20-02-2010 04:14:01 -0.7 C 3.55 g/m*3 -0.7 C 0 km/h
2737 20-02-2010 04:26:01 -0.7 C 3.51 g/m*3 -0.7 C 0 km/h
2738 20-02-2010 04:38:02 -0.4 C 3.58 g/m*3 -0.4 C 0 km/h
2739 20-02-2010 04:50:01 -0.2 C 3.58 g/m*3 -0.2 C 0 km/h
2740 20-02-2010 05:02:01 -0.1 C 3.61 g/m*3 -0.1 C 0 km/h
2741 20-02-2010 05:14:01 -0.2 C 3.54 g/m*3 -0.2 C 0 km/h
2742 20-02-2010 05:26:01 -0.2 C 3.58 g/m*3 -0.2 C 0 km/h
2743 20-02-2010 05:38:02 -0.2 C 3.58 g/m*3 -0.2 C 0 km/h
2744 20-02-2010 05:50:01 0 C 3.63 g/m*3 0 C 0 km/h
2745 20-02-2010 06:02:02 -0.2 C 3.58 g/m*3 -0.2 C 0 km/h
2746 20-02-2010 06:14:02 0.1 C 3.71 g/m*3 0.1 C 0 km/h
2747 20-02-2010 06:26:01 0.4 C 3.79 g/m*3 0.4 C 0 km/h
2748 20-02-2010 06:38:01 0.3 C 3.76 g/m*3 0.3 C 0 km/h
2749 20-02-2010 06:50:01 0 C 3.68 g/m*3 0 C 0 km/h
2750 20-02-2010 07:02:01 -0.2 C 3.68 g/m*3 -0.2 C 0 km/h
Sensor: Nr:Datum:Temp:Abs-Feuchte:Windchill:Wind:
Aussen-T/F 2751 20-02-2010 07:14:02 -0.5 C 3.65 g/m*3 -0.5 C 0 km/h
2752 20-02-2010 07:26:01 -0.6 C 3.67 g/m*3 -0.6 C 0 km/h
2753 20-02-2010 07:38:01 -0.6 C 3.72 g/m*3 -0.6 C 0 km/h
2754 20-02-2010 07:50:01 -0.6 C 3.76 g/m*3 -0.6 C 0 km/h
2755 20-02-2010 08:02:02 -0.2 C 3.92 g/m*3 -0.2 C 0 km/h
2756 20-02-2010 08:14:02 0.1 C 3.95 g/m*3 0.1 C 0 km/h
2757 20-02-2010 08:26:01 0.4 C 3.98 g/m*3 0.4 C 0 km/h
2758 20-02-2010 08:38:01 0.7 C 3.97 g/m*3 0.7 C 0 km/h
2759 20-02-2010 08:50:01 1 C 3.94 g/m*3 1 C 0 km/h
2760 20-02-2010 09:02:02 1.2 C 3.95 g/m*3 1.2 C 0 km/h
2761 20-02-2010 09:14:02 1.4 C 3.89 g/m*3 1.4 C 0 km/h
2762 20-02-2010 09:26:01 1.5 C 3.87 g/m*3 1.5 C 0 km/h
2763 20-02-2010 09:38:01 1.2 C 3.79 g/m*3 1.2 C 0 km/h
2764 20-02-2010 09:50:01 1.2 C 3.74 g/m*3 1.2 C 0 km/h
2765 20-02-2010 10:02:01 1.3 C 3.76 g/m*3 1.3 C 0 km/h
2766 20-02-2010 10:14:01 1.4 C 3.73 g/m*3 1.4 C 0 km/h
2767 20-02-2010 10:26:01 1.5 C 3.71 g/m*3 1.5 C 0 km/h
2768 20-02-2010 10:38:01 1.7 C 3.76 g/m*3 1.7 C 0 km/h
2769 20-02-2010 10:50:01 1.8 C 3.73 g/m*3 1.8 C 0 km/h
2770 20-02-2010 11:02:01 2.1 C 3.75 g/m*3 2.1 C 0 km/h
2771 20-02-2010 11:14:01 3 C 3.63 g/m*3 3 C 0 km/h
2772 20-02-2010 11:26:01 3.3 C 3.58 g/m*3 3.3 C 0 km/h
2773 20-02-2010 11:38:01 3.7 C 3.61 g/m*3 3.7 C 0 km/h
2774 20-02-2010 11:50:01 4.1 C 3.46 g/m*3 4.1 C 0 km/h
2775 20-02-2010 12:02:01 4.1 C 3.33 g/m*3 4.1 C 0 km/h
Sensor: Nr:Datum:Temp:Abs-Feuchte:Windchill:Wind:
Aussen-T/F 2776 20-02-2010 12:14:01 3.9 C 3.47 g/m*3 3.9 C 0 km/h
2777 20-02-2010 12:26:02 4.1 C 3.39 g/m*3 4.1 C 0 km/h
2778 20-02-2010 12:38:01 3.8 C 3.45 g/m*3 3.8 C 0 km/h
2779 20-02-2010 12:50:01 4.2 C 3.41 g/m*3 4.2 C 0 km/h
2780 20-02-2010 13:02:01 4.2 C 3.22 g/m*3 4.2 C 0 km/h
2781 20-02-2010 13:14:01 4.3 C 3.18 g/m*3 4.3 C 0 km/h
2782 20-02-2010 13:26:02 4.5 C 3.22 g/m*3 4.5 C 0 km/h
2783 20-02-2010 13:38:01 4.5 C 3.16 g/m*3 4.5 C 0 km/h
2784 20-02-2010 13:50:02 4.3 C 3.11 g/m*3 4.3 C 0 km/h
2785 20-02-2010 14:02:01 4.2 C 3.22 g/m*3 4.2 C 0 km/h
2786 20-02-2010 14:14:01 4.5 C 3.22 g/m*3 4.5 C 0 km/h
2787 20-02-2010 14:26:02 4.9 C 3.24 g/m*3 4.9 C 0 km/h
2788 20-02-2010 14:38:01 4.7 C 3.2 g/m*3 4.7 C 0 km/h
2789 20-02-2010 14:50:01 4.5 C 3.22 g/m*3 4.5 C 0 km/h
2790 20-02-2010 15:02:01 4.4 C 3.2 g/m*3 4.4 C 0 km/h
2791 20-02-2010 15:14:01 4.8 C 3.22 g/m*3 4.8 C 0 km/h
2792 20-02-2010 15:26:02 4.9 C 3.17 g/m*3 4.9 C 0 km/h
2793 20-02-2010 15:38:01 5.1 C 3.15 g/m*3 5.1 C 0 km/h
2794 20-02-2010 15:50:02 5.1 C 3.08 g/m*3 5.1 C 0 km/h
2795 20-02-2010 16:02:01 5 C 3.06 g/m*3 5 C 0 km/h
2796 20-02-2010 16:14:01 4.9 C 3.11 g/m*3 4.9 C 0 km/h
2797 20-02-2010 16:26:02 5 C 3.06 g/m*3 5 C 0 km/h
2798 20-02-2010 16:38:01 5.2 C 3.1 g/m*3 5.2 C 0 km/h
2799 20-02-2010 16:50:02 4.9 C 3.04 g/m*3 4.9 C 0 km/h
2800 20-02-2010 17:02:01 4.5 C 3.09 g/m*3 4.5 C 0 km/h
Sensor: Nr:Datum:Temp:Abs-Feuchte:Windchill:Wind:
Aussen-T/F 2801 20-02-2010 17:14:01 4.9 C 3.11 g/m*3 4.9 C 0 km/h
2802 20-02-2010 17:26:01 4.8 C 3.08 g/m*3 4.8 C 0 km/h
2803 20-02-2010 17:38:01 4.2 C 3.16 g/m*3 4.2 C 0 km/h
2804 20-02-2010 17:50:02 3.6 C 3.47 g/m*3 3.6 C 0 km/h
2805 20-02-2010 18:02:01 2.9 C 3.54 g/m*3 2.9 C 0 km/h
2806 20-02-2010 18:14:01 2.5 C 3.56 g/m*3 2.5 C 0 km/h
2807 20-02-2010 18:26:02 2.5 C 3.56 g/m*3 2.5 C 0 km/h
2808 20-02-2010 18:38:01 2.7 C 3.55 g/m*3 2.7 C 0 km/h
2809 20-02-2010 18:50:02 2.6 C 3.47 g/m*3 2.6 C 0 km/h
2810 20-02-2010 19:02:01 2.2 C 3.44 g/m*3 2.2 C 0 km/h
2811 20-02-2010 19:14:01 2 C 3.45 g/m*3 2 C 0 km/h
2812 20-02-2010 19:26:01 1.8 C 3.45 g/m*3 1.8 C 0 km/h
2813 20-02-2010 19:38:02 2 C 3.45 g/m*3 2 C 0 km/h
2814 20-02-2010 19:50:01 1.5 C 3.44 g/m*3 1.5 C 0 km/h
2815 20-02-2010 20:02:01 1.3 C 3.44 g/m*3 1.3 C 0 km/h
2816 20-02-2010 20:14:01 0.9 C 3.45 g/m*3 0.9 C 0 km/h
2817 20-02-2010 20:26:01 0.8 C 3.48 g/m*3 0.8 C 0 km/h
2818 20-02-2010 20:38:02 0.6 C 3.43 g/m*3 0.6 C 0 km/h
2819 20-02-2010 20:50:01 0.7 C 3.41 g/m*3 0.7 C 0 km/h
2820 20-02-2010 21:02:02 0.7 C 3.41 g/m*3 0.7 C 0 km/h
2821 20-02-2010 21:14:02 0.8 C 3.33 g/m*3 0.8 C 0 km/h
2822 20-02-2010 21:26:01 0.8 C 3.28 g/m*3 0.8 C 0 km/h
2823 20-02-2010 21:38:02 0.7 C 3.3 g/m*3 0.7 C 0 km/h
2824 20-02-2010 21:50:01 1 C 3.32 g/m*3 1 C 0 km/h
2825 20-02-2010 22:02:02 1.1 C 3.34 g/m*3 1.1 C 0 km/h
Sensor: Nr:Datum:Temp:Abs-Feuchte:Windchill:Wind:
Aussen-T/F 2826 20-02-2010 22:14:02 0.9 C 3.35 g/m*3 0.9 C 0 km/h
2827 20-02-2010 22:26:01 0.7 C 3.36 g/m*3 0.7 C 0 km/h
2828 20-02-2010 22:38:02 0.4 C 3.34 g/m*3 0.4 C 0 km/h
2829 20-02-2010 22:50:01 0.4 C 3.39 g/m*3 0.4 C 0 km/h
2830 20-02-2010 23:02:02 0.5 C 3.41 g/m*3 0.5 C 0 km/h
2831 20-02-2010 23:14:02 0.6 C 3.48 g/m*3 0.6 C 0 km/h
2832 20-02-2010 23:26:01 0.9 C 3.56 g/m*3 0.9 C 0 km/h
2833 20-02-2010 23:38:01 1.4 C 3.63 g/m*3 1.4 C 0 km/h
2834 20-02-2010 23:50:01 1.5 C 3.6 g/m*3 1.5 C 0 km/h
2835 21-02-2010 00:02:01 1.6 C 3.62 g/m*3 1.6 C 0 km/h
2836 21-02-2010 00:14:01 1.8 C 3.67 g/m*3 1.8 C 0 km/h
2837 21-02-2010 00:26:01 2.1 C 3.64 g/m*3 2.1 C 0 km/h
2838 21-02-2010 00:38:02 2.2 C 3.66 g/m*3 2.2 C 0 km/h
2839 21-02-2010 00:50:01 2.1 C 3.64 g/m*3 2.1 C 0 km/h
2840 21-02-2010 01:02:02 2.1 C 3.64 g/m*3 2.1 C 0 km/h
2841 21-02-2010 01:14:02 2 C 3.61 g/m*3 2 C 0 km/h
2842 21-02-2010 01:26:01 1.7 C 3.59 g/m*3 1.7 C 0 km/h
2843 21-02-2010 01:38:02 1.7 C 3.59 g/m*3 1.7 C 0 km/h
2844 21-02-2010 01:50:01 1.7 C 3.54 g/m*3 1.7 C 0 km/h
2845 21-02-2010 02:02:02 1.6 C 3.57 g/m*3 1.6 C 0 km/h
2846 21-02-2010 02:14:02 1.6 C 3.57 g/m*3 1.6 C 0 km/h
2847 21-02-2010 02:26:01 1.7 C 3.59 g/m*3 1.7 C 0 km/h
2848 21-02-2010 02:38:01 1.8 C 3.62 g/m*3 1.8 C 0 km/h
2849 21-02-2010 02:50:01 1.7 C 3.7 g/m*3 1.7 C 0 km/h
2850 21-02-2010 03:02:01 1.5 C 3.81 g/m*3 1.5 C 0 km/h
Sensor: Nr:Datum:Temp:Abs-Feuchte:Windchill:Wind:
Aussen-T/F 2851 21-02-2010 03:14:02 1.3 C 3.87 g/m*3 1.3 C 0 km/h
2852 21-02-2010 03:26:02 1 C 3.89 g/m*3 1 C 0 km/h
2853 21-02-2010 03:38:01 0.6 C 3.89 g/m*3 0.6 C 0 km/h
2854 21-02-2010 03:50:01 0.4 C 3.93 g/m*3 0.4 C 0 km/h
2855 21-02-2010 04:02:02 0.4 C 3.98 g/m*3 0.4 C 0 km/h
2856 21-02-2010 04:14:02 0.4 C 4.08 g/m*3 0.4 C 0 km/h
2857 21-02-2010 04:26:01 0.3 C 4.11 g/m*3 0.3 C 0 km/h
2858 21-02-2010 04:38:01 0.4 C 4.18 g/m*3 0.4 C 0 km/h
2859 21-02-2010 04:50:01 0.4 C 4.23 g/m*3 0.4 C 0 km/h
2860 21-02-2010 05:02:01 0.5 C 4.31 g/m*3 0.5 C 0 km/h
2861 21-02-2010 05:14:01 0.4 C 4.33 g/m*3 0.4 C 0 km/h
2862 21-02-2010 05:26:01 0.5 C 4.36 g/m*3 0.5 C 0 km/h
2863 21-02-2010 05:38:01 0.5 C 4.41 g/m*3 0.5 C 0 km/h
2864 21-02-2010 05:50:01 0.6 C 4.44 g/m*3 0.6 C 0 km/h
2865 21-02-2010 06:02:01 0.6 C 4.49 g/m*3 0.6 C 0 km/h
2866 21-02-2010 06:14:01 0.7 C 4.53 g/m*3 0.7 C 0 km/h
2867 21-02-2010 06:26:02 0.7 C 4.53 g/m*3 0.7 C 0 km/h
2868 21-02-2010 06:38:01 0.8 C 4.56 g/m*3 0.8 C 0 km/h
2869 21-02-2010 06:50:02 0.8 C 4.56 g/m*3 0.8 C 0 km/h
2870 21-02-2010 07:02:01 0.9 C 4.54 g/m*3 0.9 C 0 km/h
2871 21-02-2010 07:14:01 0.9 C 4.48 g/m*3 0.9 C 0 km/h
2872 21-02-2010 07:26:02 0.8 C 4.45 g/m*3 0.8 C 0 km/h
2873 21-02-2010 07:38:01 0.8 C 4.4 g/m*3 0.8 C 0 km/h
2874 21-02-2010 07:50:01 0.8 C 4.35 g/m*3 0.8 C 0 km/h
2875 21-02-2010 08:02:02 1.3 C 4.45 g/m*3 1.3 C 0 km/h
Sensor: Nr:Datum:Temp:Abs-Feuchte:Windchill:Wind:
Aussen-T/F 2876 21-02-2010 08:14:02 1.2 C 4.42 g/m*3 1.2 C 0 km/h
2877 21-02-2010 08:26:01 1.4 C 4.37 g/m*3 1.4 C 0 km/h
2878 21-02-2010 08:38:01 1.6 C 4.38 g/m*3 1.6 C 0 km/h
2879 21-02-2010 08:50:01 1.5 C 4.4 g/m*3 1.5 C 0 km/h
2880 21-02-2010 09:02:01 1.6 C 4.43 g/m*3 1.6 C 0 km/h
2881 21-02-2010 09:14:02 1.7 C 4.46 g/m*3 1.7 C 0 km/h
2882 21-02-2010 09:26:01 2 C 4.5 g/m*3 2 C 0 km/h
2883 21-02-2010 09:38:01 2.1 C 4.48 g/m*3 2.1 C 0 km/h
2884 21-02-2010 09:50:01 2.3 C 4.48 g/m*3 2.3 C 0 km/h
2885 21-02-2010 10:02:02 2.5 C 4.48 g/m*3 2.5 C 0 km/h
2886 21-02-2010 10:14:02 2.8 C 4.52 g/m*3 2.8 C 0 km/h
2887 21-02-2010 10:26:01 2.9 C 4.49 g/m*3 2.9 C 0 km/h
2888 21-02-2010 10:38:02 3 C 4.34 g/m*3 3 C 0 km/h
2889 21-02-2010 10:50:02 3.1 C 4.37 g/m*3 3.1 C 0 km/h
2890 21-02-2010 11:02:01 3.2 C 4.4 g/m*3 3.2 C 0 km/h
2891 21-02-2010 11:14:01 3.7 C 4.42 g/m*3 3.7 C 0 km/h
2892 21-02-2010 11:26:01 3.8 C 4.33 g/m*3 3.8 C 0 km/h
2893 21-02-2010 11:38:02 4 C 4.26 g/m*3 4 C 0 km/h
2894 21-02-2010 11:50:01 4.2 C 4.25 g/m*3 4.2 C 0 km/h
2895 21-02-2010 12:02:01 4.4 C 4.05 g/m*3 4.4 C 0 km/h
2896 21-02-2010 12:14:01 4.5 C 3.81 g/m*3 4.5 C 0 km/h
2897 21-02-2010 12:26:02 4.8 C 3.82 g/m*3 4.8 C 0 km/h
2898 21-02-2010 12:38:01 5 C 3.94 g/m*3 5 C 0 km/h
2899 21-02-2010 12:50:01 5.1 C 3.9 g/m*3 5.1 C 0 km/h
2900 21-02-2010 13:02:01 4.9 C 3.78 g/m*3 4.9 C 0 km/h
Sensor: Nr:Datum:Temp:Abs-Feuchte:Windchill:Wind:
Aussen-T/F 2901 21-02-2010 13:14:01 4.7 C 3.86 g/m*3 4.7 C 0 km/h
2902 21-02-2010 13:26:01 4.7 C 3.93 g/m*3 4.7 C 0 km/h
2903 21-02-2010 13:38:01 4.7 C 4.06 g/m*3 4.7 C 0 km/h
2904 21-02-2010 13:50:01 5.2 C 4.06 g/m*3 5.2 C 0 km/h
2905 21-02-2010 14:02:02 5.7 C 4.06 g/m*3 5.7 C 0 km/h
2906 21-02-2010 14:14:02 5.3 C 3.95 g/m*3 5.3 C 0 km/h
2907 21-02-2010 14:26:01 5.3 C 3.95 g/m*3 5.3 C 0 km/h
2908 21-02-2010 14:38:01 5.2 C 4.06 g/m*3 5.2 C 0 km/h
2909 21-02-2010 14:50:01 5.2 C 4.06 g/m*3 5.2 C 0 km/h
2910 21-02-2010 15:02:01 5.4 C 4.12 g/m*3 5.4 C 0 km/h
2911 21-02-2010 15:14:01 6.1 C 4.09 g/m*3 6.1 C 0 km/h
2912 21-02-2010 15:26:01 6.3 C 4.07 g/m*3 6.3 C 0 km/h
2913 21-02-2010 15:38:01 6.4 C 4.1 g/m*3 6.4 C 0 km/h
2914 21-02-2010 15:50:02 6.3 C 4.15 g/m*3 6.3 C 0 km/h
2915 21-02-2010 16:02:01 6.4 C 4.17 g/m*3 6.4 C 0 km/h
2916 21-02-2010 16:14:01 6.5 C 4.12 g/m*3 6.5 C 0 km/h
2917 21-02-2010 16:26:02 6.5 C 4.2 g/m*3 6.5 C 0 km/h
2918 21-02-2010 16:38:01 6.2 C 4.04 g/m*3 6.2 C 0 km/h
2919 21-02-2010 16:50:01 7.2 C 4.24 g/m*3 7.2 C 0 km/h
2920 21-02-2010 17:02:02 6.5 C 3.97 g/m*3 6.5 C 0 km/h
2921 21-02-2010 17:14:02 5.9 C 4.11 g/m*3 5.9 C 0 km/h
2922 21-02-2010 17:26:01 5.6 C 4.1 g/m*3 5.6 C 0 km/h
2923 21-02-2010 17:38:02 5.3 C 4.16 g/m*3 5.3 C 0 km/h
2924 21-02-2010 17:50:01 5.1 C 4.17 g/m*3 5.1 C 0 km/h
2925 21-02-2010 18:02:02 4.8 C 4.29 g/m*3 4.8 C 0 km/h
Sensor: Nr:Datum:Temp:Abs-Feuchte:Windchill:Wind:
Aussen-T/F 2926 21-02-2010 18:14:02 4.6 C 4.3 g/m*3 4.6 C 0 km/h
2927 21-02-2010 18:26:01 4.4 C 4.31 g/m*3 4.4 C 0 km/h
2928 21-02-2010 18:38:01 3.8 C 4.27 g/m*3 3.8 C 0 km/h
2929 21-02-2010 18:50:01 3.4 C 4.28 g/m*3 3.4 C 0 km/h
2930 21-02-2010 19:02:02 3 C 4.22 g/m*3 3 C 0 km/h
2931 21-02-2010 19:14:02 2.9 C 4.37 g/m*3 2.9 C 0 km/h
2932 21-02-2010 19:26:01 2.8 C 4.4 g/m*3 2.8 C 0 km/h
2933 21-02-2010 19:38:01 2.8 C 4.46 g/m*3 2.8 C 0 km/h
2934 21-02-2010 19:50:01 2.7 C 4.49 g/m*3 2.7 C 0 km/h
2935 21-02-2010 20:02:01 2.5 C 4.43 g/m*3 2.5 C 0 km/h
2936 21-02-2010 20:14:01 2.4 C 4.4 g/m*3 2.4 C 0 km/h
2937 21-02-2010 20:26:01 2.7 C 4.6 g/m*3 2.7 C 0 km/h
2938 21-02-2010 20:38:01 2.8 C 4.63 g/m*3 2.8 C 0 km/h
2939 21-02-2010 20:50:01 3 C 4.58 g/m*3 3 C 0 km/h
2940 21-02-2010 21:02:01 3 C 4.58 g/m*3 3 C 0 km/h
2941 21-02-2010 21:14:01 3 C 4.58 g/m*3 3 C 0 km/h
2942 21-02-2010 21:26:02 2.9 C 4.61 g/m*3 2.9 C 0 km/h
2943 21-02-2010 21:38:01 2.8 C 4.58 g/m*3 2.8 C 0 km/h
2944 21-02-2010 21:50:02 2.7 C 4.6 g/m*3 2.7 C 0 km/h
2945 21-02-2010 22:02:01 2.6 C 4.57 g/m*3 2.6 C 0 km/h
2946 21-02-2010 22:14:01 2.4 C 4.51 g/m*3 2.4 C 0 km/h
2947 21-02-2010 22:26:02 2.3 C 4.54 g/m*3 2.3 C 0 km/h
2948 21-02-2010 22:38:01 2.1 C 4.53 g/m*3 2.1 C 0 km/h
2949 21-02-2010 22:50:02 2.1 C 4.53 g/m*3 2.1 C 0 km/h
2950 21-02-2010 23:02:01 2.2 C 4.62 g/m*3 2.2 C 0 km/h
Sensor: Nr:Datum:Temp:Abs-Feuchte:Windchill:Wind:
Aussen-T/F 2951 21-02-2010 23:14:01 2.1 C 4.59 g/m*3 2.1 C 0 km/h
2952 21-02-2010 23:26:02 2 C 4.56 g/m*3 2 C 0 km/h
2953 21-02-2010 23:38:01 2 C 4.56 g/m*3 2 C 0 km/h
2954 21-02-2010 23:50:02 1.9 C 4.58 g/m*3 1.9 C 0 km/h
2955 22-02-2010 00:02:01 1.9 C 4.58 g/m*3 1.9 C 0 km/h
2956 22-02-2010 00:14:01 1.8 C 4.55 g/m*3 1.8 C 0 km/h
2957 22-02-2010 00:26:01 1.7 C 4.57 g/m*3 1.7 C 0 km/h
2958 22-02-2010 00:38:02 1.7 C 4.57 g/m*3 1.7 C 0 km/h
2959 22-02-2010 00:50:01 1.6 C 4.54 g/m*3 1.6 C 0 km/h
2960 22-02-2010 01:02:02 1.6 C 4.54 g/m*3 1.6 C 0 km/h
2961 22-02-2010 01:14:02 1.5 C 4.51 g/m*3 1.5 C 0 km/h
2962 22-02-2010 01:26:01 1.3 C 4.45 g/m*3 1.3 C 0 km/h
2963 22-02-2010 01:38:02 1.3 C 4.45 g/m*3 1.3 C 0 km/h
2964 22-02-2010 01:50:01 1.3 C 4.45 g/m*3 1.3 C 0 km/h
2965 22-02-2010 02:02:02 1.3 C 4.45 g/m*3 1.3 C 0 km/h
2966 22-02-2010 02:14:02 1.3 C 4.45 g/m*3 1.3 C 0 km/h
2967 22-02-2010 02:26:01 1 C 4.36 g/m*3 1 C 0 km/h
2968 22-02-2010 02:38:01 1 C 4.36 g/m*3 1 C 0 km/h
2969 22-02-2010 02:50:01 1 C 4.41 g/m*3 1 C 0 km/h
2970 22-02-2010 03:02:01 1.1 C 4.44 g/m*3 1.1 C 0 km/h
2971 22-02-2010 03:14:02 1.1 C 4.44 g/m*3 1.1 C 0 km/h
2972 22-02-2010 03:26:02 1 C 4.41 g/m*3 1 C 0 km/h
2973 22-02-2010 03:38:01 1.1 C 4.44 g/m*3 1.1 C 0 km/h
2974 22-02-2010 03:50:01 1.1 C 4.49 g/m*3 1.1 C 0 km/h
2975 22-02-2010 04:02:02 1.4 C 4.59 g/m*3 1.4 C 0 km/h
Sensor: Nr:Datum:Temp:Abs-Feuchte:Windchill:Wind:
Aussen-T/F 2976 22-02-2010 04:14:02 1.1 C 4.44 g/m*3 1.1 C 0 km/h
2977 22-02-2010 04:26:01 1 C 4.41 g/m*3 1 C 0 km/h
2978 22-02-2010 04:38:02 1.1 C 4.49 g/m*3 1.1 C 0 km/h
2979 22-02-2010 04:50:01 1.1 C 4.49 g/m*3 1.1 C 0 km/h
2980 22-02-2010 05:02:02 1.1 C 4.49 g/m*3 1.1 C 0 km/h
2981 22-02-2010 05:14:02 1.2 C 4.53 g/m*3 1.2 C 0 km/h
2982 22-02-2010 05:26:01 1.4 C 4.59 g/m*3 1.4 C 0 km/h
2983 22-02-2010 05:38:01 1.4 C 4.59 g/m*3 1.4 C 0 km/h
2984 22-02-2010 05:50:01 1.5 C 4.62 g/m*3 1.5 C 0 km/h
2985 22-02-2010 06:02:01 1.5 C 4.62 g/m*3 1.5 C 0 km/h
2986 22-02-2010 06:14:02 1.5 C 4.62 g/m*3 1.5 C 0 km/h
2987 22-02-2010 06:26:01 1.5 C 4.62 g/m*3 1.5 C 0 km/h
2988 22-02-2010 06:38:01 1.6 C 4.65 g/m*3 1.6 C 0 km/h
2989 22-02-2010 06:50:01 1.6 C 4.65 g/m*3 1.6 C 0 km/h
2990 22-02-2010 07:02:01 1.6 C 4.65 g/m*3 1.6 C 0 km/h
2991 22-02-2010 07:14:01 1.8 C 4.77 g/m*3 1.8 C 0 km/h
2992 22-02-2010 07:26:02 2.2 C 4.9 g/m*3 2.2 C 0 km/h
2993 22-02-2010 07:38:01 2.3 C 4.93 g/m*3 2.3 C 0 km/h
2994 22-02-2010 07:50:02 2.5 C 5 g/m*3 2.5 C 0 km/h
2995 22-02-2010 08:02:01 2.7 C 5.07 g/m*3 2.7 C 0 km/h
2996 22-02-2010 08:14:01 3 C 5.11 g/m*3 3 C 0 km/h
2997 22-02-2010 08:26:02 3.2 C 5.12 g/m*3 3.2 C 0 km/h
2998 22-02-2010 08:38:01 3.5 C 5.16 g/m*3 3.5 C 0 km/h
2999 22-02-2010 08:50:02 3.8 C 5.21 g/m*3 3.8 C 0 km/h
3000 22-02-2010 09:02:01 4.2 C 5.22 g/m*3 4.2 C 0 km/h
Sensor: Nr:Datum:Temp:Abs-Feuchte:Windchill:Wind:
Aussen-T/F 3001 22-02-2010 09:14:01 4.5 C 5.32 g/m*3 4.5 C 0 km/h
3002 22-02-2010 09:26:01 4.8 C 5.3 g/m*3 4.8 C 0 km/h
3003 22-02-2010 09:38:01 5.1 C 5.27 g/m*3 5.1 C 0 km/h
3004 22-02-2010 09:50:02 5.3 C 5.2 g/m*3 5.3 C 0 km/h
3005 22-02-2010 10:02:01 5.7 C 5.19 g/m*3 5.7 C 0 km/h
3006 22-02-2010 10:14:01 6.3 C 5.18 g/m*3 6.3 C 0 km/h
3007 22-02-2010 10:26:01 6.9 C 5.08 g/m*3 6.9 C 0 km/h
3008 22-02-2010 10:38:02 7.2 C 5.02 g/m*3 7.2 C 0 km/h
3009 22-02-2010 10:50:01 7.6 C 5.08 g/m*3 7.6 C 0 km/h
3010 22-02-2010 11:02:01 7.7 C 5.19 g/m*3 7.7 C 0 km/h
3011 22-02-2010 11:14:01 8 C 5.21 g/m*3 8 C 0 km/h
3012 22-02-2010 11:26:02 8.5 C 5.21 g/m*3 8.5 C 0 km/h
3013 22-02-2010 11:38:01 8.9 C 5.26 g/m*3 8.9 C 0 km/h
3014 22-02-2010 11:50:02 8.7 C 5.19 g/m*3 8.7 C 0 km/h
3015 22-02-2010 12:02:01 8.6 C 5.33 g/m*3 8.6 C 0 km/h
3016 22-02-2010 12:14:01 8.4 C 5.51 g/m*3 8.4 C 0 km/h
3017 22-02-2010 12:26:02 8.8 C 5.74 g/m*3 8.8 C 0 km/h
3018 22-02-2010 12:38:01 9.7 C 5.81 g/m*3 9.7 C 0 km/h
3019 22-02-2010 12:50:02 10.3 C 5.55 g/m*3 10.3 C 0 km/h
3020 22-02-2010 13:02:01 10.6 C 5.37 g/m*3 10.6 C 0 km/h
3021 22-02-2010 13:14:01 11.2 C 5.27 g/m*3 11.2 C 0 km/h
3022 22-02-2010 13:26:01 11.7 C 5.12 g/m*3 11.7 C 0 km/h
3023 22-02-2010 13:38:02 11.4 C 5.13 g/m*3 11.4 C 0 km/h
3024 22-02-2010 13:50:01 11.8 C 5.26 g/m*3 11.8 C 0 km/h
3025 22-02-2010 14:02:02 11.9 C 5.08 g/m*3 11.9 C 0 km/h
Sensor: Nr:Datum:Temp:Abs-Feuchte:Windchill:Wind:
Aussen-T/F 3026 22-02-2010 14:14:02 12.7 C 5.01 g/m*3 12.7 C 0 km/h
3027 22-02-2010 14:26:01 12.2 C 5.07 g/m*3 12.2 C 0 km/h
3028 22-02-2010 14:38:02 12.5 C 5.06 g/m*3 12.5 C 0 km/h
3029 22-02-2010 14:50:01 12.2 C 5.07 g/m*3 12.2 C 0 km/h
3030 22-02-2010 15:02:02 12.3 C 5.1 g/m*3 12.3 C 0 km/h
3031 22-02-2010 15:14:02 12.7 C 5.12 g/m*3 12.7 C 0 km/h
3032 22-02-2010 15:26:01 13.3 C 5.2 g/m*3 13.3 C 0 km/h
3033 22-02-2010 15:38:02 13.4 C 5 g/m*3 13.4 C 0 km/h
3034 22-02-2010 15:50:01 12.7 C 5.23 g/m*3 12.7 C 0 km/h
3035 22-02-2010 16:02:02 12.4 C 5.14 g/m*3 12.4 C 0 km/h
3036 22-02-2010 16:14:02 11.9 C 5.3 g/m*3 11.9 C 0 km/h
3037 22-02-2010 16:26:01 11.5 C 5.37 g/m*3 11.5 C 0 km/h
3038 22-02-2010 16:38:01 11.4 C 5.44 g/m*3 11.4 C 0 km/h
3039 22-02-2010 16:50:01 11.8 C 5.58 g/m*3 11.8 C 0 km/h
3040 22-02-2010 17:02:01 12.1 C 5.47 g/m*3 12.1 C 0 km/h
3041 22-02-2010 17:14:01 11.8 C 5.47 g/m*3 11.8 C 0 km/h
3042 22-02-2010 17:26:01 11.3 C 5.51 g/m*3 11.3 C 0 km/h
3043 22-02-2010 17:38:01 10.7 C 5.6 g/m*3 10.7 C 0 km/h
3044 22-02-2010 17:50:01 10.4 C 5.69 g/m*3 10.4 C 0 km/h
3045 22-02-2010 18:02:01 10.1 C 5.67 g/m*3 10.1 C 0 km/h
3046 22-02-2010 18:14:01 9.9 C 5.79 g/m*3 9.9 C 0 km/h
3047 22-02-2010 18:26:02 9.7 C 5.72 g/m*3 9.7 C 0 km/h
3048 22-02-2010 18:38:01 9.4 C 5.7 g/m*3 9.4 C 0 km/h
3049 22-02-2010 18:50:02 9.2 C 5.8 g/m*3 9.2 C 0 km/h
3050 22-02-2010 19:02:01 9 C 5.73 g/m*3 9 C 0 km/h
Sensor: Nr:Datum:Temp:Abs-Feuchte:Windchill:Wind:
Aussen-T/F 3051 22-02-2010 19:14:01 8.9 C 5.87 g/m*3 8.9 C 0 km/h
3052 22-02-2010 19:26:02 8.9 C 5.87 g/m*3 8.9 C 0 km/h
3053 22-02-2010 19:38:01 9 C 5.82 g/m*3 9 C 0 km/h
3054 22-02-2010 19:50:02 9.1 C 5.77 g/m*3 9.1 C 0 km/h
3055 22-02-2010 20:02:02 9.1 C 5.68 g/m*3 9.1 C 0 km/h
3056 22-02-2010 20:14:02 9.2 C 5.63 g/m*3 9.2 C 0 km/h
3057 22-02-2010 20:26:01 9.5 C 5.64 g/m*3 9.5 C 0 km/h
3058 22-02-2010 20:38:02 9.4 C 5.52 g/m*3 9.4 C 0 km/h
3059 22-02-2010 20:50:02 9 C 5.47 g/m*3 9 C 0 km/h
3060 22-02-2010 21:02:01 8.7 C 5.53 g/m*3 8.7 C 0 km/h
3061 22-02-2010 21:14:01 8.9 C 5.52 g/m*3 8.9 C 0 km/h
3062 22-02-2010 21:26:01 8.8 C 5.48 g/m*3 8.8 C 0 km/h
3063 22-02-2010 21:38:02 8.9 C 5.52 g/m*3 8.9 C 0 km/h
3064 22-02-2010 21:50:01 8.9 C 5.52 g/m*3 8.9 C 0 km/h
3065 22-02-2010 22:02:02 9.1 C 5.5 g/m*3 9.1 C 0 km/h
3066 22-02-2010 22:14:02 9.5 C 5.55 g/m*3 9.5 C 0 km/h
3067 22-02-2010 22:28:08 10.1 C 5.67 g/m*3 10.1 C 0 km/h
3068 22-02-2010 22:40:08 11.1 C 5.54 g/m*3 11.1 C 0 km/h
3069 22-02-2010 22:52:08 11.5 C 5.47 g/m*3 11.5 C 0 km/h
3070 22-02-2010 23:04:08 12 C 5.33 g/m*3 12 C 0 km/h
3071 22-02-2010 23:16:08 12.1 C 5.36 g/m*3 12.1 C 0 km/h
3072 22-02-2010 23:28:08 12.1 C 5.47 g/m*3 12.1 C 0 km/h
3073 22-02-2010 23:40:08 12 C 5.44 g/m*3 12 C 0 km/h
3074 22-02-2010 23:52:08 12.2 C 5.5 g/m*3 12.2 C 0 km/h
3075 23-02-2010 00:04:08 12.1 C 5.47 g/m*3 12.1 C 0 km/h
Sensor: Nr:Datum:Temp:Abs-Feuchte:Windchill:Wind:
Aussen-T/F 3076 23-02-2010 00:16:08 12.1 C 5.47 g/m*3 12.1 C 0 km/h
3077 23-02-2010 00:28:08 12.2 C 5.5 g/m*3 12.2 C 0 km/h
3078 23-02-2010 00:40:08 12.2 C 5.4 g/m*3 12.2 C 0 km/h
3079 23-02-2010 00:52:08 12.1 C 5.36 g/m*3 12.1 C 0 km/h
3080 23-02-2010 01:04:08 11.8 C 5.47 g/m*3 11.8 C 0 km/h
3081 23-02-2010 01:16:08 11.5 C 5.58 g/m*3 11.5 C 0 km/h
3082 23-02-2010 01:28:08 11.4 C 5.75 g/m*3 11.4 C 0 km/h
3083 23-02-2010 01:40:08 11.4 C 5.75 g/m*3 11.4 C 0 km/h
3084 23-02-2010 01:52:08 11.4 C 5.85 g/m*3 11.4 C 0 km/h
3085 23-02-2010 02:04:08 11.2 C 5.78 g/m*3 11.2 C 0 km/h
3086 23-02-2010 02:16:08 11.2 C 5.88 g/m*3 11.2 C 0 km/h
3087 23-02-2010 02:28:08 10.6 C 6.25 g/m*3 10.6 C 0 km/h
3088 23-02-2010 02:40:08 10.4 C 6.46 g/m*3 10.4 C 0 km/h
3089 23-02-2010 02:52:08 9.6 C 6.78 g/m*3 9.6 C 0 km/h
3090 23-02-2010 03:04:09 9.3 C 6.83 g/m*3 9.3 C 0 km/h
3091 23-02-2010 03:16:09 9.2 C 6.97 g/m*3 9.2 C 0 km/h
3092 23-02-2010 03:28:09 9.1 C 6.92 g/m*3 9.1 C 0 km/h
3093 23-02-2010 03:40:09 9.1 C 7.01 g/m*3 9.1 C 0 km/h
3094 23-02-2010 03:52:09 8.9 C 7.1 g/m*3 8.9 C 0 km/h
3095 23-02-2010 04:04:09 8.6 C 7.13 g/m*3 8.6 C 0 km/h
3096 23-02-2010 04:16:09 8.6 C 7.22 g/m*3 8.6 C 0 km/h
3097 23-02-2010 04:28:09 8.5 C 7.17 g/m*3 8.5 C 0 km/h
3098 23-02-2010 04:40:09 8.6 C 7.22 g/m*3 8.6 C 0 km/h
3099 23-02-2010 04:52:09 8.5 C 7.17 g/m*3 8.5 C 0 km/h
3100 23-02-2010 05:04:09 8.4 C 7.04 g/m*3 8.4 C 0 km/h
Sensor: Nr:Datum:Temp:Abs-Feuchte:Windchill:Wind:
Aussen-T/F 3101 23-02-2010 05:16:09 8.5 C 7.17 g/m*3 8.5 C 0 km/h
3102 23-02-2010 05:28:09 8.3 C 7.08 g/m*3 8.3 C 0 km/h
3103 23-02-2010 05:40:09 8.5 C 7.17 g/m*3 8.5 C 0 km/h
3104 23-02-2010 05:52:09 8.5 C 7.09 g/m*3 8.5 C 0 km/h
3105 23-02-2010 06:04:09 8.5 C 7.09 g/m*3 8.5 C 0 km/h
3106 23-02-2010 06:16:09 8.5 C 7.09 g/m*3 8.5 C 0 km/h
3107 23-02-2010 06:28:09 8.5 C 7.09 g/m*3 8.5 C 0 km/h
3108 23-02-2010 06:40:09 8.5 C 7.09 g/m*3 8.5 C 0 km/h
3109 23-02-2010 06:52:09 8.5 C 7.09 g/m*3 8.5 C 0 km/h
3110 23-02-2010 07:04:09 8.4 C 7.04 g/m*3 8.4 C 0 km/h
3111 23-02-2010 07:16:08 8.2 C 6.95 g/m*3 8.2 C 0 km/h
3112 23-02-2010 07:28:08 8.1 C 6.99 g/m*3 8.1 C 0 km/h
3113 23-02-2010 07:40:08 8.2 C 7.03 g/m*3 8.2 C 0 km/h
3114 23-02-2010 07:52:01 8.2 C 7.03 g/m*3 8.2 C 0 km/h
3115 23-02-2010 08:04:02 8.3 C 7.16 g/m*3 8.3 C 0 km/h
3116 23-02-2010 08:16:01 8.5 C 7.26 g/m*3 8.5 C 0 km/h
3117 23-02-2010 08:28:01 8.6 C 7.22 g/m*3 8.6 C 0 km/h
3118 23-02-2010 08:40:02 8.8 C 7.31 g/m*3 8.8 C 0 km/h
3119 23-02-2010 08:52:02 8.9 C 7.27 g/m*3 8.9 C 0 km/h
3120 23-02-2010 09:04:02 9 C 7.23 g/m*3 9 C 0 km/h
3121 23-02-2010 09:16:01 9.1 C 7.28 g/m*3 9.1 C 0 km/h
3122 23-02-2010 09:28:01 9.1 C 7.1 g/m*3 9.1 C 0 km/h
3123 23-02-2010 09:40:02 9.1 C 7.01 g/m*3 9.1 C 0 km/h
3124 23-02-2010 09:52:02 9.3 C 7.19 g/m*3 9.3 C 0 km/h
3125 23-02-2010 10:04:02 9.7 C 7.19 g/m*3 9.7 C 0 km/h
Sensor: Nr:Datum:Temp:Abs-Feuchte:Windchill:Wind:
Aussen-T/F 3126 23-02-2010 10:16:01 10.4 C 7.04 g/m*3 10.4 C 0 km/h
3127 23-02-2010 10:28:01 10.7 C 6.88 g/m*3 10.7 C 0 km/h
3128 23-02-2010 10:40:02 10.6 C 6.83 g/m*3 10.6 C 0 km/h
3129 23-02-2010 10:52:01 10.6 C 6.73 g/m*3 10.6 C 0 km/h
3130 23-02-2010 11:04:02 10.8 C 6.92 g/m*3 10.8 C 0 km/h
3131 23-02-2010 11:16:02 11 C 6.81 g/m*3 11 C 0 km/h
3132 23-02-2010 11:28:02 11.2 C 6.69 g/m*3 11.2 C 0 km/h
3133 23-02-2010 11:40:02 11.4 C 6.57 g/m*3 11.4 C 0 km/h
3134 23-02-2010 11:52:01 11.6 C 6.55 g/m*3 11.6 C 0 km/h
3135 23-02-2010 12:04:02 11.2 C 6.49 g/m*3 11.2 C 0 km/h
3136 23-02-2010 12:16:02 10.9 C 6.66 g/m*3 10.9 C 0 km/h
3137 23-02-2010 12:28:02 10.3 C 6.9 g/m*3 10.3 C 0 km/h
3138 23-02-2010 12:40:01 10.5 C 7.27 g/m*3 10.5 C 0 km/h
3139 23-02-2010 12:52:02 10.4 C 7.13 g/m*3 10.4 C 0 km/h
3140 23-02-2010 13:04:01 10.3 C 7.18 g/m*3 10.3 C 0 km/h
3141 23-02-2010 13:16:02 10.4 C 7.32 g/m*3 10.4 C 0 km/h
3142 23-02-2010 13:28:02 10.5 C 7.37 g/m*3 10.5 C 0 km/h
3143 23-02-2010 13:40:01 10.3 C 7.47 g/m*3 10.3 C 0 km/h
3144 23-02-2010 13:52:02 10.6 C 7.71 g/m*3 10.6 C 0 km/h
3145 23-02-2010 14:04:02 10.9 C 7.76 g/m*3 10.9 C 0 km/h
3146 23-02-2010 14:16:02 11 C 7.81 g/m*3 11 C 0 km/h
3147 23-02-2010 14:28:02 10.8 C 7.71 g/m*3 10.8 C 0 km/h
3148 23-02-2010 14:40:03 10.9 C 7.76 g/m*3 10.9 C 0 km/h
3149 23-02-2010 14:52:02 11 C 7.61 g/m*3 11 C 0 km/h
3150 23-02-2010 15:04:01 11 C 7.71 g/m*3 11 C 0 km/h
Sensor: Nr:Datum:Temp:Abs-Feuchte:Windchill:Wind:
Aussen-T/F 3151 23-02-2010 15:16:02 11 C 7.71 g/m*3 11 C 0 km/h
3152 23-02-2010 15:28:02 11 C 7.81 g/m*3 11 C 0 km/h
3153 23-02-2010 15:40:02 11.1 C 7.66 g/m*3 11.1 C 0 km/h
3154 23-02-2010 15:52:02 11 C 7.51 g/m*3 11 C 0 km/h
3155 23-02-2010 16:04:03 10.7 C 7.46 g/m*3 10.7 C 0 km/h
3156 23-02-2010 16:16:02 10.5 C 7.47 g/m*3 10.5 C 0 km/h
3157 23-02-2010 16:28:02 10.6 C 7.52 g/m*3 10.6 C 0 km/h
3158 23-02-2010 16:40:02 10.6 C 7.52 g/m*3 10.6 C 0 km/h
3159 23-02-2010 16:52:01 10.4 C 7.32 g/m*3 10.4 C 0 km/h
3160 23-02-2010 17:04:02 10.4 C 7.32 g/m*3 10.4 C 0 km/h
3161 23-02-2010 17:16:01 10.2 C 7.23 g/m*3 10.2 C 0 km/h
3162 23-02-2010 17:28:01 10.1 C 7.09 g/m*3 10.1 C 0 km/h
3163 23-02-2010 17:40:02 10.1 C 7.19 g/m*3 10.1 C 0 km/h
3164 23-02-2010 17:52:01 10 C 7.14 g/m*3 10 C 0 km/h
3165 23-02-2010 18:04:02 9.8 C 7.24 g/m*3 9.8 C 0 km/h
3166 23-02-2010 18:16:01 9.6 C 7.33 g/m*3 9.6 C 0 km/h
3167 23-02-2010 18:28:01 9.6 C 7.33 g/m*3 9.6 C 0 km/h
3168 23-02-2010 18:40:02 9.5 C 7.37 g/m*3 9.5 C 0 km/h
3169 23-02-2010 18:52:01 9.5 C 7.46 g/m*3 9.5 C 0 km/h
3170 23-02-2010 19:04:02 9.2 C 7.41 g/m*3 9.2 C 0 km/h
3171 23-02-2010 19:16:02 9.1 C 7.45 g/m*3 9.1 C 0 km/h
3172 23-02-2010 19:28:02 9.2 C 7.59 g/m*3 9.2 C 0 km/h
3173 23-02-2010 19:40:02 9.2 C 7.68 g/m*3 9.2 C 0 km/h
3174 23-02-2010 19:52:02 9.2 C 7.68 g/m*3 9.2 C 0 km/h
3175 23-02-2010 20:04:02 9 C 7.67 g/m*3 9 C 0 km/h
Sensor: Nr:Datum:Temp:Abs-Feuchte:Windchill:Wind:
Aussen-T/F 3176 23-02-2010 20:16:02 9.1 C 7.81 g/m*3 9.1 C 0 km/h
3177 23-02-2010 20:28:02 9 C 7.76 g/m*3 9 C 0 km/h
3178 23-02-2010 20:40:02 9 C 7.76 g/m*3 9 C 0 km/h
3179 23-02-2010 20:52:01 9.2 C 7.86 g/m*3 9.2 C 0 km/h
3180 23-02-2010 21:04:02 9.3 C 7.91 g/m*3 9.3 C 0 km/h
3181 23-02-2010 21:16:01 9.4 C 7.78 g/m*3 9.4 C 0 km/h
3182 23-02-2010 21:28:01 9.6 C 7.6 g/m*3 9.6 C 0 km/h
3183 23-02-2010 21:40:02 9.6 C 7.33 g/m*3 9.6 C 0 km/h
3184 23-02-2010 21:52:02 9.5 C 7.1 g/m*3 9.5 C 0 km/h
3185 23-02-2010 22:04:02 9.3 C 6.92 g/m*3 9.3 C 0 km/h
3186 23-02-2010 22:16:02 9.3 C 6.92 g/m*3 9.3 C 0 km/h
3187 23-02-2010 22:28:02 9.3 C 6.74 g/m*3 9.3 C 0 km/h
3188 23-02-2010 22:40:02 8.9 C 6.75 g/m*3 8.9 C 0 km/h
3189 23-02-2010 22:52:01 8.7 C 6.75 g/m*3 8.7 C 0 km/h
3190 23-02-2010 23:04:02 8.5 C 6.66 g/m*3 8.5 C 0 km/h
3191 23-02-2010 23:16:02 8.5 C 6.66 g/m*3 8.5 C 0 km/h
3192 23-02-2010 23:28:02 8.2 C 6.62 g/m*3 8.2 C 0 km/h
3193 23-02-2010 23:40:01 8.2 C 6.7 g/m*3 8.2 C 0 km/h
3194 23-02-2010 23:52:02 8.2 C 6.7 g/m*3 8.2 C 0 km/h
3195 24-02-2010 00:04:01 8.1 C 6.66 g/m*3 8.1 C 0 km/h
3196 24-02-2010 00:16:02 7.9 C 6.74 g/m*3 7.9 C 0 km/h
3197 24-02-2010 00:28:02 7.9 C 6.82 g/m*3 7.9 C 0 km/h
3198 24-02-2010 00:40:01 7.8 C 6.77 g/m*3 7.8 C 0 km/h
3199 24-02-2010 00:52:02 7.5 C 6.64 g/m*3 7.5 C 0 km/h
3200 24-02-2010 01:04:01 7.3 C 6.64 g/m*3 7.3 C 0 km/h
Sensor: Nr:Datum:Temp:Abs-Feuchte:Windchill:Wind:
Aussen-T/F 3201 24-02-2010 01:16:02 7.5 C 6.8 g/m*3 7.5 C 0 km/h
3202 24-02-2010 01:28:02 8.1 C 6.99 g/m*3 8.1 C 0 km/h
3203 24-02-2010 01:40:01 8.7 C 6.92 g/m*3 8.7 C 0 km/h
3204 24-02-2010 01:52:02 8.6 C 6.7 g/m*3 8.6 C 0 km/h
3205 24-02-2010 02:04:02 8.3 C 6.57 g/m*3 8.3 C 0 km/h
3206 24-02-2010 02:16:02 8.1 C 6.57 g/m*3 8.1 C 0 km/h
3207 24-02-2010 02:28:02 7.9 C 6.74 g/m*3 7.9 C 0 km/h
3208 24-02-2010 02:40:02 7.9 C 6.82 g/m*3 7.9 C 0 km/h
3209 24-02-2010 02:52:01 7.8 C 6.77 g/m*3 7.8 C 0 km/h
3210 24-02-2010 03:04:01 7.7 C 6.73 g/m*3 7.7 C 0 km/h
3211 24-02-2010 03:16:01 7.9 C 6.9 g/m*3 7.9 C 0 km/h
3212 24-02-2010 03:28:01 8 C 6.86 g/m*3 8 C 0 km/h
3213 24-02-2010 03:40:02 8 C 6.78 g/m*3 8 C 0 km/h
3214 24-02-2010 03:52:02 8 C 6.78 g/m*3 8 C 0 km/h
3215 24-02-2010 04:04:01 8 C 6.78 g/m*3 8 C 0 km/h
3216 24-02-2010 04:16:02 8 C 6.86 g/m*3 8 C 0 km/h
3217 24-02-2010 04:28:02 8 C 6.86 g/m*3 8 C 0 km/h
3218 24-02-2010 04:40:01 8 C 6.86 g/m*3 8 C 0 km/h
3219 24-02-2010 04:52:02 8.1 C 6.91 g/m*3 8.1 C 0 km/h
3220 24-02-2010 05:04:01 8.3 C 7 g/m*3 8.3 C 0 km/h
3221 24-02-2010 05:16:01 8.4 C 6.96 g/m*3 8.4 C 0 km/h
3222 24-02-2010 05:28:01 8.2 C 6.78 g/m*3 8.2 C 0 km/h
3223 24-02-2010 05:40:01 8.3 C 6.83 g/m*3 8.3 C 0 km/h
3224 24-02-2010 05:52:02 8.4 C 6.79 g/m*3 8.4 C 0 km/h
3225 24-02-2010 06:04:01 8.2 C 6.62 g/m*3 8.2 C 0 km/h
Sensor: Nr:Datum:Temp:Abs-Feuchte:Windchill:Wind:
Aussen-T/F 3226 24-02-2010 06:16:01 7.9 C 6.65 g/m*3 7.9 C 0 km/h
3227 24-02-2010 06:28:01 7.8 C 6.61 g/m*3 7.8 C 0 km/h
3228 24-02-2010 06:40:02 7.6 C 6.53 g/m*3 7.6 C 0 km/h
3229 24-02-2010 06:52:01 7.3 C 6.4 g/m*3 7.3 C 0 km/h
3230 24-02-2010 07:04:01 7.3 C 6.56 g/m*3 7.3 C 0 km/h
3231 24-02-2010 07:16:01 7.4 C 6.6 g/m*3 7.4 C 0 km/h
3232 24-02-2010 07:28:01 7.5 C 6.64 g/m*3 7.5 C 0 km/h
3233 24-02-2010 07:40:02 7.5 C 6.56 g/m*3 7.5 C 0 km/h
3234 24-02-2010 07:52:01 7.4 C 6.6 g/m*3 7.4 C 0 km/h
3235 24-02-2010 08:04:02 7.5 C 6.64 g/m*3 7.5 C 0 km/h
3236 24-02-2010 08:16:01 7.5 C 6.56 g/m*3 7.5 C 0 km/h
3237 24-02-2010 08:28:01 7.9 C 6.82 g/m*3 7.9 C 0 km/h
3238